Provisional Data: Loyalsock Creek near Ringdale, PA


Please select a monitoring station.
Please select start date.
Please select start date.

Toggle Unit: C/F Toggle Unit: C/F
Sample Time Temperature (C) Temperature (F) Specific Conductivity (mS/cm) pH   Turbidity (NTU+) DO (mg/L)
12/23/2022 12:00:00 AM 0.2 32.36 0.039 6.46 4.52 13.49
12/23/2022 12:15:00 AM 0.19 32.342 0.038 6.45 4.86 13.49
12/23/2022 12:30:00 AM 0.19 32.342 0.037 6.45 5.97 13.47
12/23/2022 12:45:00 AM 0.17 32.306 0.036 6.44 6.59 13.46
12/23/2022 1:00:00 AM 0.18 32.324 0.036 6.44 8.25 13.46
12/23/2022 1:15:00 AM 0.18 32.324 0.034 6.43 8.3 13.44
12/23/2022 1:30:00 AM 0.19 32.342 0.033 6.42 8.71 13.44
12/23/2022 1:45:00 AM 0.21 32.378 0.034 6.41 10.35 13.42
12/23/2022 2:00:00 AM 0.2 32.36 0.034 6.39 12.75 13.41
12/23/2022 2:15:00 AM 0.22 32.396 0.033 6.37 13.62 13.4
12/23/2022 2:30:00 AM 0.2 32.36 0.032 6.35 16.76 13.38
12/23/2022 2:45:00 AM 0.17 32.306 0.031 6.32 17.16 13.37
12/23/2022 3:00:00 AM 0.21 32.378 0.029 6.3 13.68 13.36
12/23/2022 3:15:00 AM 0.26 32.468 0.028 6.28 19.92 13.33
12/23/2022 3:30:00 AM 0.33 32.594 0.027 6.24 22.69 13.33
12/23/2022 3:45:00 AM 0.38 32.684 0.027 6.22 20.03 13.31
12/23/2022 4:00:00 AM 0.41 32.738 0.025 6.18 24.78 13.31
12/23/2022 4:15:00 AM 0.46 32.828 0.024 6.15 25.42 13.31
12/23/2022 4:30:00 AM 0.5 32.9 0.023 6.12 26.25 13.31
12/23/2022 4:45:00 AM 0.53 32.954 0.023 6.13 27.02 13.31
12/23/2022 5:00:00 AM 0.54 32.972 0.023 6.09 30.29 13.31
12/23/2022 5:15:00 AM 0.56 33.008 0.022 6.04 39.49 13.3
12/23/2022 5:30:00 AM 0.6 33.08 0.022 6.04 27.66 13.29
12/23/2022 5:45:00 AM 0.62 33.116 0.022 6 28.86 13.29
12/23/2022 6:00:00 AM 0.63 33.134 0.022 5.98 28.56 13.3
12/23/2022 6:15:00 AM 0.63 33.134 0.022 5.99 33.6 13.3
12/23/2022 6:30:00 AM 0.65 33.17 0.022 5.96 30.41 13.29
12/23/2022 6:45:00 AM 0.64 33.152 0.022 5.96 37.45 13.29
12/23/2022 7:00:00 AM 0.66 33.188 0.022 5.94 31.96 13.28
12/23/2022 7:15:00 AM 0.67 33.206 0.022 5.92 27.7 13.28
12/23/2022 7:30:00 AM 0.67 33.206 0.022 5.91 33.02 13.27
12/23/2022 7:45:00 AM 0.68 33.224 0.021 5.91 30.73 13.26
12/23/2022 8:00:00 AM 0.7 33.26 0.021 5.87 30.13 13.25
12/23/2022 8:15:00 AM 0.72 33.296 0.021 5.9 27.68 13.24
12/23/2022 8:30:00 AM 0.72 33.296 0.021 5.88 29.97 13.22
12/23/2022 8:45:00 AM 0.72 33.296 0.021 5.88 34.85 13.21
12/23/2022 9:00:00 AM 0.75 33.35 0.021 5.87 30.65 13.2
12/23/2022 9:15:00 AM 0.77 33.386 0.021 5.88 27.33 13.18
12/23/2022 9:30:00 AM 0.78 33.404 0.021 5.87 26.84 13.18
12/23/2022 9:45:00 AM 0.78 33.404 0.021 5.89 24.24 13.17
12/23/2022 10:00:00 AM 0.79 33.422 0.021 5.87 24.19 13.16
12/23/2022 10:15:00 AM 0.78 33.404 0.021 5.86 24.64 13.16
12/23/2022 10:30:00 AM 0.77 33.386 0.021 5.88 25.1 13.15
12/23/2022 10:45:00 AM 0.77 33.386 0.021 5.85 29.69 13.16
12/23/2022 11:00:00 AM 0.74 33.332 0.021 5.87 22.7 13.16
12/23/2022 11:15:00 AM 0.73 33.314 0.02 5.86 24.49 13.17
12/23/2022 11:30:00 AM 0.73 33.314 0.02 5.85 27.35 13.19
12/23/2022 11:45:00 AM 0.73 33.314 0.02 5.83 21.25 13.19
12/23/2022 12:00:00 PM 0.73 33.314 0.02 5.83 16.8 13.2
12/23/2022 12:15:00 PM 0.71 33.278 0.02 5.81 22.6 13.21
12/23/2022 12:30:00 PM 0.68 33.224 0.02 5.8 20.29 13.22
12/23/2022 12:45:00 PM 0.65 33.17 0.02 5.79 17.37 13.23
12/23/2022 1:00:00 PM 0.63 33.134 0.019 5.77 19.31 13.24
12/23/2022 1:15:00 PM 0.6 33.08 0.019 5.76 16.54 13.26
12/23/2022 1:30:00 PM 0.58 33.044 0.019 5.75 15.04 13.27
12/23/2022 1:45:00 PM 0.56 33.008 0.019 5.74 14 13.29
12/23/2022 2:00:00 PM 0.53 32.954 0.019 5.73 13.75 13.3
12/23/2022 2:15:00 PM 0.5 32.9 0.019 5.72 15.4 13.32
12/23/2022 2:30:00 PM 0.46 32.828 0.019 5.71 12.65 13.34
12/23/2022 2:45:00 PM 0.43 32.774 0.019 5.71 12.8 13.35
12/23/2022 3:00:00 PM 0.38 32.684 0.019 5.7 13.17 13.37
12/23/2022 3:15:00 PM 0.34 32.612 0.019 5.7 12.65 13.39
12/23/2022 3:30:00 PM 0.29 32.522 0.018 5.68 12.15 13.41
12/23/2022 3:45:00 PM 0.25 32.45 0.018 5.67 11.07 13.43
12/23/2022 4:00:00 PM 0.2 32.36 0.018 5.68 10.81 13.45
12/23/2022 4:15:00 PM 0.15 32.27 0.018 5.66 12.31 13.47
12/23/2022 4:30:00 PM 0.1 32.18 0.018 5.64 10.88 13.49
12/23/2022 4:45:00 PM 0.05 32.09 0.018 5.65 11.92 13.52
12/23/2022 5:00:00 PM 0 32 0.017 5.62 12.39 13.53
12/23/2022 5:15:00 PM -0.03 31.946 0.017 5.63 12.69 13.56
12/23/2022 5:30:00 PM -0.03 31.946 0.018 5.61 11.71 13.58
12/23/2022 5:45:00 PM -0.03 31.946 0.018 5.59 8.89 13.6
12/23/2022 6:00:00 PM -0.03 31.946 0.017 5.6 8.51 13.61
12/23/2022 6:15:00 PM -0.03 31.946 0.017 5.59 9.11 13.63
12/23/2022 6:30:00 PM -0.03 31.946 0.018 5.61 10.99 13.64
12/23/2022 6:45:00 PM -0.03 31.946 0.018 5.57 8.15 13.65
12/23/2022 7:00:00 PM -0.03 31.946 0.017 5.61 7.11 13.66
12/23/2022 7:15:00 PM -0.03 31.946 0.017 5.59 9.11 13.67
12/23/2022 7:30:00 PM -0.03 31.946 0.017 5.59 8.71 13.69
12/23/2022 7:45:00 PM -0.03 31.946 0.017 5.58 6.41 13.68
12/23/2022 8:00:00 PM -0.03 31.946 0.017 5.56 6.37 13.7
12/23/2022 8:15:00 PM -0.03 31.946 0.017 5.58 6.47 13.69
12/23/2022 8:30:00 PM -0.03 31.946 0.017 5.56 6.62 13.7
12/23/2022 8:45:00 PM -0.03 31.946 0.018 5.56 6.74 13.71
12/23/2022 9:00:00 PM -0.03 31.946 0.017 5.59 6.89 13.72
12/23/2022 9:15:00 PM -0.03 31.946 0.018 5.62 7.1 13.72
12/23/2022 9:30:00 PM -0.03 31.946 0.017 5.61 6.63 13.73
12/23/2022 9:45:00 PM -0.03 31.946 0.017 5.63 7.14 13.72
12/23/2022 10:00:00 PM -0.03 31.946 0.018 5.61 9.19 13.73
12/23/2022 10:15:00 PM -0.03 31.946 0.018 5.61 8.11 13.73
12/23/2022 10:30:00 PM -0.03 31.946 0.018 5.6 8.16 13.75
12/23/2022 10:45:00 PM -0.03 31.946 0.017 5.61 9.16 13.75
12/23/2022 11:00:00 PM -0.03 31.946 0.017 5.6 10.08 13.76
12/23/2022 11:15:00 PM -0.03 31.946 0.018 5.59 8.89 13.76
12/23/2022 11:30:00 PM -0.03 31.946 0.017 5.59 8.33 13.76
12/23/2022 11:45:00 PM -0.03 31.946 0.017 5.6 8.41 13.76
12/24/2022 12:00:00 AM -0.03 31.946 0.017 5.6 8.03 13.75
12/24/2022 12:15:00 AM -0.03 31.946 0.018 5.59 8.06 13.76
12/24/2022 12:30:00 AM -0.03 31.946 0.017 5.6 8.22 13.77
12/24/2022 12:45:00 AM -0.03 31.946 0.017 5.6 8.16 13.76
12/24/2022 1:00:00 AM -0.03 31.946 0.017 5.61 8.06 13.77
12/24/2022 1:15:00 AM -0.03 31.946 0.018 5.61 7.65 13.78
12/24/2022 1:30:00 AM -0.03 31.946 0.018 5.6 8.03 13.78
12/24/2022 1:45:00 AM -0.03 31.946 0.017 5.61 7.69 13.77
12/24/2022 2:00:00 AM -0.03 31.946 0.018 5.62 8.05 13.78
12/24/2022 2:15:00 AM -0.03 31.946 0.017 5.62 7.81 13.78
12/24/2022 2:30:00 AM -0.03 31.946 0.018 5.62 7.75 13.79
12/24/2022 2:45:00 AM -0.03 31.946 0.017 5.62 7.76 13.79
12/24/2022 3:00:00 AM -0.03 31.946 0.018 5.62 7.64 13.8
12/24/2022 3:15:00 AM -0.03 31.946 0.018 5.64 7.62 13.8
12/24/2022 3:30:00 AM -0.03 31.946 0.018 5.63 7.56 13.81
12/24/2022 3:45:00 AM -0.03 31.946 0.018 5.64 7.27 13.81
12/24/2022 4:00:00 AM -0.03 31.946 0.017 5.64 7.57 13.81
12/24/2022 4:15:00 AM -0.03 31.946 0.017 5.64 7.76 13.81
12/24/2022 4:30:00 AM -0.03 31.946 0.018 5.66 7.71 13.81
12/24/2022 4:45:00 AM -0.03 31.946 0.018 5.66 7.44 13.81
12/24/2022 5:00:00 AM -0.03 31.946 0.018 5.66 7.53 13.81
12/24/2022 5:15:00 AM -0.03 31.946 0.019 5.66 7.56 13.81
12/24/2022 5:30:00 AM -0.03 31.946 0.018 5.65 7.35 13.82
12/24/2022 5:45:00 AM -0.03 31.946 0.018 5.66 7.34 13.81
12/24/2022 6:00:00 AM -0.03 31.946 0.018 5.66 7.9 13.81
12/24/2022 6:15:00 AM -0.03 31.946 0.018 5.66 7.2 13.83
12/24/2022 6:30:00 AM -0.03 31.946 0.017 5.66 7.1 13.81
12/24/2022 6:45:00 AM -0.03 31.946 0.018 5.66 7.42 13.82
12/24/2022 7:00:00 AM -0.03 31.946 0.018 5.67 7.25 13.82
12/24/2022 7:15:00 AM -0.03 31.946 0.018 5.67 7.14 13.83
12/24/2022 7:30:00 AM -0.03 31.946 0.018 5.67 7.08 13.83
12/24/2022 7:45:00 AM -0.03 31.946 0.018 5.67 7.12 13.83
12/24/2022 8:00:00 AM -0.03 31.946 0.019 5.68 6.92 13.83
12/24/2022 8:15:00 AM -0.03 31.946 0.017 5.67 7.16 13.84
12/24/2022 8:30:00 AM -0.03 31.946 0.018 5.68 7.02 13.83
12/24/2022 8:45:00 AM -0.03 31.946 0.018 5.68 7.11 13.84
12/24/2022 9:00:00 AM -0.03 31.946 0.018 5.69 7.04 13.85
12/24/2022 9:15:00 AM -0.03 31.946 0.018 5.68 7.05 13.84
12/24/2022 9:30:00 AM -0.03 31.946 0.018 5.69 7.09 13.85
12/24/2022 9:45:00 AM -0.03 31.946 0.018 5.69 7.24 13.86
12/24/2022 10:00:00 AM -0.03 31.946 0.018 5.69 7.09 13.86
12/24/2022 10:15:00 AM -0.03 31.946 0.018 5.74 7.28 13.87
12/24/2022 10:30:00 AM -0.03 31.946 0.018 5.73 6.91 13.86
12/24/2022 10:45:00 AM -0.03 31.946 0.018 5.71 6.97 13.85
12/24/2022 11:00:00 AM -0.03 31.946 0.018 5.7 7.06 13.86
12/24/2022 11:15:00 AM -0.03 31.946 0.019 5.71 7.16 13.87
12/24/2022 11:30:00 AM -0.03 31.946 0.018 5.71 7.21 13.88
12/24/2022 11:45:00 AM -0.03 31.946 0.019 5.72 7.29 13.87
12/24/2022 12:00:00 PM -0.03 31.946 0.019 5.72 7.29 13.88
12/24/2022 12:15:00 PM -0.03 31.946 0.018 5.72 7.24 13.87
12/24/2022 12:30:00 PM -0.03 31.946 0.018 5.73 7.19 13.87
12/24/2022 12:45:00 PM -0.03 31.946 0.018 5.74 7.37 13.87
12/24/2022 1:00:00 PM -0.03 31.946 0.019 5.74 7.11 13.87
12/24/2022 1:15:00 PM -0.03 31.946 0.018 5.74 7.1 13.87
12/24/2022 1:30:00 PM -0.03 31.946 0.019 5.75 7.03 13.87
12/24/2022 1:45:00 PM -0.03 31.946 0.019 5.76 7.05 13.86
12/24/2022 2:00:00 PM -0.03 31.946 0.018 5.75 7.3 13.87
12/24/2022 2:15:00 PM -0.03 31.946 0.018 5.75 7.22 13.87
12/24/2022 2:30:00 PM -0.03 31.946 0.019 5.74 7.07 13.87
12/24/2022 2:45:00 PM -0.03 31.946 0.018 5.74 6.98 13.87
12/24/2022 3:00:00 PM -0.03 31.946 0.018 5.75 7.07 13.88
12/24/2022 3:15:00 PM -0.03 31.946 0.018 5.74 6.91 13.88
12/24/2022 3:30:00 PM -0.03 31.946 0.018 5.76 7.12 13.88
12/24/2022 3:45:00 PM -0.03 31.946 0.018 5.76 7.01 13.88
12/24/2022 4:00:00 PM -0.03 31.946 0.018 5.75 6.93 13.88
12/24/2022 4:15:00 PM -0.03 31.946 0.019 5.75 7.32 13.88
12/24/2022 4:30:00 PM -0.03 31.946 0.018 5.76 7.11 13.88
12/24/2022 4:45:00 PM -0.03 31.946 0.018 5.75 7.29 13.87
12/24/2022 5:00:00 PM -0.03 31.946 0.019 5.76 7.48 13.87
12/24/2022 5:15:00 PM -0.03 31.946 0.018 5.78 7.23 13.86
12/24/2022 5:30:00 PM -0.03 31.946 0.019 5.75 7.04 13.87
12/24/2022 5:45:00 PM -0.03 31.946 0.019 5.74 7.16 13.86
12/24/2022 6:00:00 PM -0.03 31.946 0.019 5.75 6.97 13.87
12/24/2022 6:15:00 PM -0.03 31.946 0.019 5.74 6.79 13.86
12/24/2022 6:30:00 PM -0.03 31.946 0.019 5.75 6.79 13.86
12/24/2022 6:45:00 PM -0.03 31.946 0.019 5.79 6.96 13.86
12/24/2022 7:00:00 PM -0.03 31.946 0.019 5.77 6.9 13.86
12/24/2022 7:15:00 PM -0.03 31.946 0.019 5.78 6.97 13.86
12/24/2022 7:30:00 PM -0.03 31.946 0.019 5.8 6.89 13.87
12/24/2022 7:45:00 PM -0.03 31.946 0.019 5.79 6.88 13.85
12/24/2022 8:00:00 PM -0.03 31.946 0.019 5.79 7.1 13.86
12/24/2022 8:15:00 PM -0.03 31.946 0.019 5.78 6.66 13.86
12/24/2022 8:30:00 PM -0.03 31.946 0.019 5.76 6.76 13.86
12/24/2022 8:45:00 PM -0.03 31.946 0.019 5.78 7.14 13.86
12/24/2022 9:00:00 PM -0.03 31.946 0.019 5.77 6.79 13.86
12/24/2022 9:15:00 PM -0.03 31.946 0.019 5.77 6.78 13.87
12/24/2022 9:30:00 PM -0.03 31.946 0.019 5.76 6.6 13.86
12/24/2022 9:45:00 PM -0.03 31.946 0.019 5.78 6.7 13.87
12/24/2022 10:00:00 PM -0.03 31.946 0.019 5.77 6.71 13.87
12/24/2022 10:15:00 PM -0.03 31.946 0.019 5.78 6.72 13.87
12/24/2022 10:30:00 PM -0.03 31.946 0.019 5.79 6.73 13.86
12/24/2022 10:45:00 PM -0.03 31.946 0.019 5.79 6.66 13.87
12/24/2022 11:00:00 PM -0.03 31.946 0.019 5.78 6.72 13.87
12/24/2022 11:15:00 PM -0.03 31.946 0.019 5.79 6.77 13.86
12/24/2022 11:30:00 PM -0.03 31.946 0.019 5.78 6.67 13.88
12/24/2022 11:45:00 PM -0.03 31.946 0.019 5.79 6.72 13.87
12/25/2022 12:00:00 AM -0.03 31.946 0.019 5.78 6.72 13.87
12/25/2022 12:15:00 AM -0.03 31.946 0.019 5.8 6.7 13.87
12/25/2022 12:30:00 AM -0.03 31.946 0.019 5.78 6.87 13.87
12/25/2022 12:45:00 AM -0.03 31.946 0.019 5.79 6.64 13.87
12/25/2022 1:00:00 AM -0.03 31.946 0.019 5.79 6.76 13.86
12/25/2022 1:15:00 AM -0.03 31.946 0.019 5.78 6.59 13.87
12/25/2022 1:30:00 AM -0.03 31.946 0.019 5.79 6.64 13.86
12/25/2022 1:45:00 AM -0.03 31.946 0.019 5.79 6.58 13.86
12/25/2022 2:00:00 AM -0.03 31.946 0.019 5.79 6.48 13.86
12/25/2022 2:15:00 AM -0.03 31.946 0.019 5.81 6.6 13.86
12/25/2022 2:30:00 AM -0.03 31.946 0.019 5.81 6.63 13.86
12/25/2022 2:45:00 AM -0.03 31.946 0.019 5.82 6.56 13.86
12/25/2022 3:00:00 AM -0.03 31.946 0.019 5.81 6.62 13.86
12/25/2022 3:15:00 AM -0.03 31.946 0.019 5.81 6.5 13.85
12/25/2022 3:30:00 AM -0.03 31.946 0.019 5.81 6.82 13.85
12/25/2022 3:45:00 AM -0.03 31.946 0.019 5.81 6.64 13.86
12/25/2022 4:00:00 AM -0.03 31.946 0.019 5.8 6.48 13.85
12/25/2022 4:15:00 AM -0.03 31.946 0.019 5.81 6.52 13.86
12/25/2022 4:30:00 AM -0.03 31.946 0.019 5.8 6.53 13.85
12/25/2022 4:45:00 AM -0.03 31.946 0.019 5.81 6.68 13.85
12/25/2022 5:00:00 AM -0.03 31.946 0.019 5.81 6.59 13.85
12/25/2022 5:15:00 AM -0.03 31.946 0.02 5.82 6.82 13.86
12/25/2022 5:30:00 AM -0.03 31.946 0.019 5.81 6.5 13.85
12/25/2022 5:45:00 AM -0.03 31.946 0.019 5.81 6.51 13.85
12/25/2022 6:00:00 AM -0.03 31.946 0.019 5.82 6.62 13.85
12/25/2022 6:15:00 AM -0.03 31.946 0.019 5.83 6.68 13.85
12/25/2022 6:30:00 AM -0.03 31.946 0.02 5.81 6.61 13.85
12/25/2022 6:45:00 AM -0.03 31.946 0.02 5.82 6.74 13.85
12/25/2022 7:00:00 AM -0.03 31.946 0.019 5.82 6.69 13.85
12/25/2022 7:15:00 AM -0.03 31.946 0.02 5.83 6.56 13.85
12/25/2022 7:30:00 AM -0.03 31.946 0.019 5.83 6.57 13.85
12/25/2022 7:45:00 AM -0.03 31.946 0.019 5.84 6.64 13.86
12/25/2022 8:00:00 AM -0.03 31.946 0.02 5.83 6.86 13.86
12/25/2022 8:15:00 AM -0.03 31.946 0.02 5.84 6.65 13.86
12/25/2022 8:30:00 AM -0.03 31.946 0.02 5.82 6.97 13.87
12/25/2022 8:45:00 AM -0.03 31.946 0.02 5.82 6.7 13.88
12/25/2022 9:00:00 AM -0.03 31.946 0.02 5.83 6.67 13.87
12/25/2022 9:15:00 AM -0.03 31.946 0.02 5.82 6.58 13.88
12/25/2022 9:30:00 AM -0.03 31.946 0.02 5.84 6.6 13.89
12/25/2022 9:45:00 AM -0.03 31.946 0.019 5.83 6.45 13.89
12/25/2022 10:00:00 AM -0.03 31.946 0.02 5.84 6.4 13.9
12/25/2022 10:15:00 AM -0.03 31.946 0.02 5.83 6.64 13.9
12/25/2022 10:30:00 AM -0.03 31.946 0.02 5.83 6.59 13.9
12/25/2022 10:45:00 AM -0.03 31.946 0.02 5.84 6.58 13.9
12/25/2022 11:00:00 AM -0.03 31.946 0.02 5.82 6.61 13.9
12/25/2022 11:15:00 AM -0.03 31.946 0.019 5.84 6.63 13.9
12/25/2022 11:30:00 AM -0.03 31.946 0.02 5.85 6.51 13.9
12/25/2022 11:45:00 AM -0.03 31.946 0.019 5.84 6.53 13.89
12/25/2022 12:00:00 PM -0.03 31.946 0.02 5.84 6.99 13.89
12/25/2022 12:15:00 PM -0.03 31.946 0.02 5.85 6.82 13.9
12/25/2022 12:30:00 PM -0.03 31.946 0.02 5.85 6.67 13.89
12/25/2022 12:45:00 PM -0.03 31.946 0.02 5.86 6.68 13.89
12/25/2022 1:00:00 PM -0.03 31.946 0.02 5.85 6.57 13.9
12/25/2022 1:15:00 PM -0.03 31.946 0.02 5.86 6.95 13.9
12/25/2022 1:30:00 PM -0.03 31.946 0.019 5.85 6.58 13.9
12/25/2022 1:45:00 PM -0.03 31.946 0.02 5.85 6.95 13.9
12/25/2022 2:00:00 PM -0.03 31.946 0.02 5.84 7.15 13.9
12/25/2022 2:15:00 PM -0.02 31.964 0.019 5.85 6.68 13.89
12/25/2022 2:30:00 PM -0.02 31.964 0.019 5.85 6.73 13.89
12/25/2022 2:45:00 PM -0.02 31.964 0.02 5.85 8.17 13.9
12/25/2022 3:00:00 PM -0.02 31.964 0.02 5.86 6.93 13.9
12/25/2022 3:15:00 PM -0.03 31.946 0.02 5.86 6.61 13.89
12/25/2022 3:30:00 PM -0.02 31.964 0.019 5.86 6.74 13.91
12/25/2022 3:45:00 PM -0.02 31.964 0.02 5.87 6.84 13.91
12/25/2022 4:00:00 PM -0.03 31.946 0.02 5.86 6.66 13.9
12/25/2022 4:15:00 PM -0.03 31.946 0.02 5.86 6.76 13.9
12/25/2022 4:30:00 PM -0.03 31.946 0.019 5.86 7.05 13.9
12/25/2022 4:45:00 PM -0.03 31.946 0.02 5.86 6.6 13.9
12/25/2022 5:00:00 PM -0.03 31.946 0.021 5.84 6.5 13.89
12/25/2022 5:15:00 PM -0.03 31.946 0.021 5.85 6.53 13.89
12/25/2022 5:30:00 PM -0.03 31.946 0.021 5.85 6.9 13.9
12/25/2022 5:45:00 PM -0.03 31.946 0.021 5.84 6.63 13.89
12/25/2022 6:00:00 PM -0.03 31.946 0.021 5.85 6.8 13.88
12/25/2022 6:15:00 PM -0.03 31.946 0.02 5.85 6.73 13.89
12/25/2022 6:30:00 PM -0.03 31.946 0.02 5.85 6.86 13.88
12/25/2022 6:45:00 PM -0.03 31.946 0.019 5.86 6.66 13.89
12/25/2022 7:00:00 PM -0.03 31.946 0.02 5.86 6.83 13.89
12/25/2022 7:15:00 PM -0.03 31.946 0.02 5.86 6.65 13.89
12/25/2022 7:30:00 PM -0.03 31.946 0.02 5.86 6.6 13.91
12/25/2022 7:45:00 PM -0.03 31.946 0.019 5.86 6.77 13.91
12/25/2022 8:00:00 PM -0.03 31.946 0.02 5.86 6.78 13.91
12/25/2022 8:15:00 PM -0.03 31.946 0.02 5.87 6.47 13.9
12/25/2022 8:30:00 PM -0.03 31.946 0.02 5.85 6.58 13.9
12/25/2022 8:45:00 PM -0.03 31.946 0.02 5.86 6.5 13.92
12/25/2022 9:00:00 PM -0.03 31.946 0.02 5.86 6.45 13.91
12/25/2022 9:15:00 PM -0.03 31.946 0.02 5.86 6.52 13.91
12/25/2022 9:30:00 PM -0.03 31.946 0.02 5.86 6.39 13.92
12/25/2022 9:45:00 PM -0.03 31.946 0.019 5.86 6.36 13.92
12/25/2022 10:00:00 PM -0.03 31.946 0.02 5.86 6.35 13.92
12/25/2022 10:15:00 PM -0.03 31.946 0.02 5.87 6.57 13.92
12/25/2022 10:30:00 PM -0.03 31.946 0.02 5.86 6.42 13.92
12/25/2022 10:45:00 PM -0.03 31.946 0.02 5.87 6.42 13.92
12/25/2022 11:00:00 PM -0.03 31.946 0.02 5.87 6.52 13.93
12/25/2022 11:15:00 PM -0.03 31.946 0.02 5.88 6.39 13.92
12/25/2022 11:30:00 PM -0.03 31.946 0.02 5.87 6.4 13.93
12/25/2022 11:45:00 PM -0.03 31.946 0.02 5.88 6.29 13.93
12/26/2022 12:00:00 AM -0.03 31.946 0.021 5.87 6.28 13.93
12/26/2022 12:15:00 AM -0.03 31.946 0.02 5.88 6.36 13.93
12/26/2022 12:30:00 AM -0.03 31.946 0.02 5.87 6.35 13.93
12/26/2022 12:45:00 AM -0.03 31.946 0.02 5.88 6.42 13.93
12/26/2022 1:00:00 AM -0.03 31.946 0.02 5.88 6.39 13.93
12/26/2022 1:15:00 AM -0.03 31.946 0.021 5.89 6.53 13.93
12/26/2022 1:30:00 AM -0.03 31.946 0.02 5.88 6.34 13.93
12/26/2022 1:45:00 AM -0.03 31.946 0.02 5.89 6.32 13.93
12/26/2022 2:00:00 AM -0.03 31.946 0.021 5.88 6.3 13.93
12/26/2022 2:15:00 AM -0.03 31.946 0.02 5.89 6.2 13.94
12/26/2022 2:30:00 AM -0.03 31.946 0.021 5.89 6.22 13.94
12/26/2022 2:45:00 AM -0.03 31.946 0.02 5.89 6.25 13.93
12/26/2022 3:00:00 AM -0.03 31.946 0.02 5.88 6.3 13.94
12/26/2022 3:15:00 AM -0.03 31.946 0.02 5.9 6.19 13.94
12/26/2022 3:30:00 AM -0.03 31.946 0.021 5.89 6.58 13.94
12/26/2022 3:45:00 AM -0.03 31.946 0.021 5.89 6.14 13.95
12/26/2022 4:00:00 AM -0.03 31.946 0.021 5.89 6.24 13.96
12/26/2022 4:15:00 AM -0.03 31.946 0.02 5.9 6.26 13.95
12/26/2022 4:30:00 AM -0.03 31.946 0.02 5.89 6.25 13.96
12/26/2022 4:45:00 AM -0.03 31.946 0.02 5.9 6.19 13.96
12/26/2022 5:00:00 AM -0.03 31.946 0.02 5.89 6.17 13.96
12/26/2022 5:15:00 AM -0.03 31.946 0.021 5.9 6.25 13.96
12/26/2022 5:30:00 AM -0.03 31.946 0.02 5.9 6.28 13.96
12/26/2022 5:45:00 AM -0.03 31.946 0.021 5.9 6.38 13.96
12/26/2022 6:00:00 AM -0.03 31.946 0.02 5.89 6.23 13.96
12/26/2022 6:15:00 AM -0.03 31.946 0.02 5.89 6.18 13.96
12/26/2022 6:30:00 AM -0.03 31.946 0.02 5.9 6.17 13.97
12/26/2022 6:45:00 AM -0.03 31.946 0.02 5.9 6.11 13.97
12/26/2022 7:00:00 AM -0.03 31.946 0.021 5.9 6.52 13.97
12/26/2022 7:15:00 AM -0.03 31.946 0.02 5.91 6.1 13.97
12/26/2022 7:30:00 AM -0.03 31.946 0.021 5.9 6.09 13.97
12/26/2022 7:45:00 AM -0.03 31.946 0.02 5.91 6 13.98
12/26/2022 8:00:00 AM -0.03 31.946 0.02 5.91 6.11 13.99
12/26/2022 8:15:00 AM -0.03 31.946 0.021 5.92 6.16 13.99
12/26/2022 8:30:00 AM -0.03 31.946 0.021 5.91 6.25 14
12/26/2022 8:45:00 AM -0.03 31.946 0.02 5.92 5.98 14.01
12/26/2022 9:00:00 AM -0.03 31.946 0.02 5.91 6.06 14.02
12/26/2022 9:15:00 AM -0.03 31.946 0.021 5.91 6.23 14.01
12/26/2022 9:30:00 AM -0.03 31.946 0.02 5.92 5.99 14.02
12/26/2022 9:45:00 AM -0.02 31.964 0.021 5.93 6.03 14.03
12/26/2022 10:00:00 AM -0.02 31.964 0.021 5.92 6.08 14.03
12/26/2022 10:15:00 AM -0.02 31.964 0.021 5.92 5.98 14.04
12/26/2022 10:30:00 AM -0.02 31.964 0.021 5.93 6.13 14.04
12/26/2022 10:45:00 AM -0.02 31.964 0.021 5.93 6.22 14.04
12/26/2022 11:00:00 AM -0.02 31.964 0.02 5.93 6.48 14.03
12/26/2022 11:15:00 AM -0.02 31.964 0.021 5.93 6.07 14.04
12/26/2022 11:30:00 AM -0.02 31.964 0.021 5.94 6.13 14.04
12/26/2022 11:45:00 AM -0.02 31.964 0.02 5.94 6.28 14.03
12/26/2022 12:00:00 PM -0.02 31.964 0.021 5.94 5.96 14.03
12/26/2022 12:15:00 PM -0.02 31.964 0.021 5.93 5.93 14.03
12/26/2022 12:30:00 PM -0.02 31.964 0.02 5.94 6.18 14.02
12/26/2022 12:45:00 PM -0.02 31.964 0.021 5.94 5.97 14.02
12/26/2022 1:00:00 PM -0.02 31.964 0.021 5.94 6.06 14.01
12/26/2022 1:15:00 PM -0.02 31.964 0.021 5.93 6.39 14
12/26/2022 1:30:00 PM -0.02 31.964 0.021 5.94 6.27 14
12/26/2022 1:45:00 PM -0.02 31.964 0.021 5.94 6.53 13.99
12/26/2022 2:00:00 PM -0.02 31.964 0.02 5.94 6.15 13.99
12/26/2022 2:15:00 PM -0.02 31.964 0.021 5.94 6.07 13.99
12/26/2022 2:30:00 PM -0.02 31.964 0.021 5.94 6.25 13.99
12/26/2022 2:45:00 PM -0.02 31.964 0.02 5.95 6.1 13.99
12/26/2022 3:00:00 PM -0.02 31.964 0.021 5.95 5.96 13.99
12/26/2022 3:15:00 PM -0.02 31.964 0.02 5.94 6.03 13.99
12/26/2022 3:30:00 PM -0.02 31.964 0.021 5.95 6.05 13.99
12/26/2022 3:45:00 PM -0.02 31.964 0.021 5.95 5.94 14
12/26/2022 4:00:00 PM -0.02 31.964 0.021 5.95 5.89 14
12/26/2022 4:15:00 PM -0.02 31.964 0.021 5.95 5.96 13.98
12/26/2022 4:30:00 PM -0.02 31.964 0.02 5.94 5.91 13.99
12/26/2022 4:45:00 PM -0.02 31.964 0.02 5.94 5.83 13.99
12/26/2022 5:00:00 PM -0.02 31.964 0.021 5.94 5.74 13.98
12/26/2022 5:15:00 PM -0.02 31.964 0.02 5.95 6.01 13.97
12/26/2022 5:30:00 PM -0.02 31.964 0.021 5.95 5.77 13.96
12/26/2022 5:45:00 PM -0.02 31.964 0.021 5.95 5.78 13.97
12/26/2022 6:00:00 PM -0.02 31.964 0.02 5.94 5.91 13.96
12/26/2022 6:15:00 PM -0.02 31.964 0.022 5.94 6.07 13.96
12/26/2022 6:30:00 PM -0.02 31.964 0.02 5.95 5.82 13.96
12/26/2022 6:45:00 PM -0.02 31.964 0.021 5.95 5.84 13.96
12/26/2022 7:00:00 PM -0.02 31.964 0.021 5.94 5.87 13.96
12/26/2022 7:15:00 PM -0.02 31.964 0.021 5.95 5.85 13.96
12/26/2022 7:30:00 PM -0.02 31.964 0.02 5.95 5.82 13.96
12/26/2022 7:45:00 PM -0.02 31.964 0.02 5.95 5.77 13.96
12/26/2022 8:00:00 PM -0.02 31.964 0.021 5.94 5.93 13.96
12/26/2022 8:15:00 PM -0.02 31.964 0.021 5.93 5.91 13.95
12/26/2022 8:30:00 PM -0.02 31.964 0.021 5.94 5.87 13.95
12/26/2022 8:45:00 PM -0.02 31.964 0.021 5.94 6.34 13.95
12/26/2022 9:00:00 PM -0.02 31.964 0.021 5.94 6.58 13.94
12/26/2022 9:15:00 PM -0.02 31.964 0.022 5.94 6.13 13.95
12/26/2022 9:30:00 PM -0.02 31.964 0.022 5.94 6.29 13.94
12/26/2022 9:45:00 PM -0.02 31.964 0.021 5.94 6.04 13.95
12/26/2022 10:00:00 PM -0.02 31.964 0.021 5.95 5.8 13.94
12/26/2022 10:15:00 PM -0.02 31.964 0.022 5.96 5.78 13.96
12/26/2022 10:30:00 PM -0.02 31.964 0.021 5.95 5.74 13.95
12/26/2022 10:45:00 PM -0.02 31.964 0.021 5.95 5.74 13.95
12/26/2022 11:00:00 PM -0.02 31.964 0.021 5.95 5.62 13.96
12/26/2022 11:15:00 PM -0.02 31.964 0.022 5.96 5.98 13.96
12/26/2022 11:30:00 PM -0.02 31.964 0.021 5.95 5.71 13.97
12/26/2022 11:45:00 PM -0.02 31.964 0.021 5.96 5.48 13.95
12/27/2022 12:00:00 AM -0.02 31.964 0.022 5.96 5.58 13.94
12/27/2022 12:15:00 AM -0.01 31.982 0.023 5.96 5.46 13.94
12/27/2022 12:30:00 AM -0.01 31.982 0.023 5.97 5.98 13.92
12/27/2022 12:45:00 AM -0.01 31.982 0.023 5.98 5.6 13.93
12/27/2022 1:00:00 AM -0.01 31.982 0.023 5.98 5.1 13.93
12/27/2022 1:15:00 AM -0.01 31.982 0.023 5.99 5.26 13.92
12/27/2022 1:30:00 AM -0.01 31.982 0.022 5.99 5.56 13.92
12/27/2022 1:45:00 AM -0.02 31.964 0.021 5.96 5.08 13.94
12/27/2022 2:00:00 AM 0 32 0.023 5.97 4.82 13.92
12/27/2022 2:15:00 AM -0.01 31.982 0.022 5.98 4.54 13.94
12/27/2022 2:30:00 AM -0.01 31.982 0.022 5.98 4.31 13.93
12/27/2022 2:45:00 AM -0.01 31.982 0.022 5.98 4.05 13.96
12/27/2022 3:00:00 AM -0.02 31.964 0.022 5.99 4.05 13.95
12/27/2022 3:15:00 AM -0.02 31.964 0.021 5.98 3.71 13.95
12/27/2022 3:30:00 AM -0.02 31.964 0.021 5.98 3.77 13.95
12/27/2022 3:45:00 AM -0.02 31.964 0.021 5.99 3.6 13.95
12/27/2022 4:00:00 AM -0.02 31.964 0.021 5.99 3.39 13.95
12/27/2022 4:15:00 AM -0.02 31.964 0.021 5.98 3.27 13.95
12/27/2022 4:30:00 AM -0.02 31.964 0.021 5.99 3.21 13.96
12/27/2022 4:45:00 AM -0.02 31.964 0.022 5.99 3.19 13.96
12/27/2022 5:00:00 AM -0.02 31.964 0.022 5.98 2.98 13.96
12/27/2022 5:15:00 AM -0.02 31.964 0.022 5.99 2.97 13.94
12/27/2022 5:30:00 AM -0.02 31.964 0.022 5.98 2.94 13.96
12/27/2022 5:45:00 AM -0.02 31.964 0.021 5.99 2.92 13.95
12/27/2022 6:00:00 AM -0.02 31.964 0.022 5.98 2.81 13.96
12/27/2022 6:15:00 AM -0.02 31.964 0.022 5.99 2.6 13.95
12/27/2022 6:30:00 AM -0.02 31.964 0.021 5.98 2.71 13.96
12/27/2022 6:45:00 AM -0.02 31.964 0.021 5.99 3.26 13.96
12/27/2022 7:00:00 AM -0.02 31.964 0.022 5.99 2.97 13.96
12/27/2022 7:15:00 AM -0.02 31.964 0.022 5.99 2.62 13.96
12/27/2022 7:30:00 AM -0.02 31.964 0.022 5.99 2.56 13.97
12/27/2022 7:45:00 AM -0.02 31.964 0.021 5.99 2.49 13.97
12/27/2022 8:00:00 AM -0.02 31.964 0.022 5.99 2.56 13.97
12/27/2022 8:15:00 AM -0.02 31.964 0.021 5.99 2.27 13.97
12/27/2022 8:30:00 AM -0.02 31.964 0.021 6 2.18 13.98
12/27/2022 8:45:00 AM -0.02 31.964 0.021 5.99 2.08 13.99
12/27/2022 9:00:00 AM -0.02 31.964 0.022 5.99 2 13.99
12/27/2022 9:15:00 AM -0.01 31.982 0.022 5.99 2.05 14
12/27/2022 9:30:00 AM -0.01 31.982 0.022 5.99 1.83 14.01
12/27/2022 9:45:00 AM -0.01 31.982 0.022 5.99 1.88 14.02
12/27/2022 10:00:00 AM -0.01 31.982 0.022 5.99 2.04 14.02
12/27/2022 10:15:00 AM -0.01 31.982 0.022 6 2.43 14.02
12/27/2022 10:30:00 AM -0.01 31.982 0.022 6.01 2.49 14.01
12/27/2022 10:45:00 AM 0 32 0.022 6.01 2.02 14.01
12/27/2022 11:00:00 AM -0.01 31.982 0.022 6 1.95 14.03
12/27/2022 11:15:00 AM 0 32 0.022 6.01 1.89 14.03
12/27/2022 11:30:00 AM 0 32 0.022 6.01 2.62 14.02
12/27/2022 11:45:00 AM 0 32 0.022 6.02 2.02 14.01
12/27/2022 12:00:00 PM 0 32 0.022 6.02 2.1 14.01
12/27/2022 12:15:00 PM 0.03 32.054 0.023 6.02 2.28 13.97
12/27/2022 12:30:00 PM 0.02 32.036 0.022 6.01 1.94 14
12/27/2022 12:45:00 PM 0 32 0.022 6.02 2.13 14.02
12/27/2022 1:00:00 PM 0 32 0.022 6.03 2.59 14.01
12/27/2022 1:15:00 PM 0.03 32.054 0.022 6.03 2.1 13.94
12/27/2022 1:30:00 PM 0.04 32.072 0.023 6.03 2.07 13.96
12/27/2022 1:45:00 PM 0.05 32.09 0.023 6.03 2.06 13.95
12/27/2022 2:00:00 PM 0.04 32.072 0.023 6.02 2.04 13.97
12/27/2022 2:15:00 PM 0.03 32.054 0.023 6.03 2.09 13.96
12/27/2022 2:30:00 PM 0.02 32.036 0.023 6.04 2.14 13.97
12/27/2022 2:45:00 PM 0.04 32.072 0.023 6.03 3.25 13.95
12/27/2022 3:00:00 PM 0.02 32.036 0.023 6.04 2.18 13.96
12/27/2022 3:15:00 PM 0.04 32.072 0.023 6.03 2.08 13.96
12/27/2022 3:30:00 PM 0.01 32.018 0.022 6.04 1.95 13.98
12/27/2022 3:45:00 PM 0.02 32.036 0.023 6.03 2.1 13.98
12/27/2022 4:00:00 PM 0.01 32.018 0.022 6.04 2.09 13.97
12/27/2022 4:15:00 PM 0 32 0.022 6.04 1.98 13.97
12/27/2022 4:30:00 PM 0.01 32.018 0.022 6.03 2.21 13.98
12/27/2022 4:45:00 PM 0.01 32.018 0.022 6.04 2 13.97
12/27/2022 5:00:00 PM 0.01 32.018 0.022 6.04 1.92 13.95
12/27/2022 5:15:00 PM 0.01 32.018 0.023 6.03 1.92 13.94
12/27/2022 5:30:00 PM 0.01 32.018 0.022 6.04 1.94 13.94
12/27/2022 5:45:00 PM 0.01 32.018 0.022 6.03 1.93 13.94
12/27/2022 6:00:00 PM 0.02 32.036 0.023 6.03 1.99 13.93
12/27/2022 6:15:00 PM 0.02 32.036 0.023 6.03 2.57 13.94
12/27/2022 6:30:00 PM 0.01 32.018 0.022 6.03 1.88 13.93
12/27/2022 6:45:00 PM 0.01 32.018 0.022 6.03 1.91 13.93
12/27/2022 7:00:00 PM 0.02 32.036 0.023 6.04 1.9 13.92
12/27/2022 7:15:00 PM 0.01 32.018 0.022 6.04 1.91 13.92
12/27/2022 7:30:00 PM 0.02 32.036 0.022 6.04 2.06 13.92
12/27/2022 7:45:00 PM 0.03 32.054 0.022 6.04 1.9 13.92
12/27/2022 8:00:00 PM 0.02 32.036 0.022 6.05 1.86 13.93
12/27/2022 8:15:00 PM 0.03 32.054 0.023 6.04 1.81 13.93
12/27/2022 8:30:00 PM 0.02 32.036 0.022 6.04 1.85 13.92
12/27/2022 8:45:00 PM 0.03 32.054 0.022 6.04 1.85 13.92
12/27/2022 9:00:00 PM 0.01 32.018 0.022 6.03 2.03 13.93
12/27/2022 9:15:00 PM 0.01 32.018 0.022 6.04 2.15 13.92
12/27/2022 9:30:00 PM 0.01 32.018 0.022 6.04 1.96 13.93
12/27/2022 9:45:00 PM 0.01 32.018 0.022 6.04 1.89 13.94
12/27/2022 10:00:00 PM 0.01 32.018 0.022 6.04 2.1 13.93
12/27/2022 10:15:00 PM 0.01 32.018 0.022 6.03 1.89 13.93
12/27/2022 10:30:00 PM 0.01 32.018 0.022 6.04 1.88 13.94
12/27/2022 10:45:00 PM 0.01 32.018 0.022 6.04 1.81 13.93
12/27/2022 11:00:00 PM 0.01 32.018 0.022 6.05 1.9 13.94
12/27/2022 11:15:00 PM 0.01 32.018 0.022 6.04 2.05 13.93
12/27/2022 11:30:00 PM 0.01 32.018 0.022 6.04 1.89 13.93
12/27/2022 11:45:00 PM 0.02 32.036 0.022 6.04 1.85 13.92
12/28/2022 12:00:00 AM 0.02 32.036 0.022 6.05 1.91 13.93
12/28/2022 12:15:00 AM 0.02 32.036 0.022 6.04 1.93 13.93
12/28/2022 12:30:00 AM 0.02 32.036 0.022 6.05 1.92 13.93
12/28/2022 12:45:00 AM 0.02 32.036 0.022 6.04 1.98 13.93
12/28/2022 1:00:00 AM 0.02 32.036 0.022 6.04 1.94 13.93
12/28/2022 1:15:00 AM 0.02 32.036 0.022 6.04 2.04 13.92
12/28/2022 1:30:00 AM 0.02 32.036 0.022 6.05 1.91 13.93
12/28/2022 1:45:00 AM 0.02 32.036 0.023 6.04 2.06 13.92
12/28/2022 2:00:00 AM 0.02 32.036 0.022 6.05 1.92 13.92
12/28/2022 2:15:00 AM 0.03 32.054 0.022 6.04 1.96 13.93
12/28/2022 2:30:00 AM 0.02 32.036 0.022 6.05 2.07 13.91
12/28/2022 2:45:00 AM 0.02 32.036 0.022 6.04 1.94 13.92
12/28/2022 3:00:00 AM 0.03 32.054 0.023 6.05 1.94 13.92
12/28/2022 3:15:00 AM 0.03 32.054 0.022 6.05 1.91 13.92
12/28/2022 3:30:00 AM 0.03 32.054 0.022 6.05 2.24 13.91
12/28/2022 3:45:00 AM 0.03 32.054 0.022 6.04 1.96 13.92
12/28/2022 4:00:00 AM 0.03 32.054 0.022 6.04 1.87 13.91
12/28/2022 4:15:00 AM 0.03 32.054 0.022 6.05 2.14 13.91
12/28/2022 4:30:00 AM 0.03 32.054 0.023 6.05 2.02 13.91
12/28/2022 4:45:00 AM 0.03 32.054 0.023 6.04 2.01 13.9
12/28/2022 5:00:00 AM 0.03 32.054 0.023 6.05 2 13.91
12/28/2022 5:15:00 AM 0.02 32.036 0.022 6.04 1.89 13.91
12/28/2022 5:30:00 AM 0.02 32.036 0.022 6.05 1.95 13.9
12/28/2022 5:45:00 AM 0.02 32.036 0.022 6.05 1.86 13.91
12/28/2022 6:00:00 AM 0.02 32.036 0.023 6.04 2.05 13.9
12/28/2022 6:15:00 AM 0.03 32.054 0.022 6.05 1.95 13.9
12/28/2022 6:30:00 AM 0.03 32.054 0.022 6.06 1.97 13.9
12/28/2022 6:45:00 AM 0.03 32.054 0.023 6.06 2.12 13.91
12/28/2022 7:00:00 AM 0.03 32.054 0.023 6.06 2 13.9
12/28/2022 7:15:00 AM 0.03 32.054 0.023 6.06 2.01 13.91
12/28/2022 7:30:00 AM 0.03 32.054 0.022 6.06 1.91 13.91
12/28/2022 7:45:00 AM 0.03 32.054 0.023 6.06 1.78 13.91
12/28/2022 8:00:00 AM 0.04 32.072 0.023 6.05 1.86 13.92
12/28/2022 8:15:00 AM 0.04 32.072 0.023 6.05 1.97 13.93
12/28/2022 8:30:00 AM 0.04 32.072 0.023 6.05 2.05 13.95
12/28/2022 8:45:00 AM 0.03 32.054 0.023 6.07 1.97 13.94
12/28/2022 9:00:00 AM 0.04 32.072 0.023 6.06 1.97 13.95
12/28/2022 9:15:00 AM 0.05 32.09 0.023 6.06 1.97 13.95
12/28/2022 9:30:00 AM 0.06 32.108 0.023 6.06 2.1 13.97
12/28/2022 9:45:00 AM 0.07 32.126 0.022 6.06 2.03 13.96
12/28/2022 10:00:00 AM 0.08 32.144 0.023 6.05 2.18 13.97
12/28/2022 10:15:00 AM 0.08 32.144 0.022 6.06 2.38 13.98
12/28/2022 10:30:00 AM 0.09 32.162 0.022 6.06 2.37 13.98
12/28/2022 10:45:00 AM 0.12 32.216 0.022 6.07 2.82 13.98
12/28/2022 11:00:00 AM 0.13 32.234 0.023 6.06 2.86 13.97
12/28/2022 11:15:00 AM 0.14 32.252 0.022 6.07 2.62 13.97
12/28/2022 11:30:00 AM 0.15 32.27 0.023 6.07 2.57 13.95
12/28/2022 11:45:00 AM 0.15 32.27 0.022 6.08 2.57 13.95
12/28/2022 12:00:00 PM 0.15 32.27 0.022 6.08 2.96 13.95
12/28/2022 12:15:00 PM 0.15 32.27 0.023 6.08 2.63 13.95
12/28/2022 12:30:00 PM 0.14 32.252 0.022 6.08 2.87 13.95
12/28/2022 12:45:00 PM 0.14 32.252 0.023 6.08 3.09 13.93
12/28/2022 1:00:00 PM 0.13 32.234 0.022 6.08 2.79 13.95
12/28/2022 1:15:00 PM 0.14 32.252 0.022 6.08 2.59 13.93
12/28/2022 1:30:00 PM 0.14 32.252 0.022 6.08 2.6 13.93
12/28/2022 1:45:00 PM 0.14 32.252 0.022 6.08 2.7 13.92
12/28/2022 2:00:00 PM 0.15 32.27 0.022 6.08 3.23 13.92
12/28/2022 2:15:00 PM 0.15 32.27 0.022 6.08 3.07 13.93
12/28/2022 2:30:00 PM 0.15 32.27 0.022 6.09 3.02 13.92
12/28/2022 2:45:00 PM 0.15 32.27 0.022 6.09 2.88 13.92
12/28/2022 3:00:00 PM 0.16 32.288 0.023 6.09 3.1 13.92
12/28/2022 3:15:00 PM 0.16 32.288 0.023 6.09 2.83 13.93
12/28/2022 3:30:00 PM 0.14 32.252 0.023 6.08 2.58 13.92
12/28/2022 3:45:00 PM 0.13 32.234 0.022 6.09 2.51 13.93
12/28/2022 4:00:00 PM 0.11 32.198 0.023 6.09 2.59 13.93
12/28/2022 4:15:00 PM 0.09 32.162 0.023 6.09 2.89 13.93
12/28/2022 4:30:00 PM 0.09 32.162 0.023 6.09 2.63 13.92
12/28/2022 4:45:00 PM 0.07 32.126 0.022 6.08 2.9 13.92
12/28/2022 5:00:00 PM 0.08 32.144 0.023 6.09 2.44 13.91
12/28/2022 5:15:00 PM 0.07 32.126 0.023 6.09 2.4 13.9
12/28/2022 5:30:00 PM 0.07 32.126 0.023 6.08 2.46 13.9
12/28/2022 5:45:00 PM 0.07 32.126 0.023 6.08 2.27 13.89
12/28/2022 6:00:00 PM 0.06 32.108 0.024 6.09 2.35 13.91
12/28/2022 6:15:00 PM 0.06 32.108 0.024 6.09 2.12 13.9
12/28/2022 6:30:00 PM 0.07 32.126 0.024 6.09 2.38 13.9
12/28/2022 6:45:00 PM 0.07 32.126 0.023 6.08 2.18 13.9
12/28/2022 7:00:00 PM 0.07 32.126 0.023 6.08 2.42 13.89
12/28/2022 7:15:00 PM 0.08 32.144 0.023 6.08 2.29 13.89
12/28/2022 7:30:00 PM 0.09 32.162 0.024 6.08 2.22 13.89
12/28/2022 7:45:00 PM 0.08 32.144 0.023 6.08 2.08 13.89
12/28/2022 8:00:00 PM 0.08 32.144 0.023 6.08 2.28 13.88
12/28/2022 8:15:00 PM 0.07 32.126 0.022 6.09 2.45 13.9
12/28/2022 8:30:00 PM 0.07 32.126 0.023 6.08 2.15 13.89
12/28/2022 8:45:00 PM 0.07 32.126 0.023 6.07 2.23 13.9
12/28/2022 9:00:00 PM 0.06 32.108 0.023 6.08 2.27 13.9
12/28/2022 9:15:00 PM 0.06 32.108 0.022 6.08 2.16 13.91
12/28/2022 9:30:00 PM 0.06 32.108 0.023 6.08 2.09 13.9
12/28/2022 9:45:00 PM 0.06 32.108 0.023 6.08 2.2 13.9
12/28/2022 10:00:00 PM 0.06 32.108 0.023 6.08 2.13 13.91
12/28/2022 10:15:00 PM 0.05 32.09 0.023 6.08 2.12 13.9
12/28/2022 10:30:00 PM 0.06 32.108 0.024 6.08 2.27 13.89
12/28/2022 10:45:00 PM 0.05 32.09 0.023 6.09 2.06 13.9
12/28/2022 11:00:00 PM 0.06 32.108 0.024 6.09 2.15 13.89
12/28/2022 11:15:00 PM 0.05 32.09 0.023 6.08 2 13.9
12/28/2022 11:30:00 PM 0.05 32.09 0.023 6.09 2.02 13.89
12/28/2022 11:45:00 PM 0.05 32.09 0.023 6.09 2.05 13.91
12/29/2022 12:00:00 AM 0.05 32.09 0.023 6.09 1.9 13.9
12/29/2022 12:15:00 AM 0.05 32.09 0.023 6.09 2.04 13.91
12/29/2022 12:30:00 AM 0.05 32.09 0.023 6.09 1.97 13.91
12/29/2022 12:45:00 AM 0.05 32.09 0.023 6.09 1.97 13.91
12/29/2022 1:00:00 AM 0.05 32.09 0.023 6.09 2.01 13.91
12/29/2022 1:15:00 AM 0.05 32.09 0.024 6.09 2.01 13.92
12/29/2022 1:30:00 AM 0.05 32.09 0.023 6.1 2.02 13.91
12/29/2022 1:45:00 AM 0.04 32.072 0.023 6.09 2.01 13.92
12/29/2022 2:00:00 AM 0.05 32.09 0.024 6.1 1.9 13.9
12/29/2022 2:15:00 AM 0.04 32.072 0.024 6.1 2.1 13.91
12/29/2022 2:30:00 AM 0.04 32.072 0.023 6.09 1.91 13.91
12/29/2022 2:45:00 AM 0.04 32.072 0.023 6.09 2.01 13.92
12/29/2022 3:00:00 AM 0.04 32.072 0.024 6.1 2.06 13.91
12/29/2022 3:15:00 AM 0.03 32.054 0.023 6.1 1.98 13.92
12/29/2022 3:30:00 AM 0.04 32.072 0.024 6.1 2.03 13.91
12/29/2022 3:45:00 AM 0.05 32.09 0.024 6.1 1.82 13.91
12/29/2022 4:00:00 AM 0.03 32.054 0.023 6.1 1.86 13.93
12/29/2022 4:15:00 AM 0.03 32.054 0.023 6.1 1.93 13.92
12/29/2022 4:30:00 AM 0.03 32.054 0.023 6.1 2.63 13.92
12/29/2022 4:45:00 AM 0.02 32.036 0.023 6.1 1.91 13.93
12/29/2022 5:00:00 AM 0.03 32.054 0.023 6.11 2.06 13.93
12/29/2022 5:15:00 AM 0.02 32.036 0.024 6.11 1.89 13.93
12/29/2022 5:30:00 AM 0.03 32.054 0.024 6.1 1.96 13.93
12/29/2022 5:45:00 AM 0.02 32.036 0.024 6.1 1.77 13.92
12/29/2022 6:00:00 AM 0.02 32.036 0.024 6.1 1.86 13.93
12/29/2022 6:15:00 AM 0.01 32.018 0.024 6.09 1.79 13.94
12/29/2022 6:30:00 AM 0.01 32.018 0.024 6.1 2.12 13.94
12/29/2022 6:45:00 AM 0 32 0.024 6.1 1.92 13.95
12/29/2022 7:00:00 AM 0.01 32.018 0.024 6.1 1.78 13.95
12/29/2022 7:15:00 AM 0.01 32.018 0.024 6.11 1.85 13.94
12/29/2022 7:30:00 AM 0 32 0.024 6.1 2 13.95
12/29/2022 7:45:00 AM 0 32 0.024 6.11 1.88 13.96
12/29/2022 8:00:00 AM 0 32 0.023 6.12 1.94 13.96
12/29/2022 8:15:00 AM 0.01 32.018 0.024 6.12 1.79 13.98
12/29/2022 8:30:00 AM 0.01 32.018 0.024 6.12 1.85 13.98
12/29/2022 8:45:00 AM 0.02 32.036 0.024 6.12 1.78 13.99
12/29/2022 9:00:00 AM 0.03 32.054 0.024 6.12 1.89 14
12/29/2022 9:15:00 AM 0.05 32.09 0.024 6.12 1.84 14.01
12/29/2022 9:30:00 AM 0.07 32.126 0.023 6.12 1.88 14.01
12/29/2022 9:45:00 AM 0.09 32.162 0.024 6.13 1.82 14
12/29/2022 10:00:00 AM 0.12 32.216 0.024 6.12 1.88 14.01
12/29/2022 10:15:00 AM 0.14 32.252 0.024 6.12 1.9 14.01
12/29/2022 10:30:00 AM 0.17 32.306 0.024 6.13 1.74 14
12/29/2022 10:45:00 AM 0.21 32.378 0.023 6.13 1.84 14
12/29/2022 11:00:00 AM 0.26 32.468 0.023 6.13 2.03 13.98
12/29/2022 11:15:00 AM 0.3 32.54 0.024 6.14 1.9 13.97
12/29/2022 11:30:00 AM 0.34 32.612 0.024 6.14 1.88 13.94
12/29/2022 11:45:00 AM 0.37 32.666 0.023 6.15 2.3 13.93
12/29/2022 12:00:00 PM 0.39 32.702 0.023 6.14 2.04 13.91
12/29/2022 12:15:00 PM 0.42 32.756 0.024 6.14 2.11 13.89
12/29/2022 12:30:00 PM 0.43 32.774 0.023 6.15 1.96 13.88
12/29/2022 12:45:00 PM 0.46 32.828 0.024 6.15 2.11 13.87
12/29/2022 1:00:00 PM 0.49 32.882 0.023 6.15 2.29 13.85
12/29/2022 1:15:00 PM 0.49 32.882 0.023 6.15 2.25 13.84
12/29/2022 1:30:00 PM 0.5 32.9 0.024 6.15 2.46 13.83
12/29/2022 1:45:00 PM 0.5 32.9 0.023 6.15 2.23 13.83
12/29/2022 2:00:00 PM 0.5 32.9 0.024 6.15 2.2 13.83
12/29/2022 2:15:00 PM 0.5 32.9 0.023 6.15 2.1 13.82
12/29/2022 2:30:00 PM 0.5 32.9 0.024 6.15 2.37 13.82
12/29/2022 2:45:00 PM 0.48 32.864 0.023 6.16 2.44 13.82
12/29/2022 3:00:00 PM 0.47 32.846 0.024 6.15 2.23 13.81
12/29/2022 3:15:00 PM 0.46 32.828 0.024 6.15 2.06 13.81
12/29/2022 3:30:00 PM 0.43 32.774 0.023 6.16 2.19 13.82
12/29/2022 3:45:00 PM 0.41 32.738 0.024 6.16 2.24 13.82
12/29/2022 4:00:00 PM 0.39 32.702 0.024 6.15 2.14 13.82
12/29/2022 4:15:00 PM 0.37 32.666 0.023 6.16 2.11 13.83
12/29/2022 4:30:00 PM 0.36 32.648 0.024 6.15 2.18 13.83
12/29/2022 4:45:00 PM 0.33 32.594 0.023 6.16 2.11 13.82
12/29/2022 5:00:00 PM 0.33 32.594 0.023 6.14 2.08 13.83
12/29/2022 5:15:00 PM 0.32 32.576 0.024 6.15 2.21 13.81
12/29/2022 5:30:00 PM 0.31 32.558 0.023 6.15 2.16 13.81
12/29/2022 5:45:00 PM 0.3 32.54 0.023 6.14 2 13.81
12/29/2022 6:00:00 PM 0.3 32.54 0.023 6.14 2.18 13.81
12/29/2022 6:15:00 PM 0.32 32.576 0.024 6.14 2.19 13.8
12/29/2022 6:30:00 PM 0.32 32.576 0.024 6.13 2.02 13.81
12/29/2022 6:45:00 PM 0.33 32.594 0.024 6.13 2.11 13.81
12/29/2022 7:00:00 PM 0.32 32.576 0.023 6.13 2.09 13.8
12/29/2022 7:15:00 PM 0.31 32.558 0.023 6.13 2.28 13.81
12/29/2022 7:30:00 PM 0.31 32.558 0.023 6.14 2.55 13.81
12/29/2022 7:45:00 PM 0.31 32.558 0.024 6.14 2.28 13.8
12/29/2022 8:00:00 PM 0.3 32.54 0.023 6.14 2.25 13.81
12/29/2022 8:15:00 PM 0.3 32.54 0.023 6.13 2.9 13.81
12/29/2022 8:30:00 PM 0.31 32.558 0.024 6.13 2.4 13.81
12/29/2022 8:45:00 PM 0.32 32.576 0.024 6.14 2.16 13.81
12/29/2022 9:00:00 PM 0.34 32.612 0.023 6.13 2.37 13.82
12/29/2022 9:15:00 PM 0.36 32.648 0.023 6.13 2.24 13.81
12/29/2022 9:30:00 PM 0.38 32.684 0.023 6.13 2.29 13.81
12/29/2022 9:45:00 PM 0.4 32.72 0.023 6.14 2.14 13.8
12/29/2022 10:00:00 PM 0.41 32.738 0.024 6.12 2.15 13.8
12/29/2022 10:15:00 PM 0.42 32.756 0.024 6.13 2.13 13.8
12/29/2022 10:30:00 PM 0.43 32.774 0.024 6.13 2.27 13.8
12/29/2022 10:45:00 PM 0.44 32.792 0.023 6.13 2.3 13.79
12/29/2022 11:00:00 PM 0.44 32.792 0.024 6.13 2.16 13.79
12/29/2022 11:15:00 PM 0.46 32.828 0.024 6.13 2.06 13.78
12/29/2022 11:30:00 PM 0.45 32.81 0.023 6.13 2.11 13.78
12/29/2022 11:45:00 PM 0.47 32.846 0.023 6.13 2.05 13.78
12/30/2022 12:00:00 AM 0.48 32.864 0.024 6.13 2.07 13.77
12/30/2022 12:15:00 AM 0.49 32.882 0.024 6.13 2.11 13.77
12/30/2022 12:30:00 AM 0.49 32.882 0.024 6.13 2.25 13.77
12/30/2022 12:45:00 AM 0.5 32.9 0.023 6.13 3.45 13.78
12/30/2022 1:00:00 AM 0.51 32.918 0.024 6.12 2 13.77
12/30/2022 1:15:00 AM 0.51 32.918 0.024 6.13 2.21 13.77
12/30/2022 1:30:00 AM 0.51 32.918 0.024 6.13 2.07 13.77
12/30/2022 1:45:00 AM 0.5 32.9 0.023 6.12 2.03 13.77
12/30/2022 2:00:00 AM 0.5 32.9 0.024 6.13 2.4 13.76
12/30/2022 2:15:00 AM 0.48 32.864 0.023 6.13 2.01 13.76
12/30/2022 2:30:00 AM 0.47 32.846 0.023 6.13 2.03 13.77
12/30/2022 2:45:00 AM 0.47 32.846 0.024 6.13 2.05 13.77
12/30/2022 3:00:00 AM 0.47 32.846 0.023 6.14 2.18 13.78
12/30/2022 3:15:00 AM 0.47 32.846 0.023 6.14 4.84 13.78
12/30/2022 3:30:00 AM 0.48 32.864 0.023 6.14 2.1 13.78
12/30/2022 3:45:00 AM 0.47 32.846 0.023 6.13 2.16 13.78
12/30/2022 4:00:00 AM 0.48 32.864 0.023 6.14 2.12 13.78
12/30/2022 4:15:00 AM 0.48 32.864 0.023 6.14 2.17 13.78
12/30/2022 4:30:00 AM 0.48 32.864 0.023 6.14 2.09 13.78
12/30/2022 4:45:00 AM 0.51 32.918 0.024 6.12 2.29 13.76
12/30/2022 5:00:00 AM 0.52 32.936 0.024 6.13 2.33 13.77
12/30/2022 5:15:00 AM 0.53 32.954 0.023 6.13 2.22 13.76
12/30/2022 5:30:00 AM 0.53 32.954 0.023 6.13 2.35 13.76
12/30/2022 5:45:00 AM 0.53 32.954 0.024 6.13 2.18 13.76
12/30/2022 6:00:00 AM 0.51 32.918 0.024 6.14 2.29 13.76
12/30/2022 6:15:00 AM 0.5 32.9 0.024 6.13 2.33 13.76
12/30/2022 6:30:00 AM 0.5 32.9 0.024 6.14 2.55 13.76
12/30/2022 6:45:00 AM 0.51 32.918 0.024 6.14 2.32 13.76
12/30/2022 7:00:00 AM 0.51 32.918 0.024 6.14 2.37 13.76
12/30/2022 7:15:00 AM 0.54 32.972 0.024 6.14 2.4 13.76
12/30/2022 7:30:00 AM 0.55 32.99 0.024 6.14 2.42 13.76
12/30/2022 7:45:00 AM 0.56 33.008 0.024 6.15 2.37 13.76
12/30/2022 8:00:00 AM 0.58 33.044 0.023 6.15 2.45 13.76
12/30/2022 8:15:00 AM 0.6 33.08 0.024 6.15 2.3 13.76
12/30/2022 8:30:00 AM 0.61 33.098 0.024 6.15 2.55 13.77
12/30/2022 8:45:00 AM 0.64 33.152 0.024 6.15 2.35 13.77
12/30/2022 9:00:00 AM 0.67 33.206 0.023 6.15 2.43 13.78
12/30/2022 9:15:00 AM 0.71 33.278 0.024 6.15 2.27 13.78
12/30/2022 9:30:00 AM 0.75 33.35 0.024 6.14 2.3 13.78
12/30/2022 9:45:00 AM 0.79 33.422 0.024 6.16 2.38 13.79
12/30/2022 10:00:00 AM 0.81 33.458 0.024 6.16 2.4 13.78
12/30/2022 10:15:00 AM 0.85 33.53 0.024 6.16 2.44 13.78
12/30/2022 10:30:00 AM 0.89 33.602 0.024 6.16 2.35 13.78
12/30/2022 10:45:00 AM 0.93 33.674 0.024 6.17 2.32 13.77
12/30/2022 11:00:00 AM 0.98 33.764 0.024 6.17 2.24 13.76
12/30/2022 11:15:00 AM 1 33.8 0.024 6.17 2.3 13.75
12/30/2022 11:30:00 AM 1.01 33.818 0.024 6.17 2.26 13.74
12/30/2022 11:45:00 AM 1.01 33.818 0.024 6.18 2.44 13.74
12/30/2022 12:00:00 PM 1.03 33.854 0.023 6.18 2.28 13.73
12/30/2022 12:15:00 PM 1.06 33.908 0.024 6.19 2.26 13.72
12/30/2022 12:30:00 PM 1.09 33.962 0.024 6.18 2.32 13.71
12/30/2022 12:45:00 PM 1.11 33.998 0.024 6.19 2.6 13.71
12/30/2022 1:00:00 PM 1.13 34.034 0.024 6.18 2.38 13.69
12/30/2022 1:15:00 PM 1.16 34.088 0.024 6.19 2.3 13.69
12/30/2022 1:30:00 PM 1.19 34.142 0.024 6.19 2.24 13.68
12/30/2022 1:45:00 PM 1.22 34.196 0.024 6.2 2.37 13.66
12/30/2022 2:00:00 PM 1.26 34.268 0.024 6.2 2.9 13.65
12/30/2022 2:15:00 PM 1.29 34.322 0.024 6.19 2.66 13.64
12/30/2022 2:30:00 PM 1.32 34.376 0.024 6.2 2.38 13.62
12/30/2022 2:45:00 PM 1.33 34.394 0.024 6.22 2.32 13.61
12/30/2022 3:00:00 PM 1.33 34.394 0.025 6.22 2.38 13.6
12/30/2022 3:15:00 PM 1.3 34.34 0.025 6.22 2.26 13.59
12/30/2022 3:30:00 PM 1.28 34.304 0.025 6.22 2.61 13.59
12/30/2022 3:45:00 PM 1.26 34.268 0.025 6.22 2.57 13.59
12/30/2022 4:00:00 PM 1.22 34.196 0.025 6.22 2.51 13.58
12/30/2022 4:15:00 PM 1.18 34.124 0.025 6.22 2.62 13.58
12/30/2022 4:30:00 PM 1.13 34.034 0.025 6.22 2.59 13.58
12/30/2022 4:45:00 PM 1.07 33.926 0.025 6.22 2.67 13.58
12/30/2022 5:00:00 PM 1.02 33.836 0.025 6.21 2.85 13.58
12/30/2022 5:15:00 PM 0.98 33.764 0.025 6.22 2.69 13.58
12/30/2022 5:30:00 PM 0.93 33.674 0.025 6.21 2.7 13.59
12/30/2022 5:45:00 PM 0.91 33.638 0.025 6.21 2.89 13.59
12/30/2022 6:00:00 PM 0.88 33.584 0.025 6.21 2.86 13.59
12/30/2022 6:15:00 PM 0.87 33.566 0.026 6.21 2.91 13.6
12/30/2022 6:30:00 PM 0.85 33.53 0.025 6.2 2.94 13.6
12/30/2022 6:45:00 PM 0.83 33.494 0.025 6.21 3.05 13.6
12/30/2022 7:00:00 PM 0.81 33.458 0.025 6.21 2.88 13.61
12/30/2022 7:15:00 PM 0.8 33.44 0.025 6.21 2.97 13.62
12/30/2022 7:30:00 PM 0.79 33.422 0.025 6.2 2.87 13.62
12/30/2022 7:45:00 PM 0.78 33.404 0.025 6.2 2.98 13.63
12/30/2022 8:00:00 PM 0.77 33.386 0.025 6.2 3.01 13.63
12/30/2022 8:15:00 PM 0.75 33.35 0.025 6.2 3.13 13.64
12/30/2022 8:30:00 PM 0.74 33.332 0.025 6.19 2.99 13.64
12/30/2022 8:45:00 PM 0.73 33.314 0.025 6.2 3.22 13.65
12/30/2022 9:00:00 PM 0.72 33.296 0.025 6.19 2.88 13.66
12/30/2022 9:15:00 PM 0.7 33.26 0.024 6.2 3.05 13.66
12/30/2022 9:30:00 PM 0.7 33.26 0.025 6.19 3.15 13.66
12/30/2022 9:45:00 PM 0.7 33.26 0.024 6.18 2.79 13.67
12/30/2022 10:00:00 PM 0.7 33.26 0.024 6.19 3.03 13.67
12/30/2022 10:15:00 PM 0.69 33.242 0.025 6.19 2.94 13.67
12/30/2022 10:30:00 PM 0.69 33.242 0.024 6.18 2.93 13.67
12/30/2022 10:45:00 PM 0.69 33.242 0.024 6.18 2.98 13.67
12/30/2022 11:00:00 PM 0.69 33.242 0.024 6.18 3.22 13.67
12/30/2022 11:15:00 PM 0.69 33.242 0.024 6.18 2.9 13.67
12/30/2022 11:30:00 PM 0.68 33.224 0.024 6.18 2.88 13.67
12/30/2022 11:45:00 PM 0.69 33.242 0.024 6.18 2.75 13.68
12/31/2022 12:00:00 AM 0.68 33.224 0.025 6.18 2.82 13.67
12/31/2022 12:15:00 AM 0.69 33.242 0.024 6.18 2.81 13.67
12/31/2022 12:30:00 AM 0.69 33.242 0.024 6.18 2.99 13.67
12/31/2022 12:45:00 AM 0.7 33.26 0.024 6.18 2.98 13.67
12/31/2022 1:00:00 AM 0.7 33.26 0.024 6.17 2.9 13.66
12/31/2022 1:15:00 AM 0.71 33.278 0.024 6.18 3.18 13.66
12/31/2022 1:30:00 AM 0.73 33.314 0.024 6.18 3.19 13.66
12/31/2022 1:45:00 AM 0.74 33.332 0.024 6.17 4.06 13.66
12/31/2022 2:00:00 AM 0.75 33.35 0.024 6.18 3.1 13.65
12/31/2022 2:15:00 AM 0.76 33.368 0.024 6.17 3.27 13.64
12/31/2022 2:30:00 AM 0.76 33.368 0.025 6.18 3.17 13.65
12/31/2022 2:45:00 AM 0.77 33.386 0.024 6.17 3.19 13.64
12/31/2022 3:00:00 AM 0.78 33.404 0.024 6.17 3.39 13.64
12/31/2022 3:15:00 AM 0.79 33.422 0.025 6.17 3.31 13.63
12/31/2022 3:30:00 AM 0.8 33.44 0.024 6.17 3.33 13.63
12/31/2022 3:45:00 AM 0.81 33.458 0.024 6.17 3.36 13.63
12/31/2022 4:00:00 AM 0.81 33.458 0.024 6.18 3.12 13.63
12/31/2022 4:15:00 AM 0.83 33.494 0.024 6.17 3.13 13.62
12/31/2022 4:30:00 AM 0.85 33.53 0.024 6.17 3.2 13.62
12/31/2022 4:45:00 AM 0.87 33.566 0.024 6.18 3.24 13.61
12/31/2022 5:00:00 AM 0.89 33.602 0.025 6.18 3.12 13.6
12/31/2022 5:15:00 AM 0.91 33.638 0.024 6.17 3.26 13.6
12/31/2022 5:30:00 AM 0.93 33.674 0.024 6.17 3.12 13.59
12/31/2022 5:45:00 AM 0.95 33.71 0.024 6.17 2.86 13.58
12/31/2022 6:00:00 AM 0.97 33.746 0.024 6.18 3.09 13.57
12/31/2022 6:15:00 AM 0.98 33.764 0.024 6.17 2.9 13.57
12/31/2022 6:30:00 AM 1 33.8 0.024 6.17 3.03 13.56
12/31/2022 6:45:00 AM 1 33.8 0.024 6.17 2.85 13.56
12/31/2022 7:00:00 AM 1.01 33.818 0.024 6.17 2.76 13.55
12/31/2022 7:15:00 AM 1.01 33.818 0.024 6.17 2.79 13.55
12/31/2022 7:30:00 AM 1.01 33.818 0.024 6.17 2.74 13.55
12/31/2022 7:45:00 AM 1.01 33.818 0.024 6.16 2.8 13.54
12/31/2022 8:00:00 AM 1.02 33.836 0.024 6.17 2.62 13.54
12/31/2022 8:15:00 AM 1.03 33.854 0.024 6.17 2.61 13.54
12/31/2022 8:30:00 AM 1.04 33.872 0.024 6.16 2.62 13.54
12/31/2022 8:45:00 AM 1.05 33.89 0.024 6.16 2.61 13.55
12/31/2022 9:00:00 AM 1.06 33.908 0.024 6.16 2.71 13.55
12/31/2022 9:15:00 AM 1.08 33.944 0.024 6.16 2.82 13.56
12/31/2022 9:30:00 AM 1.1 33.98 0.024 6.17 2.84 13.56
12/31/2022 9:45:00 AM 1.11 33.998 0.024 6.17 2.71 13.56
12/31/2022 10:00:00 AM 1.13 34.034 0.024 6.17 2.83 13.56
12/31/2022 10:15:00 AM 1.15 34.07 0.023 6.17 2.84 13.56
12/31/2022 10:30:00 AM 1.19 34.142 0.023 6.16 2.87 13.57
12/31/2022 10:45:00 AM 1.22 34.196 0.024 6.17 2.8 13.56
12/31/2022 11:00:00 AM 1.24 34.232 0.023 6.17 2.84 13.56
12/31/2022 11:15:00 AM 1.25 34.25 0.023 6.18 2.79 13.55
12/31/2022 11:30:00 AM 1.28 34.304 0.024 6.18 2.88 13.54
12/31/2022 11:45:00 AM 1.3 34.34 0.024 6.18 2.9 13.53
12/31/2022 12:00:00 PM 1.32 34.376 0.023 6.18 3.37 13.52
12/31/2022 12:15:00 PM 1.33 34.394 0.024 6.18 3 13.51
12/31/2022 12:30:00 PM 1.35 34.43 0.023 6.19 3 13.5
12/31/2022 12:45:00 PM 1.37 34.466 0.024 6.19 3.29 13.5
12/31/2022 1:00:00 PM 1.36 34.448 0.024 6.18 3.28 13.5
12/31/2022 1:15:00 PM 1.35 34.43 0.023 6.19 3.2 13.5
12/31/2022 1:30:00 PM 1.36 34.448 0.023 6.19 3.32 13.49
12/31/2022 1:45:00 PM 1.37 34.466 0.023 6.19 3.35 13.48
12/31/2022 2:00:00 PM 1.37 34.466 0.024 6.19 3.41 13.47
12/31/2022 2:15:00 PM 1.38 34.484 0.023 6.19 3.39 13.47
12/31/2022 2:30:00 PM 1.37 34.466 0.023 6.19 3.43 13.47
12/31/2022 2:45:00 PM 1.36 34.448 0.023 6.19 3.66 13.45
12/31/2022 3:00:00 PM 1.33 34.394 0.023 6.18 3.71 13.44
12/31/2022 3:15:00 PM 1.3 34.34 0.023 6.19 3.68 13.43
12/31/2022 3:30:00 PM 1.28 34.304 0.023 6.18 3.6 13.43
12/31/2022 3:45:00 PM 1.25 34.25 0.023 6.18 3.75 13.43
12/31/2022 4:00:00 PM 1.23 34.214 0.023 6.17 3.91 13.42
12/31/2022 4:15:00 PM 1.21 34.178 0.024 6.17 3.97 13.43
12/31/2022 4:30:00 PM 1.2 34.16 0.025 6.17 4.45 13.42
12/31/2022 4:45:00 PM 1.19 34.142 0.024 6.17 4.47 13.43
12/31/2022 5:00:00 PM 1.18 34.124 0.023 6.15 4.26 13.43
12/31/2022 5:15:00 PM 1.17 34.106 0.023 6.15 4.16 13.43
12/31/2022 5:30:00 PM 1.15 34.07 0.023 6.14 4.5 13.42
12/31/2022 5:45:00 PM 1.13 34.034 0.023 6.14 4.47 13.43
12/31/2022 6:00:00 PM 1.12 34.016 0.023 6.13 4.59 13.43
12/31/2022 6:15:00 PM 1.1 33.98 0.023 6.14 4.79 13.43
12/31/2022 6:30:00 PM 1.09 33.962 0.023 6.13 4.74 13.43
12/31/2022 6:45:00 PM 1.08 33.944 0.023 6.13 4.75 13.43
12/31/2022 7:00:00 PM 1.08 33.944 0.023 6.11 4.78 13.43
12/31/2022 7:15:00 PM 1.08 33.944 0.023 6.12 4.73 13.43
12/31/2022 7:30:00 PM 1.08 33.944 0.023 6.09 5.37 13.43
12/31/2022 7:45:00 PM 1.08 33.944 0.023 6.12 5.56 13.43
12/31/2022 8:00:00 PM 1.07 33.926 0.023 6.1 4.93 13.42
12/31/2022 8:15:00 PM 1.07 33.926 0.023 6.1 5.11 13.42
12/31/2022 8:30:00 PM 1.08 33.944 0.023 6.09 5.49 13.42
12/31/2022 8:45:00 PM 1.09 33.962 0.023 6.09 5.39 13.42
12/31/2022 9:00:00 PM 1.09 33.962 0.023 6.09 5.49 13.42
12/31/2022 9:15:00 PM 1.1 33.98 0.023 6.09 5.71 13.41
12/31/2022 9:30:00 PM 1.1 33.98 0.022 6.08 5.28 13.41
12/31/2022 9:45:00 PM 1.11 33.998 0.022 6.09 5.75 13.4
12/31/2022 10:00:00 PM 1.12 34.016 0.022 6.09 5.36 13.41
12/31/2022 10:15:00 PM 1.13 34.034 0.023 6.08 5.46 13.4
12/31/2022 10:30:00 PM 1.13 34.034 0.022 6.08 5.9 13.41
12/31/2022 10:45:00 PM 1.15 34.07 0.022 6.07 5.5 13.41
12/31/2022 11:00:00 PM 1.15 34.07 0.022 6.07 5.54 13.4
12/31/2022 11:15:00 PM 1.17 34.106 0.022 6.06 5.48 13.39
12/31/2022 11:30:00 PM 1.18 34.124 0.022 6.07 5.83 13.4
12/31/2022 11:45:00 PM 1.17 34.106 0.022 6.06 6.29 13.39
1/1/2023 12:00:00 AM 1.19 34.142 0.022 6.07 5.71 13.4
1/1/2023 12:15:00 AM 1.2 34.16 0.022 6.07 9.24 13.38
1/1/2023 12:30:00 AM 1.2 34.16 0.022 6.06 6.72 13.39
1/1/2023 12:45:00 AM 1.21 34.178 0.022 6.05 5.98 13.38
1/1/2023 1:00:00 AM 1.2 34.16 0.022 6.05 5.98 13.38
1/1/2023 1:15:00 AM 1.2 34.16 0.022 6.04 5.87 13.38
1/1/2023 1:30:00 AM 1.2 34.16 0.022 6.04 6.15 13.38
1/1/2023 1:45:00 AM 1.2 34.16 0.021 6.03 5.89 13.38
1/1/2023 2:00:00 AM 1.2 34.16 0.022 6.03 6.09 13.38
1/1/2023 2:15:00 AM 1.18 34.124 0.022 6.03 6.09 13.38
1/1/2023 2:30:00 AM 1.18 34.124 0.021 6.03 5.71 13.39
1/1/2023 2:45:00 AM 1.18 34.124 0.022 6.02 5.78 13.39
1/1/2023 3:00:00 AM 1.2 34.16 0.021 6.04 5.95 13.39
1/1/2023 3:15:00 AM 1.2 34.16 0.021 6.03 5.11 13.39
1/1/2023 3:30:00 AM 1.2 34.16 0.021 6.02 5.9 13.39
1/1/2023 3:45:00 AM 1.2 34.16 0.021 6.02 5.27 13.4
1/1/2023 4:00:00 AM 1.2 34.16 0.021 6.02 5.06 13.4
1/1/2023 4:15:00 AM 1.19 34.142 0.021 6.01 4.87 13.4
1/1/2023 4:30:00 AM 1.18 34.124 0.021 6 4.81 13.41
1/1/2023 4:45:00 AM 1.18 34.124 0.021 6.01 4.75 13.41
1/1/2023 5:00:00 AM 1.18 34.124 0.021 6.02 5.19 13.42
1/1/2023 5:15:00 AM 1.17 34.106 0.021 6.01 4.84 13.42
1/1/2023 5:30:00 AM 1.17 34.106 0.021 6.01 4.62 13.43
1/1/2023 5:45:00 AM 1.16 34.088 0.021 5.99 4.39 13.43
1/1/2023 6:00:00 AM 1.15 34.07 0.021 5.99 4.68 13.43
1/1/2023 6:15:00 AM 1.14 34.052 0.021 5.99 4.39 13.44
1/1/2023 6:30:00 AM 1.14 34.052 0.021 5.98 4.27 13.45
1/1/2023 6:45:00 AM 1.13 34.034 0.02 5.99 4.26 13.46
1/1/2023 7:00:00 AM 1.13 34.034 0.02 5.98 4.12 13.46
1/1/2023 7:15:00 AM 1.14 34.052 0.021 5.99 4.16 13.46
1/1/2023 7:30:00 AM 1.14 34.052 0.02 5.98 3.76 13.47
1/1/2023 7:45:00 AM 1.15 34.07 0.02 5.98 3.78 13.47
1/1/2023 8:00:00 AM 1.16 34.088 0.02 5.98 4 13.48
1/1/2023 8:15:00 AM 1.17 34.106 0.02 5.97 3.77 13.49
1/1/2023 8:30:00 AM 1.18 34.124 0.02 5.97 3.69 13.49
1/1/2023 8:45:00 AM 1.19 34.142 0.02 5.96 3.77 13.5
1/1/2023 9:00:00 AM 1.21 34.178 0.02 5.97 3.66 13.51
1/1/2023 9:15:00 AM 1.22 34.196 0.02 5.96 3.56 13.51
1/1/2023 9:30:00 AM 1.24 34.232 0.02 5.96 3.48 13.51
1/1/2023 9:45:00 AM 1.26 34.268 0.02 5.96 3.72 13.51
1/1/2023 10:00:00 AM 1.29 34.322 0.02 5.97 3.44 13.51
1/1/2023 10:15:00 AM 1.34 34.412 0.02 5.96 3.33 13.5
1/1/2023 10:30:00 AM 1.4 34.52 0.02 5.98 3.31 13.5
1/1/2023 10:45:00 AM 1.44 34.592 0.02 5.97 3.32 13.49
1/1/2023 11:00:00 AM 1.5 34.7 0.02 5.98 3.28 13.49
1/1/2023 11:15:00 AM 1.58 34.844 0.02 5.98 3.37 13.47
1/1/2023 11:30:00 AM 1.62 34.916 0.02 5.98 3.1 13.45
1/1/2023 11:45:00 AM 1.67 35.006 0.02 5.96 3.17 13.44
1/1/2023 12:00:00 PM 1.71 35.078 0.02 5.98 3.08 13.42
1/1/2023 12:15:00 PM 1.75 35.15 0.02 5.98 3.01 13.41
1/1/2023 12:30:00 PM 1.77 35.186 0.02 5.98 3.05 13.4
1/1/2023 12:45:00 PM 1.8 35.24 0.02 5.98 3.04 13.39
1/1/2023 1:00:00 PM 1.84 35.312 0.019 5.99 3.07 13.38
1/1/2023 1:15:00 PM 1.87 35.366 0.019 5.99 3 13.37
1/1/2023 1:30:00 PM 1.88 35.384 0.02 6 3.15 13.35
1/1/2023 1:45:00 PM 1.91 35.438 0.019 6 2.94 13.34
1/1/2023 2:00:00 PM 1.92 35.456 0.019 6 2.91 13.34
1/1/2023 2:15:00 PM 1.93 35.474 0.02 5.99 2.9 13.32
1/1/2023 2:30:00 PM 1.94 35.492 0.019 6.01 3.14 13.31
1/1/2023 2:45:00 PM 1.96 35.528 0.019 6 2.81 13.3
1/1/2023 3:00:00 PM 1.98 35.564 0.02 5.99 2.9 13.29
1/1/2023 3:15:00 PM 2 35.6 0.019 5.99 3 13.27
1/1/2023 3:30:00 PM 2.02 35.636 0.02 6 2.91 13.26
1/1/2023 3:45:00 PM 2.01 35.618 0.019 5.98 2.9 13.26
1/1/2023 4:00:00 PM 1.99 35.582 0.02 5.99 2.82 13.24
1/1/2023 4:15:00 PM 1.99 35.582 0.019 5.99 2.78 13.24
1/1/2023 4:30:00 PM 1.99 35.582 0.02 5.98 2.8 13.23
1/1/2023 4:45:00 PM 1.98 35.564 0.02 5.99 2.87 13.23
1/1/2023 5:00:00 PM 1.98 35.564 0.02 5.98 2.76 13.22
1/1/2023 5:15:00 PM 1.98 35.564 0.019 5.97 2.76 13.21
1/1/2023 5:30:00 PM 1.97 35.546 0.02 5.98 2.83 13.21
1/1/2023 5:45:00 PM 1.94 35.492 0.019 5.97 2.88 13.21
1/1/2023 6:00:00 PM 1.91 35.438 0.019 5.98 2.87 13.22
1/1/2023 6:15:00 PM 1.89 35.402 0.02 5.98 2.86 13.22
1/1/2023 6:30:00 PM 1.89 35.402 0.019 5.98 2.86 13.23
1/1/2023 6:45:00 PM 1.88 35.384 0.019 5.95 2.84 13.23
1/1/2023 7:00:00 PM 1.88 35.384 0.019 5.97 2.77 13.24
1/1/2023 7:15:00 PM 1.87 35.366 0.019 5.96 2.82 13.24
1/1/2023 7:30:00 PM 1.86 35.348 0.019 5.97 2.61 13.24
1/1/2023 7:45:00 PM 1.86 35.348 0.019 5.96 2.7 13.25
1/1/2023 8:00:00 PM 1.85 35.33 0.019 5.95 2.73 13.25
1/1/2023 8:15:00 PM 1.85 35.33 0.019 5.94 2.65 13.26
1/1/2023 8:30:00 PM 1.85 35.33 0.019 5.93 2.64 13.27
1/1/2023 8:45:00 PM 1.84 35.312 0.019 5.94 2.63 13.27
1/1/2023 9:00:00 PM 1.84 35.312 0.019 5.93 2.65 13.27
1/1/2023 9:15:00 PM 1.84 35.312 0.019 5.92 2.78 13.27
1/1/2023 9:30:00 PM 1.84 35.312 0.019 5.93 2.72 13.27
1/1/2023 9:45:00 PM 1.84 35.312 0.019 5.93 2.75 13.27
1/1/2023 10:00:00 PM 1.83 35.294 0.019 5.93 2.67 13.27
1/1/2023 10:15:00 PM 1.83 35.294 0.019 5.93 2.76 13.27
1/1/2023 10:30:00 PM 1.83 35.294 0.019 5.93 2.62 13.27
1/1/2023 10:45:00 PM 1.83 35.294 0.019 5.92 2.66 13.28
1/1/2023 11:00:00 PM 1.83 35.294 0.019 5.91 2.55 13.27
1/1/2023 11:15:00 PM 1.84 35.312 0.019 5.92 2.58 13.27
1/1/2023 11:30:00 PM 1.84 35.312 0.019 5.92 2.58 13.27
1/1/2023 11:45:00 PM 1.84 35.312 0.019 5.92 2.5 13.27
1/2/2023 12:00:00 AM 1.84 35.312 0.019 5.95 2.5 13.27
1/2/2023 12:15:00 AM 1.85 35.33 0.019 5.94 2.6 13.26
1/2/2023 12:30:00 AM 1.85 35.33 0.019 5.96 2.53 13.27
1/2/2023 12:45:00 AM 1.85 35.33 0.019 5.95 2.67 13.27
1/2/2023 1:00:00 AM 1.85 35.33 0.019 5.96 2.54 13.26
1/2/2023 1:15:00 AM 1.85 35.33 0.019 5.96 2.5 13.26
1/2/2023 1:30:00 AM 1.86 35.348 0.019 5.97 2.42 13.26
1/2/2023 1:45:00 AM 1.87 35.366 0.019 5.97 2.51 13.26
1/2/2023 2:00:00 AM 1.87 35.366 0.019 5.96 2.5 13.26
1/2/2023 2:15:00 AM 1.87 35.366 0.019 5.95 2.44 13.26
1/2/2023 2:30:00 AM 1.87 35.366 0.019 5.96 2.48 13.26
1/2/2023 2:45:00 AM 1.88 35.384 0.019 5.97 2.35 13.26
1/2/2023 3:00:00 AM 1.87 35.366 0.019 5.96 2.33 13.27
1/2/2023 3:15:00 AM 1.86 35.348 0.019 5.95 2.4 13.27
1/2/2023 3:30:00 AM 1.85 35.33 0.019 5.98 2.38 13.27
1/2/2023 3:45:00 AM 1.84 35.312 0.019 5.96 2.38 13.27
1/2/2023 4:00:00 AM 1.84 35.312 0.019 5.96 2.31 13.27
1/2/2023 4:15:00 AM 1.84 35.312 0.019 5.96 2.42 13.27
1/2/2023 4:30:00 AM 1.85 35.33 0.019 5.95 2.46 13.28
1/2/2023 4:45:00 AM 1.84 35.312 0.019 5.96 2.34 13.27
1/2/2023 5:00:00 AM 1.83 35.294 0.019 5.97 2.47 13.28
1/2/2023 5:15:00 AM 1.82 35.276 0.019 5.96 2.37 13.28
1/2/2023 5:30:00 AM 1.82 35.276 0.019 5.96 2.23 13.28
1/2/2023 5:45:00 AM 1.83 35.294 0.019 5.95 2.26 13.28
1/2/2023 6:00:00 AM 1.83 35.294 0.019 5.96 2.35 13.29
1/2/2023 6:15:00 AM 1.83 35.294 0.019 5.96 2.33 13.29
1/2/2023 6:30:00 AM 1.82 35.276 0.019 5.96 2.33 13.29
1/2/2023 6:45:00 AM 1.81 35.258 0.019 5.96 2.22 13.3
1/2/2023 7:00:00 AM 1.8 35.24 0.019 5.97 2.28 13.3
1/2/2023 7:15:00 AM 1.8 35.24 0.019 5.95 2.34 13.3
1/2/2023 7:30:00 AM 1.79 35.222 0.019 5.95 2.44 13.31
1/2/2023 7:45:00 AM 1.79 35.222 0.019 5.95 2.25 13.31
1/2/2023 8:00:00 AM 1.79 35.222 0.019 5.95 2.25 13.32
1/2/2023 8:15:00 AM 1.79 35.222 0.019 5.94 2.21 13.33
1/2/2023 8:30:00 AM 1.8 35.24 0.019 5.95 2.17 13.34
1/2/2023 8:45:00 AM 1.81 35.258 0.019 5.95 2.12 13.35
1/2/2023 9:00:00 AM 1.82 35.276 0.019 5.95 2.18 13.36
1/2/2023 9:15:00 AM 1.84 35.312 0.019 5.94 2.31 13.36
1/2/2023 9:30:00 AM 1.88 35.384 0.019 5.95 2.2 13.37
1/2/2023 9:45:00 AM 1.9 35.42 0.019 5.96 2.22 13.36
1/2/2023 10:00:00 AM 1.93 35.474 0.019 5.95 2.21 13.36
1/2/2023 10:15:00 AM 1.98 35.564 0.019 5.96 2.15 13.36
1/2/2023 10:30:00 AM 2.03 35.654 0.019 5.96 2.11 13.35
1/2/2023 10:45:00 AM 2.08 35.744 0.019 5.97 2.12 13.33
1/2/2023 11:00:00 AM 2.12 35.816 0.019 5.99 2.01 13.32
1/2/2023 11:15:00 AM 2.16 35.888 0.019 5.98 2.05 13.31
1/2/2023 11:30:00 AM 2.2 35.96 0.02 5.98 2.01 13.3
1/2/2023 11:45:00 AM 2.25 36.05 0.019 6 2.04 13.29
1/2/2023 12:00:00 PM 2.32 36.176 0.019 5.99 2.11 13.28
1/2/2023 12:15:00 PM 2.41 36.338 0.019 6 2.06 13.26
1/2/2023 12:30:00 PM 2.46 36.428 0.019 6 2.17 13.24
1/2/2023 12:45:00 PM 2.48 36.464 0.019 6.01 2.1 13.23
1/2/2023 1:00:00 PM 2.51 36.518 0.019 6.01 2.01 13.21
1/2/2023 1:15:00 PM 2.53 36.554 0.019 6.02 1.94 13.19
1/2/2023 1:30:00 PM 2.54 36.572 0.019 6.01 2.07 13.18
1/2/2023 1:45:00 PM 2.57 36.626 0.019 6.02 2.08 13.17
1/2/2023 2:00:00 PM 2.61 36.698 0.019 6.03 2.05 13.15
1/2/2023 2:15:00 PM 2.65 36.77 0.02 6.02 2.1 13.14
1/2/2023 2:30:00 PM 2.68 36.824 0.019 6.03 2.06 13.13
1/2/2023 2:45:00 PM 2.7 36.86 0.02 6.03 2.04 13.11
1/2/2023 3:00:00 PM 2.72 36.896 0.02 6.02 2.06 13.1
1/2/2023 3:15:00 PM 2.74 36.932 0.02 6.03 2.09 13.08
1/2/2023 3:30:00 PM 2.75 36.95 0.019 6.03 2.11 13.07
1/2/2023 3:45:00 PM 2.75 36.95 0.019 6.02 2.1 13.05
1/2/2023 4:00:00 PM 2.75 36.95 0.02 6.02 2.1 13.04
1/2/2023 4:15:00 PM 2.76 36.968 0.019 6.01 2.09 13.02
1/2/2023 4:30:00 PM 2.76 36.968 0.02 6 2.2 13.01
1/2/2023 4:45:00 PM 2.75 36.95 0.02 6.01 2.13 13
1/2/2023 5:00:00 PM 2.75 36.95 0.02 6.01 2.19 12.99
1/2/2023 5:15:00 PM 2.75 36.95 0.02 6 2.17 12.99
1/2/2023 5:30:00 PM 2.74 36.932 0.019 6 2.15 12.98
1/2/2023 5:45:00 PM 2.74 36.932 0.02 6.01 2.09 12.97
1/2/2023 6:00:00 PM 2.73 36.914 0.02 6 2.21 12.97
1/2/2023 6:15:00 PM 2.73 36.914 0.02 6 2.12 12.98
1/2/2023 6:30:00 PM 2.72 36.896 0.02 6 2.11 12.98
1/2/2023 6:45:00 PM 2.72 36.896 0.02 5.99 2.17 12.98
1/2/2023 7:00:00 PM 2.72 36.896 0.02 5.99 2.16 12.98
1/2/2023 7:15:00 PM 2.72 36.896 0.02 5.99 2.29 12.98
1/2/2023 7:30:00 PM 2.71 36.878 0.02 5.98 2.15 12.99
1/2/2023 7:45:00 PM 2.71 36.878 0.02 5.98 2.15 12.98
1/2/2023 8:00:00 PM 2.7 36.86 0.02 5.98 2.11 12.99
1/2/2023 8:15:00 PM 2.7 36.86 0.02 5.98 2.23 12.99
1/2/2023 8:30:00 PM 2.69 36.842 0.02 5.97 2.06 12.99
1/2/2023 8:45:00 PM 2.69 36.842 0.02 5.98 2.14 12.99
1/2/2023 9:00:00 PM 2.68 36.824 0.02 5.97 2.1 12.99
1/2/2023 9:15:00 PM 2.67 36.806 0.02 5.96 2.12 13
1/2/2023 9:30:00 PM 2.67 36.806 0.02 5.97 2.11 12.99
1/2/2023 9:45:00 PM 2.66 36.788 0.02 5.98 2.16 13
1/2/2023 10:00:00 PM 2.66 36.788 0.02 5.98 2.19 13
1/2/2023 10:15:00 PM 2.66 36.788 0.02 5.96 2.1 13
1/2/2023 10:30:00 PM 2.66 36.788 0.02 5.97 2.13 13
1/2/2023 10:45:00 PM 2.66 36.788 0.02 5.97 2.1 12.99
1/2/2023 11:00:00 PM 2.66 36.788 0.02 5.97 1.99 13
1/2/2023 11:15:00 PM 2.66 36.788 0.02 5.97 2.17 12.99
1/2/2023 11:30:00 PM 2.66 36.788 0.02 5.96 2.17 12.99
1/2/2023 11:45:00 PM 2.67 36.806 0.02 5.97 2.07 12.98
1/3/2023 12:00:00 AM 2.67 36.806 0.02 5.97 2.06 12.99
1/3/2023 12:15:00 AM 2.67 36.806 0.02 5.97 2.18 12.98
1/3/2023 12:30:00 AM 2.67 36.806 0.02 5.96 2.1 12.99
1/3/2023 12:45:00 AM 2.68 36.824 0.02 5.97 2.21 12.98
1/3/2023 1:00:00 AM 2.68 36.824 0.02 5.97 2.18 12.98
1/3/2023 1:15:00 AM 2.69 36.842 0.02 5.97 2.19 12.97
1/3/2023 1:30:00 AM 2.69 36.842 0.02 5.97 2.05 12.97
1/3/2023 1:45:00 AM 2.69 36.842 0.02 5.98 2.08 12.97
1/3/2023 2:00:00 AM 2.7 36.86 0.02 5.96 2.16 12.96
1/3/2023 2:15:00 AM 2.7 36.86 0.02 5.97 2.14 12.96
1/3/2023 2:30:00 AM 2.71 36.878 0.02 5.97 2.12 12.96
1/3/2023 2:45:00 AM 2.71 36.878 0.02 5.97 2.06 12.96
1/3/2023 3:00:00 AM 2.72 36.896 0.02 5.97 2.06 12.96
1/3/2023 3:15:00 AM 2.72 36.896 0.02 5.97 2.12 12.96
1/3/2023 3:30:00 AM 2.73 36.914 0.02 5.97 2.05 12.96
1/3/2023 3:45:00 AM 2.73 36.914 0.02 5.98 2.14 12.95
1/3/2023 4:00:00 AM 2.74 36.932 0.02 5.97 2.15 12.95
1/3/2023 4:15:00 AM 2.75 36.95 0.02 5.98 2.21 12.94
1/3/2023 4:30:00 AM 2.75 36.95 0.02 5.97 2 12.94
1/3/2023 4:45:00 AM 2.75 36.95 0.02 5.97 1.92 12.94
1/3/2023 5:00:00 AM 2.76 36.968 0.02 5.97 2.06 12.93
1/3/2023 5:15:00 AM 2.76 36.968 0.02 5.98 2.05 12.93
1/3/2023 5:30:00 AM 2.76 36.968 0.02 5.97 1.98 12.93
1/3/2023 5:45:00 AM 2.76 36.968 0.02 5.97 2.05 12.93
1/3/2023 6:00:00 AM 2.76 36.968 0.02 5.97 2.05 12.92
1/3/2023 6:15:00 AM 2.76 36.968 0.02 5.97 1.95 12.92
1/3/2023 6:30:00 AM 2.76 36.968 0.02 5.97 2.09 12.92
1/3/2023 6:45:00 AM 2.75 36.95 0.02 5.97 2 12.91
1/3/2023 7:00:00 AM 2.76 36.968 0.02 5.97 1.99 12.91
1/3/2023 7:15:00 AM 2.76 36.968 0.02 5.98 2.01 12.91
1/3/2023 7:30:00 AM 2.76 36.968 0.02 5.97 2.01 12.91
1/3/2023 7:45:00 AM 2.77 36.986 0.02 5.97 2.1 12.9
1/3/2023 8:00:00 AM 2.77 36.986 0.02 5.97 2 12.9
1/3/2023 8:15:00 AM 2.78 37.004 0.02 5.96 2.02 12.9
1/3/2023 8:30:00 AM 2.79 37.022 0.02 5.97 2.15 12.9
1/3/2023 8:45:00 AM 2.8 37.04 0.02 5.98 2.04 12.9
1/3/2023 9:00:00 AM 2.81 37.058 0.02 5.97 2.08 12.9
1/3/2023 9:15:00 AM 2.83 37.094 0.02 5.98 2.15 12.91
1/3/2023 9:30:00 AM 2.85 37.13 0.02 5.99 2.15 12.9
1/3/2023 9:45:00 AM 2.88 37.184 0.021 5.99 2.46 12.9
1/3/2023 10:00:00 AM 2.92 37.256 0.022 6.02 4.43 12.88
1/3/2023 10:15:00 AM 2.94 37.292 0.022 6.02 4.07 12.87
1/3/2023 10:30:00 AM 2.97 37.346 0.022 6.02 3.43 12.87
1/3/2023 10:45:00 AM 3.01 37.418 0.021 6.02 3.67 12.87
1/3/2023 11:00:00 AM 3.02 37.436 0.021 6.02 3.54 12.87
1/3/2023 11:15:00 AM 3.05 37.49 0.021 6.03 3.88 12.86
1/3/2023 11:30:00 AM 3.08 37.544 0.021 6.04 3.95 12.85
1/3/2023 11:45:00 AM 3.13 37.634 0.021 6.05 3.91 12.85
1/3/2023 12:00:00 PM 3.17 37.706 0.022 6.06 4.6 12.83
1/3/2023 12:15:00 PM 3.21 37.778 0.022 6.07 4.05 12.82
1/3/2023 12:30:00 PM 3.24 37.832 0.022 6.06 4.31 12.81
1/3/2023 12:45:00 PM 3.29 37.922 0.022 6.07 4.3 12.79
1/3/2023 1:00:00 PM 3.35 38.03 0.021 6.07 4.37 12.78
1/3/2023 1:15:00 PM 3.4 38.12 0.021 6.07 4.57 12.77
1/3/2023 1:30:00 PM 3.46 38.228 0.021 6.07 4.72 12.76
1/3/2023 1:45:00 PM 3.5 38.3 0.021 6.07 4.91 12.74
1/3/2023 2:00:00 PM 3.52 38.336 0.021 6.06 5 12.72
1/3/2023 2:15:00 PM 3.53 38.354 0.021 6.06 5.11 12.7
1/3/2023 2:30:00 PM 3.55 38.39 0.021 6.03 5.39 12.68
1/3/2023 2:45:00 PM 3.58 38.444 0.021 6.02 5.16 12.67
1/3/2023 3:00:00 PM 3.59 38.462 0.021 6.02 5.35 12.65
1/3/2023 3:15:00 PM 3.6 38.48 0.02 6 5.33 12.64
1/3/2023 3:30:00 PM 3.6 38.48 0.02 6.02 5.28 12.63
1/3/2023 3:45:00 PM 3.58 38.444 0.02 6.01 5.05 12.62
1/3/2023 4:00:00 PM 3.58 38.444 0.02 6.01 5.78 12.61
1/3/2023 4:15:00 PM 3.58 38.444 0.021 6.01 6 12.6
1/3/2023 4:30:00 PM 3.6 38.48 0.021 6.03 6.58 12.59
1/3/2023 4:45:00 PM 3.6 38.48 0.02 6.02 6.42 12.59
1/3/2023 5:00:00 PM 3.6 38.48 0.02 6.01 6.25 12.58
1/3/2023 5:15:00 PM 3.59 38.462 0.02 6 6.02 12.58
1/3/2023 5:30:00 PM 3.59 38.462 0.02 5.99 5.68 12.58
1/3/2023 5:45:00 PM 3.58 38.444 0.02 5.99 6.26 12.57
1/3/2023 6:00:00 PM 3.58 38.444 0.02 5.99 5.7 12.57
1/3/2023 6:15:00 PM 3.59 38.462 0.02 5.99 5.7 12.57
1/3/2023 6:30:00 PM 3.6 38.48 0.019 5.98 5.47 12.57
1/3/2023 6:45:00 PM 3.6 38.48 0.019 5.96 4.88 12.57
1/3/2023 7:00:00 PM 3.6 38.48 0.019 5.95 5.05 12.57
1/3/2023 7:15:00 PM 3.59 38.462 0.019 5.96 4.75 12.57
1/3/2023 7:30:00 PM 3.6 38.48 0.019 5.95 4.68 12.57
1/3/2023 7:45:00 PM 3.59 38.462 0.019 5.93 4.74 12.57
1/3/2023 8:00:00 PM 3.59 38.462 0.019 5.95 4.33 12.57
1/3/2023 8:15:00 PM 3.58 38.444 0.019 5.95 4.23 12.57
1/3/2023 8:30:00 PM 3.58 38.444 0.019 5.94 4.11 12.57
1/3/2023 8:45:00 PM 3.58 38.444 0.019 5.94 4.15 12.57
1/3/2023 9:00:00 PM 3.57 38.426 0.019 5.93 3.99 12.57
1/3/2023 9:15:00 PM 3.57 38.426 0.019 5.95 3.79 12.57
1/3/2023 9:30:00 PM 3.57 38.426 0.019 5.94 4.01 12.58
1/3/2023 9:45:00 PM 3.56 38.408 0.019 5.92 3.55 12.57
1/3/2023 10:00:00 PM 3.56 38.408 0.019 5.92 3.56 12.58
1/3/2023 10:15:00 PM 3.57 38.426 0.019 5.91 3.66 12.57
1/3/2023 10:30:00 PM 3.57 38.426 0.019 5.93 3.42 12.57
1/3/2023 10:45:00 PM 3.57 38.426 0.019 5.94 3.53 12.57
1/3/2023 11:00:00 PM 3.57 38.426 0.019 5.93 3.39 12.57
1/3/2023 11:15:00 PM 3.57 38.426 0.019 5.93 3.65 12.57
1/3/2023 11:30:00 PM 3.56 38.408 0.019 5.92 3.37 12.57
1/3/2023 11:45:00 PM 3.56 38.408 0.019 5.91 3.37 12.57
1/4/2023 12:00:00 AM 3.56 38.408 0.019 5.93 3.17 12.57
1/4/2023 12:15:00 AM 3.57 38.426 0.019 5.91 3.34 12.57
1/4/2023 12:30:00 AM 3.58 38.444 0.019 5.93 3.08 12.57
1/4/2023 12:45:00 AM 3.59 38.462 0.019 5.91 3.05 12.56
1/4/2023 1:00:00 AM 3.6 38.48 0.018 5.92 3.12 12.56
1/4/2023 1:15:00 AM 3.62 38.516 0.018 5.92 2.91 12.56
1/4/2023 1:30:00 AM 3.63 38.534 0.018 5.93 3.07 12.55
1/4/2023 1:45:00 AM 3.67 38.606 0.018 5.92 3 12.55
1/4/2023 2:00:00 AM 3.69 38.642 0.018 5.93 2.95 12.55
1/4/2023 2:15:00 AM 3.72 38.696 0.018 5.92 2.81 12.54
1/4/2023 2:30:00 AM 3.74 38.732 0.018 5.92 2.79 12.54
1/4/2023 2:45:00 AM 3.76 38.768 0.018 5.93 2.72 12.53
1/4/2023 3:00:00 AM 3.77 38.786 0.018 5.94 2.71 12.53
1/4/2023 3:15:00 AM 3.78 38.804 0.018 5.93 2.81 12.52
1/4/2023 3:30:00 AM 3.79 38.822 0.019 5.94 2.57 12.52
1/4/2023 3:45:00 AM 3.82 38.876 0.018 5.93 2.73 12.51
1/4/2023 4:00:00 AM 3.84 38.912 0.018 5.93 2.69 12.51
1/4/2023 4:15:00 AM 3.85 38.93 0.018 5.94 2.7 12.5
1/4/2023 4:30:00 AM 3.86 38.948 0.018 5.93 2.69 12.49
1/4/2023 4:45:00 AM 3.87 38.966 0.018 5.93 2.64 12.49
1/4/2023 5:00:00 AM 3.88 38.984 0.018 5.93 2.71 12.48
1/4/2023 5:15:00 AM 3.89 39.002 0.018 5.93 2.52 12.48
1/4/2023 5:30:00 AM 3.91 39.038 0.018 5.92 2.65 12.48
1/4/2023 5:45:00 AM 3.91 39.038 0.018 5.93 2.48 12.47
1/4/2023 6:00:00 AM 3.92 39.056 0.019 5.92 2.44 12.47
1/4/2023 6:15:00 AM 3.93 39.074 0.018 5.93 2.47 12.47
1/4/2023 6:30:00 AM 3.93 39.074 0.018 5.92 2.49 12.47
1/4/2023 6:45:00 AM 3.94 39.092 0.018 5.92 2.5 12.47
1/4/2023 7:00:00 AM 3.95 39.11 0.018 5.93 2.3 12.47
1/4/2023 7:15:00 AM 3.95 39.11 0.018 5.91 2.44 12.47
1/4/2023 7:30:00 AM 3.95 39.11 0.018 5.92 2.37 12.46
1/4/2023 7:45:00 AM 3.96 39.128 0.018 5.91 2.36 12.47
1/4/2023 8:00:00 AM 3.97 39.146 0.019 5.93 2.28 12.47
1/4/2023 8:15:00 AM 3.98 39.164 0.018 5.93 2.32 12.47
1/4/2023 8:30:00 AM 3.99 39.182 0.018 5.93 2.34 12.48
1/4/2023 8:45:00 AM 4.01 39.218 0.018 5.91 2.35 12.49
1/4/2023 9:00:00 AM 4.03 39.254 0.019 5.92 2.29 12.49
1/4/2023 9:15:00 AM 4.04 39.272 0.018 5.93 2.35 12.5
1/4/2023 9:30:00 AM 4.06 39.308 0.018 5.93 2.34 12.51
1/4/2023 9:45:00 AM 4.09 39.362 0.019 5.93 2.32 12.51
1/4/2023 10:00:00 AM 4.12 39.416 0.019 5.94 2.22 12.51
1/4/2023 10:15:00 AM 4.15 39.47 0.018 5.95 2.16 12.51
1/4/2023 10:30:00 AM 4.18 39.524 0.018 5.94 2.23 12.51
1/4/2023 10:45:00 AM 4.22 39.596 0.018 5.95 2.24 12.5
1/4/2023 11:00:00 AM 4.27 39.686 0.018 5.95 2.36 12.5
1/4/2023 11:15:00 AM 4.31 39.758 0.018 5.95 2.28 12.49
1/4/2023 11:30:00 AM 4.35 39.83 0.018 5.95 2.29 12.48
1/4/2023 11:45:00 AM 4.39 39.902 0.018 5.97 2.17 12.48
1/4/2023 12:00:00 PM 4.44 39.992 0.018 5.97 2.26 12.46
1/4/2023 12:15:00 PM 4.48 40.064 0.018 5.96 2.24 12.45
1/4/2023 12:30:00 PM 4.5 40.1 0.018 5.97 2.2 12.43
1/4/2023 12:45:00 PM 4.53 40.154 0.018 5.98 2.18 12.42
1/4/2023 1:00:00 PM 4.55 40.19 0.018 5.98 2.25 12.4
1/4/2023 1:15:00 PM 4.58 40.244 0.018 5.99 2.18 12.39
1/4/2023 1:30:00 PM 4.61 40.298 0.018 5.98 2.2 12.38
1/4/2023 1:45:00 PM 4.63 40.334 0.018 6 2.12 12.37
1/4/2023 2:00:00 PM 4.65 40.37 0.019 5.99 2.15 12.36
1/4/2023 2:15:00 PM 4.67 40.406 0.019 6 2.28 12.35
1/4/2023 2:30:00 PM 4.7 40.46 0.019 5.99 2.24 12.34
1/4/2023 2:45:00 PM 4.73 40.514 0.018 6 2.24 12.32
1/4/2023 3:00:00 PM 4.76 40.568 0.018 5.99 2.24 12.31
1/4/2023 3:15:00 PM 4.77 40.586 0.019 5.99 2.23 12.29
1/4/2023 3:30:00 PM 4.79 40.622 0.019 6 2.23 12.27
1/4/2023 3:45:00 PM 4.8 40.64 0.018 6 2.2 12.24
1/4/2023 4:00:00 PM 4.8 40.64 0.019 5.98 2.14 12.23
1/4/2023 4:15:00 PM 4.8 40.64 0.019 5.98 2.15 12.22
1/4/2023 4:30:00 PM 4.8 40.64 0.018 5.99 2.2 12.2
1/4/2023 4:45:00 PM 4.81 40.658 0.019 5.99 2.24 12.18
1/4/2023 5:00:00 PM 4.81 40.658 0.018 5.97 2.27 12.17
1/4/2023 5:15:00 PM 4.82 40.676 0.018 5.98 2.22 12.16
1/4/2023 5:30:00 PM 4.84 40.712 0.019 5.98 2.16 12.15
1/4/2023 5:45:00 PM 4.87 40.766 0.019 5.99 2.18 12.13
1/4/2023 6:00:00 PM 4.92 40.856 0.019 5.98 2.17 12.12
1/4/2023 6:15:00 PM 4.96 40.928 0.019 5.99 2.2 12.11
1/4/2023 6:30:00 PM 4.98 40.964 0.019 5.99 2.26 12.1
1/4/2023 6:45:00 PM 5 41 0.018 6.01 2.15 12.09
1/4/2023 7:00:00 PM 5.03 41.054 0.019 5.99 2.18 12.08
1/4/2023 7:15:00 PM 5.04 41.072 0.019 5.99 2.24 12.08
1/4/2023 7:30:00 PM 5.05 41.09 0.018 6 2.25 12.07
1/4/2023 7:45:00 PM 5.05 41.09 0.018 5.99 2.29 12.06
1/4/2023 8:00:00 PM 5.07 41.126 0.018 5.99 2.24 12.07
1/4/2023 8:15:00 PM 5.09 41.162 0.019 5.99 2.17 12.06
1/4/2023 8:30:00 PM 5.1 41.18 0.019 6 2.14 12.05
1/4/2023 8:45:00 PM 5.12 41.216 0.019 6 2.15 12.05
1/4/2023 9:00:00 PM 5.13 41.234 0.019 6 2.12 12.04
1/4/2023 9:15:00 PM 5.13 41.234 0.019 6.01 2.12 12.03
1/4/2023 9:30:00 PM 5.14 41.252 0.019 6 2.22 12.03
1/4/2023 9:45:00 PM 5.16 41.288 0.019 6.01 2.21 12.03
1/4/2023 10:00:00 PM 5.18 41.324 0.019 6 2.12 12.01
1/4/2023 10:15:00 PM 5.2 41.36 0.019 6 2.16 12.01
1/4/2023 10:30:00 PM 5.22 41.396 0.019 6 2.13 12.01
1/4/2023 10:45:00 PM 5.22 41.396 0.019 6 2.14 12.01
1/4/2023 11:00:00 PM 5.21 41.378 0.019 6 2.06 12
1/4/2023 11:15:00 PM 5.21 41.378 0.019 6 2.19 12
1/4/2023 11:30:00 PM 5.21 41.378 0.019 6 2.13 12.01
1/4/2023 11:45:00 PM 5.21 41.378 0.019 5.99 2.06 12
1/5/2023 12:00:00 AM 5.22 41.396 0.019 6 2.27 12
1/5/2023 12:15:00 AM 5.21 41.378 0.019 6.01 2.17 12.01
1/5/2023 12:30:00 AM 5.2 41.36 0.019 6.01 2.13 12.01
1/5/2023 12:45:00 AM 5.19 41.342 0.019 6.01 2.13 12.01
1/5/2023 1:00:00 AM 5.17 41.306 0.019 6.01 2.08 12.01
1/5/2023 1:15:00 AM 5.14 41.252 0.019 6 2.05 12.01
1/5/2023 1:30:00 AM 5.13 41.234 0.019 6.01 2.27 12.02
1/5/2023 1:45:00 AM 5.11 41.198 0.019 6.02 2.26 12.03
1/5/2023 2:00:00 AM 5.1 41.18 0.019 6.02 2.15 12.03
1/5/2023 2:15:00 AM 5.08 41.144 0.019 6.01 2.15 12.05
1/5/2023 2:30:00 AM 5.05 41.09 0.019 6.01 2.2 12.05
1/5/2023 2:45:00 AM 5.02 41.036 0.019 6.01 2.06 12.06
1/5/2023 3:00:00 AM 4.99 40.982 0.019 6 2.07 12.07
1/5/2023 3:15:00 AM 4.96 40.928 0.019 6 1.93 12.07
1/5/2023 3:30:00 AM 4.93 40.874 0.019 6.01 2.02 12.08
1/5/2023 3:45:00 AM 4.91 40.838 0.019 6.01 2.03 12.09
1/5/2023 4:00:00 AM 4.88 40.784 0.019 6.01 2.12 12.11
1/5/2023 4:15:00 AM 4.84 40.712 0.019 6 2.2 12.12
1/5/2023 4:30:00 AM 4.81 40.658 0.019 6.01 2.17 12.13
1/5/2023 4:45:00 AM 4.78 40.604 0.019 6 2.1 12.14
1/5/2023 5:00:00 AM 4.74 40.532 0.019 6 2.04 12.15
1/5/2023 5:15:00 AM 4.71 40.478 0.019 5.99 2.04 12.17
1/5/2023 5:30:00 AM 4.67 40.406 0.019 6 2.07 12.18
1/5/2023 5:45:00 AM 4.63 40.334 0.02 6 2.06 12.19
1/5/2023 6:00:00 AM 4.6 40.28 0.019 6 2.11 12.2
1/5/2023 6:15:00 AM 4.56 40.208 0.019 5.99 2.06 12.22
1/5/2023 6:30:00 AM 4.52 40.136 0.019 5.99 2.01 12.23
1/5/2023 6:45:00 AM 4.48 40.064 0.019 6 2.02 12.25
1/5/2023 7:00:00 AM 4.44 39.992 0.019 6 2.03 12.26
1/5/2023 7:15:00 AM 4.39 39.902 0.019 6 2.03 12.27
1/5/2023 7:30:00 AM 4.35 39.83 0.019 6 2.04 12.28
1/5/2023 7:45:00 AM 4.3 39.74 0.019 6 2.03 12.3
1/5/2023 8:00:00 AM 4.26 39.668 0.019 5.99 2.17 12.32
1/5/2023 8:15:00 AM 4.22 39.596 0.019 6 2 12.34
1/5/2023 8:30:00 AM 4.19 39.542 0.019 6 2.01 12.37
1/5/2023 8:45:00 AM 4.17 39.506 0.019 6 2.1 12.41
1/5/2023 9:00:00 AM 4.17 39.506 0.019 6 2.08 12.43
1/5/2023 9:15:00 AM 4.18 39.524 0.019 6.01 2.01 12.45
1/5/2023 9:30:00 AM 4.19 39.542 0.02 6.01 2.02 12.47
1/5/2023 9:45:00 AM 4.2 39.56 0.019 6.01 2.04 12.49
1/5/2023 10:00:00 AM 4.23 39.614 0.019 6.02 1.97 12.49
1/5/2023 10:15:00 AM 4.26 39.668 0.019 6.03 1.94 12.48
1/5/2023 10:30:00 AM 4.3 39.74 0.019 6.03 2.17 12.48
1/5/2023 10:45:00 AM 4.34 39.812 0.019 6.03 1.95 12.48
1/5/2023 11:00:00 AM 4.38 39.884 0.02 6.04 1.92 12.47
1/5/2023 11:15:00 AM 4.43 39.974 0.019 6.04 2.02 12.47
1/5/2023 11:30:00 AM 4.48 40.064 0.019 6.04 1.95 12.46
1/5/2023 11:45:00 AM 4.54 40.172 0.019 6.04 1.9 12.45
1/5/2023 12:00:00 PM 4.59 40.262 0.019 6.05 1.93 12.44
1/5/2023 12:15:00 PM 4.65 40.37 0.019 6.06 1.88 12.43
1/5/2023 12:30:00 PM 4.69 40.442 0.019 6.05 1.91 12.42
1/5/2023 12:45:00 PM 4.71 40.478 0.019 6.06 1.85 12.41
1/5/2023 1:00:00 PM 4.73 40.514 0.019 6.05 1.87 12.4
1/5/2023 1:15:00 PM 4.75 40.55 0.019 6.06 1.92 12.39
1/5/2023 1:30:00 PM 4.77 40.586 0.02 6.06 1.88 12.38
1/5/2023 1:45:00 PM 4.77 40.586 0.019 6.06 1.85 12.37
1/5/2023 2:00:00 PM 4.77 40.586 0.02 6.06 1.88 12.36
1/5/2023 2:15:00 PM 4.78 40.604 0.019 6.07 1.91 12.34
1/5/2023 2:30:00 PM 4.78 40.604 0.019 6.06 1.87 12.34
1/5/2023 2:45:00 PM 4.76 40.568 0.019 6.06 1.78 12.34
1/5/2023 3:00:00 PM 4.76 40.568 0.02 6.06 1.87 12.33
1/5/2023 3:15:00 PM 4.79 40.622 0.019 6.07 1.9 12.33
1/5/2023 3:30:00 PM 4.81 40.658 0.019 6.07 1.8 12.32
1/5/2023 3:45:00 PM 4.81 40.658 0.019 6.07 1.92 12.29
1/5/2023 4:00:00 PM 4.8 40.64 0.019 6.07 1.98 12.28
1/5/2023 4:15:00 PM 4.78 40.604 0.019 6.07 1.88 12.26
1/5/2023 4:30:00 PM 4.77 40.586 0.019 6.07 1.91 12.24
1/5/2023 4:45:00 PM 4.76 40.568 0.02 6.06 1.79 12.23
1/5/2023 5:00:00 PM 4.75 40.55 0.02 6.06 1.79 12.21
1/5/2023 5:15:00 PM 4.74 40.532 0.02 6.06 1.85 12.19
1/5/2023 5:30:00 PM 4.74 40.532 0.02 6.05 1.87 12.19
1/5/2023 5:45:00 PM 4.73 40.514 0.02 6.05 1.86 12.18
1/5/2023 6:00:00 PM 4.71 40.478 0.019 6.05 1.89 12.18
1/5/2023 6:15:00 PM 4.69 40.442 0.02 6.05 1.85 12.17
1/5/2023 6:30:00 PM 4.67 40.406 0.02 6.04 1.93 12.18
1/5/2023 6:45:00 PM 4.64 40.352 0.02 6.04 1.87 12.18
1/5/2023 7:00:00 PM 4.6 40.28 0.02 6.04 1.94 12.19
1/5/2023 7:15:00 PM 4.58 40.244 0.02 6.04 1.86 12.2
1/5/2023 7:30:00 PM 4.57 40.226 0.02 6.04 1.86 12.2
1/5/2023 7:45:00 PM 4.55 40.19 0.019 6.03 1.91 12.21
1/5/2023 8:00:00 PM 4.53 40.154 0.02 6.04 1.78 12.22
1/5/2023 8:15:00 PM 4.52 40.136 0.02 6.04 1.94 12.23
1/5/2023 8:30:00 PM 4.5 40.1 0.02 6.04 1.88 12.24
1/5/2023 8:45:00 PM 4.48 40.064 0.02 6.04 1.94 12.24
1/5/2023 9:00:00 PM 4.47 40.046 0.019 6.05 1.88 12.25
1/5/2023 9:15:00 PM 4.45 40.01 0.02 6.04 1.86 12.26
1/5/2023 9:30:00 PM 4.43 39.974 0.019 6.04 1.93 12.27
1/5/2023 9:45:00 PM 4.41 39.938 0.02 6.03 1.88 12.28
1/5/2023 10:00:00 PM 4.39 39.902 0.02 6.05 1.88 12.28
1/5/2023 10:15:00 PM 4.37 39.866 0.02 6.04 1.87 12.29
1/5/2023 10:30:00 PM 4.34 39.812 0.02 6.05 1.82 12.3
1/5/2023 10:45:00 PM 4.31 39.758 0.02 6.04 1.94 12.3
1/5/2023 11:00:00 PM 4.28 39.704 0.02 6.04 1.85 12.31
1/5/2023 11:15:00 PM 4.25 39.65 0.02 6.04 1.82 12.32
1/5/2023 11:30:00 PM 4.23 39.614 0.02 6.04 1.89 12.33
1/5/2023 11:45:00 PM 4.21 39.578 0.02 6.04 1.87 12.34
1/6/2023 12:00:00 AM 4.19 39.542 0.02 6.05 1.84 12.35
1/6/2023 12:15:00 AM 4.17 39.506 0.02 6.04 1.89 12.35
1/6/2023 12:30:00 AM 4.14 39.452 0.02 6.04 1.86 12.36
1/6/2023 12:45:00 AM 4.13 39.434 0.02 6.04 1.89 12.37
1/6/2023 1:00:00 AM 4.11 39.398 0.02 6.05 1.97 12.37
1/6/2023 1:15:00 AM 4.09 39.362 0.02 6.04 1.93 12.38
1/6/2023 1:30:00 AM 4.06 39.308 0.02 6.05 1.96 12.38
1/6/2023 1:45:00 AM 4.02 39.236 0.02 6.04 1.99 12.39
1/6/2023 2:00:00 AM 3.99 39.182 0.02 6.05 1.81 12.39
1/6/2023 2:15:00 AM 3.97 39.146 0.02 6.05 1.82 12.39
1/6/2023 2:30:00 AM 3.94 39.092 0.02 6.04 1.9 12.41
1/6/2023 2:45:00 AM 3.93 39.074 0.021 6.04 1.95 12.42
1/6/2023 3:00:00 AM 3.91 39.038 0.02 6.05 1.96 12.42
1/6/2023 3:15:00 AM 3.89 39.002 0.02 6.05 1.93 12.43
1/6/2023 3:30:00 AM 3.88 38.984 0.021 6.05 1.97 12.43
1/6/2023 3:45:00 AM 3.86 38.948 0.021 6.05 2.02 12.44
1/6/2023 4:00:00 AM 3.85 38.93 0.02 6.05 1.89 12.44
1/6/2023 4:15:00 AM 3.83 38.894 0.02 6.05 2.03 12.45
1/6/2023 4:30:00 AM 3.82 38.876 0.021 6.05 1.87 12.45
1/6/2023 4:45:00 AM 3.8 38.84 0.02 6.05 1.91 12.46
1/6/2023 5:00:00 AM 3.79 38.822 0.02 6.04 1.96 12.46
1/6/2023 5:15:00 AM 3.77 38.786 0.021 6.04 2 12.46
1/6/2023 5:30:00 AM 3.76 38.768 0.02 6.05 1.94 12.47
1/6/2023 5:45:00 AM 3.74 38.732 0.02 6.05 2.01 12.47
1/6/2023 6:00:00 AM 3.73 38.714 0.02 6.05 2.03 12.48
1/6/2023 6:15:00 AM 3.72 38.696 0.02 6.05 2.03 12.48
1/6/2023 6:30:00 AM 3.71 38.678 0.02 6.05 1.97 12.48
1/6/2023 6:45:00 AM 3.69 38.642 0.02 6.05 1.96 12.49
1/6/2023 7:00:00 AM 3.68 38.624 0.02 6.05 1.97 12.5
1/6/2023 7:15:00 AM 3.67 38.606 0.02 6.05 2.05 12.5
1/6/2023 7:30:00 AM 3.67 38.606 0.021 6.05 2.12 12.5
1/6/2023 7:45:00 AM 3.65 38.57 0.021 6.05 1.89 12.51
1/6/2023 8:00:00 AM 3.64 38.552 0.02 6.06 1.89 12.52
1/6/2023 8:15:00 AM 3.63 38.534 0.02 6.06 1.91 12.53
1/6/2023 8:30:00 AM 3.63 38.534 0.02 6.06 1.86 12.55
1/6/2023 8:45:00 AM 3.62 38.516 0.02 6.07 1.96 12.57
1/6/2023 9:00:00 AM 3.62 38.516 0.02 6.07 1.87 12.59
1/6/2023 9:15:00 AM 3.61 38.498 0.02 6.07 2.15 12.61
1/6/2023 9:30:00 AM 3.62 38.516 0.02 6.07 1.81 12.62
1/6/2023 9:45:00 AM 3.61 38.498 0.02 6.08 1.84 12.63
1/6/2023 10:00:00 AM 3.61 38.498 0.02 6.08 1.81 12.64
1/6/2023 10:15:00 AM 3.64 38.552 0.02 6.09 1.76 12.65
1/6/2023 10:30:00 AM 3.67 38.606 0.021 6.08 1.81 12.67
1/6/2023 10:45:00 AM 3.72 38.696 0.021 6.08 1.81 12.68
1/6/2023 11:00:00 AM 3.76 38.768 0.021 6.09 1.75 12.68
1/6/2023 11:15:00 AM 3.78 38.804 0.021 6.1 1.72 12.68
1/6/2023 11:30:00 AM 3.79 38.822 0.021 6.1 1.87 12.67
1/6/2023 11:45:00 AM 3.8 38.84 0.021 6.1 1.77 12.66
1/6/2023 12:00:00 PM 3.82 38.876 0.021 6.11 1.72 12.66
1/6/2023 12:15:00 PM 3.84 38.912 0.021 6.11 1.76 12.65
1/6/2023 12:30:00 PM 3.87 38.966 0.021 6.13 1.83 12.65
1/6/2023 12:45:00 PM 3.9 39.02 0.021 6.11 1.78 12.65
1/6/2023 1:00:00 PM 3.92 39.056 0.021 6.12 1.7 12.64
1/6/2023 1:15:00 PM 3.93 39.074 0.021 6.12 1.75 12.64
1/6/2023 1:30:00 PM 3.95 39.11 0.021 6.13 1.7 12.63
1/6/2023 1:45:00 PM 3.97 39.146 0.021 6.13 1.78 12.63
1/6/2023 2:00:00 PM 3.96 39.128 0.02 6.12 1.78 12.62
1/6/2023 2:15:00 PM 3.95 39.11 0.021 6.13 1.71 12.62
1/6/2023 2:30:00 PM 3.95 39.11 0.021 6.13 1.74 12.61
1/6/2023 2:45:00 PM 3.92 39.056 0.02 6.14 1.69 12.61
1/6/2023 3:00:00 PM 3.89 39.002 0.02 6.12 1.68 12.6
1/6/2023 3:15:00 PM 3.88 38.984 0.02 6.12 1.77 12.6
1/6/2023 3:30:00 PM 3.87 38.966 0.02 6.11 1.76 12.62
1/6/2023 3:45:00 PM 3.86 38.948 0.02 6.13 1.71 12.61
1/6/2023 4:00:00 PM 3.85 38.93 0.02 6.13 1.67 12.61
1/6/2023 4:15:00 PM 3.84 38.912 0.02 6.13 1.55 12.59
1/6/2023 4:30:00 PM 3.81 38.858 0.02 6.11 1.72 12.58
1/6/2023 4:45:00 PM 3.79 38.822 0.021 6.11 1.75 12.57
1/6/2023 5:00:00 PM 3.77 38.786 0.021 6.11 1.72 12.57
1/6/2023 5:15:00 PM 3.75 38.75 0.022 6.11 1.71 12.57
1/6/2023 5:30:00 PM 3.72 38.696 0.022 6.11 1.77 12.56
1/6/2023 5:45:00 PM 3.7 38.66 0.021 6.11 1.7 12.56
1/6/2023 6:00:00 PM 3.68 38.624 0.021 6.11 1.69 12.57
1/6/2023 6:15:00 PM 3.66 38.588 0.021 6.11 1.78 12.57
1/6/2023 6:30:00 PM 3.64 38.552 0.021 6.1 1.68 12.57
1/6/2023 6:45:00 PM 3.62 38.516 0.021 6.1 1.73 12.58
1/6/2023 7:00:00 PM 3.59 38.462 0.02 6.1 1.8 12.58
1/6/2023 7:15:00 PM 3.57 38.426 0.021 6.09 1.67 12.59
1/6/2023 7:30:00 PM 3.56 38.408 0.021 6.09 1.68 12.6
1/6/2023 7:45:00 PM 3.54 38.372 0.02 6.1 1.75 12.6
1/6/2023 8:00:00 PM 3.52 38.336 0.021 6.1 1.67 12.61
1/6/2023 8:15:00 PM 3.5 38.3 0.02 6.11 1.73 12.62
1/6/2023 8:30:00 PM 3.49 38.282 0.021 6.11 1.66 12.63
1/6/2023 8:45:00 PM 3.47 38.246 0.021 6.1 1.77 12.64
1/6/2023 9:00:00 PM 3.46 38.228 0.02 6.1 1.82 12.64
1/6/2023 9:15:00 PM 3.44 38.192 0.021 6.11 1.88 12.65
1/6/2023 9:30:00 PM 3.43 38.174 0.021 6.1 1.81 12.65
1/6/2023 9:45:00 PM 3.41 38.138 0.021 6.1 1.81 12.65
1/6/2023 10:00:00 PM 3.39 38.102 0.021 6.1 1.8 12.66
1/6/2023 10:15:00 PM 3.38 38.084 0.021 6.09 1.84 12.67
1/6/2023 10:30:00 PM 3.36 38.048 0.021 6.1 1.79 12.67
1/6/2023 10:45:00 PM 3.34 38.012 0.021 6.09 1.85 12.68
1/6/2023 11:00:00 PM 3.32 37.976 0.021 6.1 1.81 12.69
1/6/2023 11:15:00 PM 3.3 37.94 0.021 6.1 1.78 12.69
1/6/2023 11:30:00 PM 3.29 37.922 0.021 6.1 1.99 12.7
1/6/2023 11:45:00 PM 3.28 37.904 0.021 6.11 1.81 12.7
1/7/2023 12:00:00 AM 3.26 37.868 0.021 6.11 1.81 12.71
1/7/2023 12:15:00 AM 3.24 37.832 0.021 6.1 1.86 12.72
1/7/2023 12:30:00 AM 3.23 37.814 0.021 6.1 1.83 12.71
1/7/2023 12:45:00 AM 3.22 37.796 0.021 6.1 1.97 12.72
1/7/2023 1:00:00 AM 3.2 37.76 0.021 6.1 1.95 12.73
1/7/2023 1:15:00 AM 3.19 37.742 0.021 6.1 1.9 12.73
1/7/2023 1:30:00 AM 3.18 37.724 0.021 6.09 1.86 12.73
1/7/2023 1:45:00 AM 3.17 37.706 0.021 6.09 1.89 12.74
1/7/2023 2:00:00 AM 3.15 37.67 0.021 6.1 1.97 12.74
1/7/2023 2:15:00 AM 3.14 37.652 0.021 6.09 1.98 12.74
1/7/2023 2:30:00 AM 3.13 37.634 0.021 6.1 1.92 12.75
1/7/2023 2:45:00 AM 3.11 37.598 0.021 6.1 1.95 12.75
1/7/2023 3:00:00 AM 3.1 37.58 0.021 6.11 1.99 12.76
1/7/2023 3:15:00 AM 3.08 37.544 0.021 6.11 1.97 12.76
1/7/2023 3:30:00 AM 3.07 37.526 0.021 6.11 1.92 12.77
1/7/2023 3:45:00 AM 3.06 37.508 0.021 6.1 2.04 12.77
1/7/2023 4:00:00 AM 3.05 37.49 0.021 6.11 1.81 12.77
1/7/2023 4:15:00 AM 3.03 37.454 0.021 6.1 1.89 12.78
1/7/2023 4:30:00 AM 3.02 37.436 0.021 6.11 1.87 12.79
1/7/2023 4:45:00 AM 3.01 37.418 0.021 6.1 1.87 12.79
1/7/2023 5:00:00 AM 3 37.4 0.021 6.09 1.85 12.79
1/7/2023 5:15:00 AM 3 37.4 0.021 6.09 1.8 12.79
1/7/2023 5:30:00 AM 2.99 37.382 0.021 6.11 1.88 12.79
1/7/2023 5:45:00 AM 2.98 37.364 0.021 6.1 1.86 12.8
1/7/2023 6:00:00 AM 2.97 37.346 0.021 6.11 1.89 12.81
1/7/2023 6:15:00 AM 2.96 37.328 0.021 6.1 1.75 12.82
1/7/2023 6:30:00 AM 2.95 37.31 0.021 6.1 1.78 12.82
1/7/2023 6:45:00 AM 2.94 37.292 0.021 6.1 1.88 12.81
1/7/2023 7:00:00 AM 2.93 37.274 0.021 6.1 2.05 12.82
1/7/2023 7:15:00 AM 2.91 37.238 0.021 6.1 1.83 12.83
1/7/2023 7:30:00 AM 2.9 37.22 0.021 6.1 1.83 12.83
1/7/2023 7:45:00 AM 2.9 37.22 0.021 6.1 1.73 12.84
1/7/2023 8:00:00 AM 2.89 37.202 0.022 6.11 1.71 12.84
1/7/2023 8:15:00 AM 2.89 37.202 0.021 6.1 1.74 12.85
1/7/2023 8:30:00 AM 2.88 37.184 0.021 6.11 1.78 12.86
1/7/2023 8:45:00 AM 2.88 37.184 0.021 6.11 1.74 12.88
1/7/2023 9:00:00 AM 2.89 37.202 0.021 6.11 1.7 12.9
1/7/2023 9:15:00 AM 2.9 37.22 0.021 6.12 1.71 12.93
1/7/2023 9:30:00 AM 2.92 37.256 0.021 6.12 1.72 12.94
1/7/2023 9:45:00 AM 2.94 37.292 0.021 6.13 1.7 12.95
1/7/2023 10:00:00 AM 2.95 37.31 0.021 6.13 1.69 12.96
1/7/2023 10:15:00 AM 2.96 37.328 0.021 6.14 1.67 12.97
1/7/2023 10:30:00 AM 2.96 37.328 0.021 6.13 1.7 12.97
1/7/2023 10:45:00 AM 2.98 37.364 0.021 6.14 1.67 12.97
1/7/2023 11:00:00 AM 2.99 37.382 0.021 6.14 1.72 12.97
1/7/2023 11:15:00 AM 3 37.4 0.021 6.15 1.75 12.97
1/7/2023 11:30:00 AM 3 37.4 0.021 6.14 1.68 12.97
1/7/2023 11:45:00 AM 3.02 37.436 0.021 6.15 1.63 12.97
1/7/2023 12:00:00 PM 3.02 37.436 0.021 6.15 1.69 12.97
1/7/2023 12:15:00 PM 3.02 37.436 0.022 6.15 1.81 12.96
1/7/2023 12:30:00 PM 3.03 37.454 0.021 6.14 1.72 12.96
1/7/2023 12:45:00 PM 3.05 37.49 0.021 6.15 1.6 12.97
1/7/2023 1:00:00 PM 3.06 37.508 0.021 6.16 1.71 12.97
1/7/2023 1:15:00 PM 3.08 37.544 0.021 6.16 1.68 12.97
1/7/2023 1:30:00 PM 3.1 37.58 0.021 6.15 1.73 12.97
1/7/2023 1:45:00 PM 3.13 37.634 0.021 6.16 1.68 12.97
1/7/2023 2:00:00 PM 3.16 37.688 0.021 6.16 1.62 12.97
1/7/2023 2:15:00 PM 3.17 37.706 0.021 6.16 1.63 12.96
1/7/2023 2:30:00 PM 3.17 37.706 0.021 6.17 1.7 12.95
1/7/2023 2:45:00 PM 3.16 37.688 0.021 6.16 1.57 12.94
1/7/2023 3:00:00 PM 3.13 37.634 0.021 6.17 1.6 12.93
1/7/2023 3:15:00 PM 3.11 37.598 0.021 6.16 1.69 12.91
1/7/2023 3:30:00 PM 3.1 37.58 0.021 6.17 1.66 12.91
1/7/2023 3:45:00 PM 3.1 37.58 0.021 6.16 1.64 12.92
1/7/2023 4:00:00 PM 3.11 37.598 0.021 6.17 1.56 12.93
1/7/2023 4:15:00 PM 3.12 37.616 0.021 6.16 1.64 12.92
1/7/2023 4:30:00 PM 3.12 37.616 0.021 6.16 1.68 12.92
1/7/2023 4:45:00 PM 3.11 37.598 0.021 6.16 1.62 12.9
1/7/2023 5:00:00 PM 3.1 37.58 0.021 6.16 1.68 12.88
1/7/2023 5:15:00 PM 3.08 37.544 0.021 6.15 1.66 12.86
1/7/2023 5:30:00 PM 3.07 37.526 0.021 6.15 1.72 12.85
1/7/2023 5:45:00 PM 3.07 37.526 0.021 6.14 1.74 12.84
1/7/2023 6:00:00 PM 3.05 37.49 0.022 6.14 1.63 12.84
1/7/2023 6:15:00 PM 3.03 37.454 0.021 6.13 1.66 12.84
1/7/2023 6:30:00 PM 3.02 37.436 0.022 6.14 1.65 12.83
1/7/2023 6:45:00 PM 3 37.4 0.021 6.14 1.67 12.84
1/7/2023 7:00:00 PM 2.98 37.364 0.021 6.14 1.74 12.85
1/7/2023 7:15:00 PM 2.96 37.328 0.021 6.14 1.63 12.85
1/7/2023 7:30:00 PM 2.94 37.292 0.021 6.13 1.73 12.86
1/7/2023 7:45:00 PM 2.92 37.256 0.021 6.14 1.66 12.87
1/7/2023 8:00:00 PM 2.92 37.256 0.021 6.14 1.73 12.87
1/7/2023 8:15:00 PM 2.92 37.256 0.021 6.14 1.73 12.87
1/7/2023 8:30:00 PM 2.91 37.238 0.021 6.14 1.69 12.87
1/7/2023 8:45:00 PM 2.91 37.238 0.021 6.15 1.62 12.88
1/7/2023 9:00:00 PM 2.9 37.22 0.022 6.14 1.71 12.88
1/7/2023 9:15:00 PM 2.89 37.202 0.021 6.14 1.62 12.88
1/7/2023 9:30:00 PM 2.88 37.184 0.021 6.14 1.5 12.89
1/7/2023 9:45:00 PM 2.87 37.166 0.021 6.15 1.66 12.89
1/7/2023 10:00:00 PM 2.86 37.148 0.022 6.14 1.77 12.9
1/7/2023 10:15:00 PM 2.84 37.112 0.021 6.15 1.79 12.91
1/7/2023 10:30:00 PM 2.83 37.094 0.022 6.14 1.7 12.9
1/7/2023 10:45:00 PM 2.82 37.076 0.021 6.14 1.6 12.91
1/7/2023 11:00:00 PM 2.8 37.04 0.021 6.14 1.79 12.91
1/7/2023 11:15:00 PM 2.79 37.022 0.022 6.13 1.65 12.92
1/7/2023 11:30:00 PM 2.76 36.968 0.021 6.13 1.64 12.92
1/7/2023 11:45:00 PM 2.74 36.932 0.022 6.14 1.81 12.93
1/8/2023 12:00:00 AM 2.72 36.896 0.021 6.14 1.61 12.94
1/8/2023 12:15:00 AM 2.71 36.878 0.021 6.14 1.7 12.94
1/8/2023 12:30:00 AM 2.69 36.842 0.021 6.14 1.7 12.95
1/8/2023 12:45:00 AM 2.67 36.806 0.022 6.14 1.73 12.96
1/8/2023 1:00:00 AM 2.65 36.77 0.021 6.14 1.78 12.97
1/8/2023 1:15:00 AM 2.63 36.734 0.022 6.15 1.77 12.97
1/8/2023 1:30:00 AM 2.6 36.68 0.022 6.15 1.95 12.98
1/8/2023 1:45:00 AM 2.58 36.644 0.022 6.14 1.82 12.99
1/8/2023 2:00:00 AM 2.56 36.608 0.022 6.14 1.82 13
1/8/2023 2:15:00 AM 2.54 36.572 0.022 6.15 1.7 13.01
1/8/2023 2:30:00 AM 2.52 36.536 0.022 6.14 1.85 13.01
1/8/2023 2:45:00 AM 2.5 36.5 0.021 6.14 1.67 13.02
1/8/2023 3:00:00 AM 2.48 36.464 0.022 6.14 1.78 13.03
1/8/2023 3:15:00 AM 2.45 36.41 0.022 6.15 1.77 13.04
1/8/2023 3:30:00 AM 2.44 36.392 0.022 6.14 1.72 13.04
1/8/2023 3:45:00 AM 2.42 36.356 0.022 6.14 1.81 13.06
1/8/2023 4:00:00 AM 2.4 36.32 0.022 6.14 1.77 13.05
1/8/2023 4:15:00 AM 2.38 36.284 0.022 6.14 1.62 13.07
1/8/2023 4:30:00 AM 2.36 36.248 0.022 6.14 1.75 13.07
1/8/2023 4:45:00 AM 2.34 36.212 0.022 6.14 1.68 13.08
1/8/2023 5:00:00 AM 2.33 36.194 0.022 6.14 1.68 13.09
1/8/2023 5:15:00 AM 2.31 36.158 0.022 6.14 1.73 13.1
1/8/2023 5:30:00 AM 2.29 36.122 0.022 6.14 1.65 13.1
1/8/2023 5:45:00 AM 2.26 36.068 0.022 6.14 1.68 13.11
1/8/2023 6:00:00 AM 2.24 36.032 0.022 6.14 1.7 13.12
1/8/2023 6:15:00 AM 2.22 35.996 0.022 6.14 1.71 13.12
1/8/2023 6:30:00 AM 2.19 35.942 0.022 6.14 1.81 13.13
1/8/2023 6:45:00 AM 2.18 35.924 0.022 6.14 1.71 13.14
1/8/2023 7:00:00 AM 2.16 35.888 0.022 6.13 1.67 13.14
1/8/2023 7:15:00 AM 2.14 35.852 0.022 6.14 1.63 13.16
1/8/2023 7:30:00 AM 2.12 35.816 0.022 6.14 1.65 13.17
1/8/2023 7:45:00 AM 2.11 35.798 0.022 6.14 1.57 13.17
1/8/2023 8:00:00 AM 2.09 35.762 0.022 6.14 1.61 13.2
1/8/2023 8:15:00 AM 2.07 35.726 0.022 6.15 1.54 13.21
1/8/2023 8:30:00 AM 2.06 35.708 0.022 6.14 1.62 13.23
1/8/2023 8:45:00 AM 2.06 35.708 0.022 6.15 1.6 13.27
1/8/2023 9:00:00 AM 2.06 35.708 0.022 6.16 1.56 13.29
1/8/2023 9:15:00 AM 2.07 35.726 0.022 6.16 1.52 13.31
1/8/2023 9:30:00 AM 2.07 35.726 0.022 6.16 1.54 13.33
1/8/2023 9:45:00 AM 2.1 35.78 0.022 6.17 1.61 13.34
1/8/2023 10:00:00 AM 2.11 35.798 0.022 6.17 1.53 13.34
1/8/2023 10:15:00 AM 2.11 35.798 0.022 6.17 1.55 13.35
1/8/2023 10:30:00 AM 2.11 35.798 0.022 6.17 1.54 13.36
1/8/2023 10:45:00 AM 2.15 35.87 0.022 6.17 1.63 13.35
1/8/2023 11:00:00 AM 2.21 35.978 0.022 6.17 1.53 13.34
1/8/2023 11:15:00 AM 2.28 36.104 0.022 6.17 1.6 13.33
1/8/2023 11:30:00 AM 2.34 36.212 0.022 6.18 1.52 13.31
1/8/2023 11:45:00 AM 2.39 36.302 0.022 6.18 1.55 13.3
1/8/2023 12:00:00 PM 2.45 36.41 0.022 6.18 1.52 13.28
1/8/2023 12:15:00 PM 2.5 36.5 0.022 6.19 1.6 13.28
1/8/2023 12:30:00 PM 2.55 36.59 0.022 6.2 1.63 13.26
1/8/2023 12:45:00 PM 2.59 36.662 0.022 6.19 1.93 13.25
1/8/2023 1:00:00 PM 2.64 36.752 0.022 6.19 1.56 13.23
1/8/2023 1:15:00 PM 2.67 36.806 0.022 6.2 1.5 13.21
1/8/2023 1:30:00 PM 2.69 36.842 0.022 6.2 1.61 13.2
1/8/2023 1:45:00 PM 2.7 36.86 0.022 6.2 1.57 13.19
1/8/2023 2:00:00 PM 2.7 36.86 0.022 6.21 1.61 13.19
1/8/2023 2:15:00 PM 2.7 36.86 0.022 6.2 1.58 13.17
1/8/2023 2:30:00 PM 2.67 36.806 0.022 6.21 1.9 13.18
1/8/2023 2:45:00 PM 2.64 36.752 0.022 6.21 1.59 13.17
1/8/2023 3:00:00 PM 2.6 36.68 0.022 6.21 1.51 13.17
1/8/2023 3:15:00 PM 2.54 36.572 0.022 6.21 1.51 13.18
1/8/2023 3:30:00 PM 2.48 36.464 0.022 6.21 1.64 13.18
1/8/2023 3:45:00 PM 2.44 36.392 0.022 6.2 1.83 13.17
1/8/2023 4:00:00 PM 2.4 36.32 0.022 6.2 1.57 13.17
1/8/2023 4:15:00 PM 2.36 36.248 0.022 6.2 1.56 13.17
1/8/2023 4:30:00 PM 2.32 36.176 0.022 6.2 1.78 13.16
1/8/2023 4:45:00 PM 2.29 36.122 0.022 6.19 1.47 13.15
1/8/2023 5:00:00 PM 2.26 36.068 0.022 6.19 1.53 13.14
1/8/2023 5:15:00 PM 2.23 36.014 0.022 6.19 1.54 13.13
1/8/2023 5:30:00 PM 2.19 35.942 0.022 6.19 1.56 13.13
1/8/2023 5:45:00 PM 2.16 35.888 0.022 6.19 1.66 13.12
1/8/2023 6:00:00 PM 2.14 35.852 0.022 6.19 1.47 13.11
1/8/2023 6:15:00 PM 2.14 35.852 0.022 6.18 1.52 13.11
1/8/2023 6:30:00 PM 2.13 35.834 0.022 6.19 1.52 13.11
1/8/2023 6:45:00 PM 2.12 35.816 0.022 6.18 1.52 13.1
1/8/2023 7:00:00 PM 2.09 35.762 0.022 6.18 1.63 13.11
1/8/2023 7:15:00 PM 2.06 35.708 0.022 6.17 1.6 13.11
1/8/2023 7:30:00 PM 2.04 35.672 0.022 6.18 1.5 13.11
1/8/2023 7:45:00 PM 2.01 35.618 0.022 6.18 1.5 13.11
1/8/2023 8:00:00 PM 1.99 35.582 0.022 6.18 1.6 13.12
1/8/2023 8:15:00 PM 1.97 35.546 0.022 6.17 1.52 13.12
1/8/2023 8:30:00 PM 1.95 35.51 0.022 6.18 1.5 13.13
1/8/2023 8:45:00 PM 1.93 35.474 0.022 6.18 1.49 13.13
1/8/2023 9:00:00 PM 1.91 35.438 0.022 6.18 1.55 13.13
1/8/2023 9:15:00 PM 1.91 35.438 0.022 6.17 1.6 13.14
1/8/2023 9:30:00 PM 1.9 35.42 0.022 6.17 1.56 13.13
1/8/2023 9:45:00 PM 1.9 35.42 0.022 6.17 1.51 13.15
1/8/2023 10:00:00 PM 1.9 35.42 0.022 6.18 1.74 13.15
1/8/2023 10:15:00 PM 1.9 35.42 0.022 6.17 1.86 13.14
1/8/2023 10:30:00 PM 1.88 35.384 0.022 6.18 1.68 13.14
1/8/2023 10:45:00 PM 1.87 35.366 0.022 6.17 1.54 13.14
1/8/2023 11:00:00 PM 1.85 35.33 0.022 6.18 1.57 13.14
1/8/2023 11:15:00 PM 1.83 35.294 0.022 6.17 1.59 13.15
1/8/2023 11:30:00 PM 1.82 35.276 0.022 6.17 1.61 13.16
1/8/2023 11:45:00 PM 1.82 35.276 0.022 6.16 1.53 13.16
1/9/2023 12:00:00 AM 1.82 35.276 0.022 6.17 1.62 13.16
1/9/2023 12:15:00 AM 1.82 35.276 0.022 6.17 1.62 13.16
1/9/2023 12:30:00 AM 1.83 35.294 0.022 6.17 1.48 13.16
1/9/2023 12:45:00 AM 1.83 35.294 0.022 6.17 1.53 13.15
1/9/2023 1:00:00 AM 1.83 35.294 0.022 6.18 1.65 13.17
1/9/2023 1:15:00 AM 1.84 35.312 0.022 6.17 1.51 13.16
1/9/2023 1:30:00 AM 1.84 35.312 0.022 6.18 1.54 13.15
1/9/2023 1:45:00 AM 1.84 35.312 0.022 6.17 1.53 13.16
1/9/2023 2:00:00 AM 1.83 35.294 0.022 6.18 1.61 13.16
1/9/2023 2:15:00 AM 1.83 35.294 0.022 6.18 1.7 13.16
1/9/2023 2:30:00 AM 1.84 35.312 0.023 6.18 1.62 13.16
1/9/2023 2:45:00 AM 1.84 35.312 0.022 6.18 1.58 13.16
1/9/2023 3:00:00 AM 1.84 35.312 0.022 6.17 1.53 13.15
1/9/2023 3:15:00 AM 1.83 35.294 0.023 6.18 1.5 13.16
1/9/2023 3:30:00 AM 1.82 35.276 0.022 6.18 1.62 13.16
1/9/2023 3:45:00 AM 1.82 35.276 0.023 6.18 1.52 13.16
1/9/2023 4:00:00 AM 1.82 35.276 0.023 6.18 1.54 13.16
1/9/2023 4:15:00 AM 1.82 35.276 0.023 6.18 1.56 13.16
1/9/2023 4:30:00 AM 1.81 35.258 0.022 6.18 1.64 13.15
1/9/2023 4:45:00 AM 1.79 35.222 0.023 6.18 1.52 13.16
1/9/2023 5:00:00 AM 1.77 35.186 0.023 6.18 1.52 13.16
1/9/2023 5:15:00 AM 1.73 35.114 0.023 6.18 1.53 13.16
1/9/2023 5:30:00 AM 1.69 35.042 0.022 6.18 1.55 13.17
1/9/2023 5:45:00 AM 1.65 34.97 0.022 6.18 1.47 13.18
1/9/2023 6:00:00 AM 1.61 34.898 0.022 6.17 1.46 13.19
1/9/2023 6:15:00 AM 1.57 34.826 0.022 6.17 1.53 13.2
1/9/2023 6:30:00 AM 1.53 34.754 0.022 6.18 1.6 13.22
1/9/2023 6:45:00 AM 1.49 34.682 0.023 6.17 1.62 13.23
1/9/2023 7:00:00 AM 1.45 34.61 0.022 6.17 1.58 13.25
1/9/2023 7:15:00 AM 1.42 34.556 0.023 6.17 1.53 13.26
1/9/2023 7:30:00 AM 1.38 34.484 0.023 6.16 1.47 13.27
1/9/2023 7:45:00 AM 1.37 34.466 0.023 6.17 1.53 13.28
1/9/2023 8:00:00 AM 1.37 34.466 0.023 6.17 1.52 13.29
1/9/2023 8:15:00 AM 1.37 34.466 0.023 6.17 1.44 13.31
1/9/2023 8:30:00 AM 1.38 34.484 0.023 6.17 1.41 13.33
1/9/2023 8:45:00 AM 1.39 34.502 0.022 6.17 1.57 13.36
1/9/2023 9:00:00 AM 1.41 34.538 0.023 6.16 1.44 13.38
1/9/2023 9:15:00 AM 1.42 34.556 0.023 6.18 1.45 13.4
1/9/2023 9:30:00 AM 1.46 34.628 0.023 6.18 1.5 13.41
1/9/2023 9:45:00 AM 1.49 34.682 0.023 6.19 1.53 13.43
1/9/2023 10:00:00 AM 1.52 34.736 0.023 6.2 1.54 13.43
1/9/2023 10:15:00 AM 1.55 34.79 0.023 6.2 1.49 13.43
1/9/2023 10:30:00 AM 1.59 34.862 0.023 6.2 1.54 13.44
1/9/2023 10:45:00 AM 1.65 34.97 0.022 6.21 1.48 13.44
1/9/2023 11:00:00 AM 1.72 35.096 0.023 6.21 1.44 13.43
1/9/2023 11:15:00 AM 1.76 35.168 0.023 6.22 1.46 13.42
1/9/2023 11:30:00 AM 1.8 35.24 0.023 6.22 1.57 13.4
1/9/2023 11:45:00 AM 1.85 35.33 0.023 6.22 1.49 13.39
1/9/2023 12:00:00 PM 1.92 35.456 0.023 6.23 1.51 13.37
1/9/2023 12:15:00 PM 2.01 35.618 0.023 6.23 1.43 13.35
1/9/2023 12:30:00 PM 2.1 35.78 0.023 6.23 1.47 13.32
1/9/2023 12:45:00 PM 2.17 35.906 0.023 6.23 1.41 13.29
1/9/2023 1:00:00 PM 2.21 35.978 0.023 6.23 1.46 13.28
1/9/2023 1:15:00 PM 2.26 36.068 0.022 6.24 1.45 13.27
1/9/2023 1:30:00 PM 2.3 36.14 0.023 6.23 1.52 13.24
1/9/2023 1:45:00 PM 2.32 36.176 0.023 6.23 1.39 13.23
1/9/2023 2:00:00 PM 2.34 36.212 0.023 6.24 1.55 13.21
1/9/2023 2:15:00 PM 2.34 36.212 0.023 6.24 1.37 13.2
1/9/2023 2:30:00 PM 2.33 36.194 0.022 6.25 1.59 13.2
1/9/2023 2:45:00 PM 2.32 36.176 0.022 6.24 1.41 13.19
1/9/2023 3:00:00 PM 2.3 36.14 0.023 6.24 1.51 13.19
1/9/2023 3:15:00 PM 2.27 36.086 0.023 6.23 1.43 13.18
1/9/2023 3:30:00 PM 2.21 35.978 0.023 6.24 1.47 13.19
1/9/2023 3:45:00 PM 2.16 35.888 0.023 6.24 1.43 13.19
1/9/2023 4:00:00 PM 2.1 35.78 0.023 6.25 1.43 13.2
1/9/2023 4:15:00 PM 2.06 35.708 0.023 6.23 1.47 13.19
1/9/2023 4:30:00 PM 2.01 35.618 0.022 6.24 1.46 13.2
1/9/2023 4:45:00 PM 1.97 35.546 0.023 6.24 1.47 13.19
1/9/2023 5:00:00 PM 1.94 35.492 0.023 6.24 1.55 13.18
1/9/2023 5:15:00 PM 1.9 35.42 0.023 6.23 1.49 13.18
1/9/2023 5:30:00 PM 1.87 35.366 0.023 6.23 1.5 13.16
1/9/2023 5:45:00 PM 1.85 35.33 0.023 6.22 1.55 13.15
1/9/2023 6:00:00 PM 1.8 35.24 0.023 6.23 1.47 13.16
1/9/2023 6:15:00 PM 1.78 35.204 0.025 6.22 1.47 13.15
1/9/2023 6:30:00 PM 1.74 35.132 0.025 6.22 1.54 13.16
1/9/2023 6:45:00 PM 1.71 35.078 0.025 6.21 1.55 13.17
1/9/2023 7:00:00 PM 1.68 35.024 0.024 6.22 1.49 13.17
1/9/2023 7:15:00 PM 1.66 34.988 0.023 6.22 1.47 13.18
1/9/2023 7:30:00 PM 1.64 34.952 0.024 6.21 1.49 13.17
1/9/2023 7:45:00 PM 1.61 34.898 0.023 6.22 1.53 13.19
1/9/2023 8:00:00 PM 1.59 34.862 0.024 6.21 1.48 13.19
1/9/2023 8:15:00 PM 1.57 34.826 0.023 6.22 1.47 13.2
1/9/2023 8:30:00 PM 1.55 34.79 0.023 6.21 1.55 13.2
1/9/2023 8:45:00 PM 1.54 34.772 0.023 6.21 1.45 13.21
1/9/2023 9:00:00 PM 1.52 34.736 0.023 6.21 1.44 13.21
1/9/2023 9:15:00 PM 1.51 34.718 0.023 6.2 1.48 13.22
1/9/2023 9:30:00 PM 1.5 34.7 0.024 6.2 1.46 13.21
1/9/2023 9:45:00 PM 1.48 34.664 0.023 6.21 1.49 13.23
1/9/2023 10:00:00 PM 1.49 34.682 0.024 6.2 1.44 13.22
1/9/2023 10:15:00 PM 1.5 34.7 0.023 6.21 1.48 13.23
1/9/2023 10:30:00 PM 1.52 34.736 0.024 6.2 1.46 13.22
1/9/2023 10:45:00 PM 1.53 34.754 0.023 6.2 1.45 13.22
1/9/2023 11:00:00 PM 1.55 34.79 0.023 6.2 1.47 13.23
1/9/2023 11:15:00 PM 1.56 34.808 0.023 6.21 1.43 13.22
1/9/2023 11:30:00 PM 1.58 34.844 0.024 6.2 1.49 13.21
1/9/2023 11:45:00 PM 1.58 34.844 0.023 6.2 1.45 13.22
1/10/2023 12:00:00 AM 1.59 34.862 0.023 6.21 1.48 13.23
1/10/2023 12:15:00 AM 1.61 34.898 0.023 6.21 1.4 13.22
1/10/2023 12:30:00 AM 1.61 34.898 0.023 6.21 1.46 13.21
1/10/2023 12:45:00 AM 1.62 34.916 0.023 6.21 1.57 13.21
1/10/2023 1:00:00 AM 1.63 34.934 0.023 6.21 1.48 13.21
1/10/2023 1:15:00 AM 1.63 34.934 0.023 6.21 1.48 13.21
1/10/2023 1:30:00 AM 1.64 34.952 0.023 6.22 1.5 13.21
1/10/2023 1:45:00 AM 1.65 34.97 0.023 6.21 1.74 13.2
1/10/2023 2:00:00 AM 1.66 34.988 0.024 6.21 1.54 13.2
1/10/2023 2:15:00 AM 1.66 34.988 0.023 6.21 1.74 13.2
1/10/2023 2:30:00 AM 1.65 34.97 0.023 6.21 1.57 13.2
1/10/2023 2:45:00 AM 1.66 34.988 0.023 6.21 1.58 13.2
1/10/2023 3:00:00 AM 1.65 34.97 0.023 6.21 1.55 13.2
1/10/2023 3:15:00 AM 1.65 34.97 0.023 6.21 1.57 13.2
1/10/2023 3:30:00 AM 1.64 34.952 0.023 6.21 1.64 13.21
1/10/2023 3:45:00 AM 1.65 34.97 0.023 6.21 1.49 13.22
1/10/2023 4:00:00 AM 1.65 34.97 0.023 6.22 1.47 13.21
1/10/2023 4:15:00 AM 1.65 34.97 0.023 6.21 1.56 13.21
1/10/2023 4:30:00 AM 1.65 34.97 0.024 6.22 1.58 13.21
1/10/2023 4:45:00 AM 1.65 34.97 0.023 6.21 1.48 13.21
1/10/2023 5:00:00 AM 1.65 34.97 0.023 6.22 1.46 13.22
1/10/2023 5:15:00 AM 1.65 34.97 0.023 6.22 1.55 13.22
1/10/2023 5:30:00 AM 1.65 34.97 0.024 6.21 1.5 13.22
1/10/2023 5:45:00 AM 1.65 34.97 0.024 6.2 1.49 13.22
1/10/2023 6:00:00 AM 1.64 34.952 0.023 6.21 1.47 13.23
1/10/2023 6:15:00 AM 1.65 34.97 0.023 6.21 1.53 13.22
1/10/2023 6:30:00 AM 1.65 34.97 0.023 6.21 1.42 13.23
1/10/2023 6:45:00 AM 1.64 34.952 0.023 6.22 1.48 13.23
1/10/2023 7:00:00 AM 1.64 34.952 0.023 6.22 1.5 13.23
1/10/2023 7:15:00 AM 1.65 34.97 0.023 6.21 1.55 13.23
1/10/2023 7:30:00 AM 1.64 34.952 0.023 6.22 1.8 13.24
1/10/2023 7:45:00 AM 1.65 34.97 0.023 6.22 2.27 13.23
1/10/2023 8:00:00 AM 1.65 34.97 0.024 6.22 1.59 13.24
1/10/2023 8:15:00 AM 1.65 34.97 0.024 6.22 1.48 13.24
1/10/2023 8:30:00 AM 1.65 34.97 0.023 6.22 1.44 13.25
1/10/2023 8:45:00 AM 1.66 34.988 0.023 6.22 1.43 13.27
1/10/2023 9:00:00 AM 1.67 35.006 0.023 6.23 1.49 13.28
1/10/2023 9:15:00 AM 1.68 35.024 0.023 6.23 1.43 13.3
1/10/2023 9:30:00 AM 1.7 35.06 0.024 6.23 1.42 13.31
1/10/2023 9:45:00 AM 1.71 35.078 0.023 6.23 1.41 13.33
1/10/2023 10:00:00 AM 1.74 35.132 0.024 6.23 1.44 13.34
1/10/2023 10:15:00 AM 1.75 35.15 0.024 6.24 1.43 13.35
1/10/2023 10:30:00 AM 1.78 35.204 0.023 6.25 1.45 13.36
1/10/2023 10:45:00 AM 1.8 35.24 0.023 6.25 1.46 13.36
1/10/2023 11:00:00 AM 1.83 35.294 0.024 6.25 1.43 13.37
1/10/2023 11:15:00 AM 1.87 35.366 0.023 6.25 1.4 13.37
1/10/2023 11:30:00 AM 1.89 35.402 0.023 6.25 1.49 13.36
1/10/2023 11:45:00 AM 1.92 35.456 0.024 6.26 1.47 13.36
1/10/2023 12:00:00 PM 1.94 35.492 0.024 6.26 1.43 13.35
1/10/2023 12:15:00 PM 1.96 35.528 0.024 6.26 1.44 13.35
1/10/2023 12:30:00 PM 1.98 35.564 0.024 6.27 1.41 13.34
1/10/2023 12:45:00 PM 2.01 35.618 0.023 6.26 1.48 13.33
1/10/2023 1:00:00 PM 2.04 35.672 0.023 6.26 1.48 13.32
1/10/2023 1:15:00 PM 2.05 35.69 0.023 6.27 1.37 13.31
1/10/2023 1:30:00 PM 2.07 35.726 0.024 6.27 1.44 13.31
1/10/2023 1:45:00 PM 2.1 35.78 0.023 6.27 1.37 13.3
1/10/2023 2:00:00 PM 2.13 35.834 0.023 6.27 1.43 13.3
1/10/2023 2:15:00 PM 2.16 35.888 0.024 6.27 1.5 13.29
1/10/2023 2:30:00 PM 2.18 35.924 0.024 6.27 1.44 13.27
1/10/2023 2:45:00 PM 2.2 35.96 0.024 6.27 1.45 13.26
1/10/2023 3:00:00 PM 2.22 35.996 0.023 6.27 1.43 13.25
1/10/2023 3:15:00 PM 2.22 35.996 0.024 6.26 1.43 13.23
1/10/2023 3:30:00 PM 2.21 35.978 0.023 6.26 1.4 13.23
1/10/2023 3:45:00 PM 2.21 35.978 0.023 6.27 1.46 13.21
1/10/2023 4:00:00 PM 2.21 35.978 0.024 6.27 1.46 13.19
1/10/2023 4:15:00 PM 2.2 35.96 0.023 6.27 1.52 13.17
1/10/2023 4:30:00 PM 2.19 35.942 0.023 6.27 1.45 13.16
1/10/2023 4:45:00 PM 2.19 35.942 0.024 6.26 1.57 13.14
1/10/2023 5:00:00 PM 2.17 35.906 0.023 6.26 1.4 13.13
1/10/2023 5:15:00 PM 2.16 35.888 0.024 6.26 1.53 13.11
1/10/2023 5:30:00 PM 2.15 35.87 0.024 6.25 1.5 13.1
1/10/2023 5:45:00 PM 2.14 35.852 0.023 6.25 1.5 13.09
1/10/2023 6:00:00 PM 2.14 35.852 0.024 6.25 1.49 13.09
1/10/2023 6:15:00 PM 2.13 35.834 0.024 6.24 1.7 13.09
1/10/2023 6:30:00 PM 2.13 35.834 0.024 6.24 1.93 13.08
1/10/2023 6:45:00 PM 2.12 35.816 0.024 6.25 1.52 13.08
1/10/2023 7:00:00 PM 2.11 35.798 0.024 6.23 1.61 13.08
1/10/2023 7:15:00 PM 2.11 35.798 0.024 6.23 1.56 13.08
1/10/2023 7:30:00 PM 2.1 35.78 0.024 6.23 1.65 13.08
1/10/2023 7:45:00 PM 2.09 35.762 0.024 6.24 1.52 13.09
1/10/2023 8:00:00 PM 2.09 35.762 0.024 6.24 1.58 13.09
1/10/2023 8:15:00 PM 2.09 35.762 0.024 6.24 1.47 13.09
1/10/2023 8:30:00 PM 2.09 35.762 0.024 6.24 1.58 13.09
1/10/2023 8:45:00 PM 2.08 35.744 0.024 6.25 1.48 13.1
1/10/2023 9:00:00 PM 2.08 35.744 0.024 6.24 1.53 13.09
1/10/2023 9:15:00 PM 2.07 35.726 0.024 6.24 1.43 13.09
1/10/2023 9:30:00 PM 2.07 35.726 0.024 6.24 1.56 13.1
1/10/2023 9:45:00 PM 2.06 35.708 0.024 6.24 1.54 13.09
1/10/2023 10:00:00 PM 2.06 35.708 0.024 6.23 1.48 13.09
1/10/2023 10:15:00 PM 2.06 35.708 0.024 6.25 1.49 13.1
1/10/2023 10:30:00 PM 2.06 35.708 0.024 6.24 1.6 13.1
1/10/2023 10:45:00 PM 2.05 35.69 0.024 6.24 1.48 13.11
1/10/2023 11:00:00 PM 2.04 35.672 0.024 6.24 1.54 13.11
1/10/2023 11:15:00 PM 2.04 35.672 0.024 6.23 1.5 13.11
1/10/2023 11:30:00 PM 2.03 35.654 0.024 6.24 1.51 13.12
1/10/2023 11:45:00 PM 2.03 35.654 0.024 6.23 1.43 13.12
1/11/2023 12:00:00 AM 2.02 35.636 0.024 6.24 1.49 13.12
1/11/2023 12:15:00 AM 2.01 35.618 0.023 6.24 1.53 13.11
1/11/2023 12:30:00 AM 2.01 35.618 0.024 6.24 1.45 13.12
1/11/2023 12:45:00 AM 2 35.6 0.024 6.24 1.7 13.12
1/11/2023 1:00:00 AM 2 35.6 0.024 6.25 1.5 13.12
1/11/2023 1:15:00 AM 2 35.6 0.024 6.24 1.62 13.12
1/11/2023 1:30:00 AM 1.99 35.582 0.336 6.21 1.55 13.11
1/11/2023 1:45:00 AM 1.98 35.564 0.22 6.23 1.51 13.13
1/11/2023 2:00:00 AM 1.98 35.564 0.156 6.25 1.53 13.12
1/11/2023 2:15:00 AM 1.98 35.564 0.099 6.26 1.56 13.13
1/11/2023 2:30:00 AM 1.97 35.546 0.071 6.28 1.57 13.13
1/11/2023 2:45:00 AM 1.97 35.546 0.079 6.27 1.56 13.13
1/11/2023 3:00:00 AM 1.96 35.528 0.06 6.28 1.53 13.13
1/11/2023 3:15:00 AM 1.95 35.51 0.029 6.29 1.56 13.15
1/11/2023 3:30:00 AM 1.95 35.51 0.024 6.28 1.57 13.16
1/11/2023 3:45:00 AM 1.95 35.51 0.024 6.28 1.52 13.14
1/11/2023 4:00:00 AM 1.94 35.492 0.024 6.28 1.48 13.16
1/11/2023 4:15:00 AM 1.93 35.474 0.024 6.28 1.44 13.16
1/11/2023 4:30:00 AM 1.92 35.456 0.024 6.29 1.5 13.16
1/11/2023 4:45:00 AM 1.91 35.438 0.024 6.28 1.49 13.17
1/11/2023 5:00:00 AM 1.91 35.438 0.024 6.26 1.61 13.16
1/11/2023 5:15:00 AM 1.87 35.366 0.024 6.27 1.52 13.17
1/11/2023 5:30:00 AM 1.84 35.312 0.024 6.27 1.61 13.17
1/11/2023 5:45:00 AM 1.8 35.24 0.024 6.28 1.74 13.18
1/11/2023 6:00:00 AM 1.76 35.168 0.025 6.26 2.01 13.19
1/11/2023 6:15:00 AM 1.71 35.078 0.024 6.25 1.76 13.21
1/11/2023 6:30:00 AM 1.66 34.988 0.024 6.25 1.59 13.22
1/11/2023 6:45:00 AM 1.63 34.934 0.024 6.26 1.56 13.23
1/11/2023 7:00:00 AM 1.58 34.844 0.024 6.26 1.65 13.26
1/11/2023 7:15:00 AM 1.54 34.772 0.024 6.27 1.51 13.27
1/11/2023 7:30:00 AM 1.51 34.718 0.024 6.27 1.53 13.28
1/11/2023 7:45:00 AM 1.45 34.61 0.024 6.28 1.48 13.31
1/11/2023 8:00:00 AM 1.42 34.556 0.024 6.25 1.49 13.33
1/11/2023 8:15:00 AM 1.4 34.52 0.025 6.27 1.46 13.37
1/11/2023 8:30:00 AM 1.37 34.466 0.024 6.27 1.5 13.41
1/11/2023 8:45:00 AM 1.36 34.448 0.024 6.27 1.54 13.45
1/11/2023 9:00:00 AM 1.36 34.448 0.024 6.28 1.45 13.47
1/11/2023 9:15:00 AM 1.39 34.502 0.025 6.27 1.51 13.5
1/11/2023 9:30:00 AM 1.41 34.538 0.024 6.29 1.56 13.52
1/11/2023 9:45:00 AM 1.45 34.61 0.024 6.28 1.48 13.54
1/11/2023 10:00:00 AM 1.5 34.7 0.024 6.29 1.54 13.54
1/11/2023 10:15:00 AM 1.56 34.808 0.024 6.29 1.52 13.54
1/11/2023 10:30:00 AM 1.62 34.916 0.024 6.28 1.52 13.54
1/11/2023 10:45:00 AM 1.69 35.042 0.024 6.3 1.48 13.53
1/11/2023 11:00:00 AM 1.76 35.168 0.024 6.3 1.5 13.52
1/11/2023 11:15:00 AM 1.83 35.294 0.024 6.3 1.47 13.51
1/11/2023 11:30:00 AM 1.91 35.438 0.024 6.3 1.48 13.49
1/11/2023 11:45:00 AM 2 35.6 0.025 6.3 1.44 13.47
1/11/2023 12:00:00 PM 2.07 35.726 0.024 6.3 1.49 13.45
1/11/2023 12:15:00 PM 2.15 35.87 0.024 6.31 1.52 13.43
1/11/2023 12:30:00 PM 2.21 35.978 0.024 6.31 1.46 13.4
1/11/2023 12:45:00 PM 2.28 36.104 0.024 6.3 1.47 13.37
1/11/2023 1:00:00 PM 2.33 36.194 0.024 6.31 1.42 13.36
1/11/2023 1:15:00 PM 2.39 36.302 0.024 6.32 1.48 13.34
1/11/2023 1:30:00 PM 2.43 36.374 0.024 6.32 1.5 13.32
1/11/2023 1:45:00 PM 2.48 36.464 0.024 6.31 1.43 13.29
1/11/2023 2:00:00 PM 2.51 36.518 0.024 6.31 1.51 13.27
1/11/2023 2:15:00 PM 2.54 36.572 0.024 6.33 1.42 13.26
1/11/2023 2:30:00 PM 2.57 36.626 0.024 6.31 1.47 13.24
1/11/2023 2:45:00 PM 2.58 36.644 0.024 6.32 1.41 13.24
1/11/2023 3:00:00 PM 2.6 36.68 0.024 6.33 1.43 13.22
1/11/2023 3:15:00 PM 2.6 36.68 0.024 6.33 1.73 13.21
1/11/2023 3:30:00 PM 2.59 36.662 0.024 6.32 1.47 13.2
1/11/2023 3:45:00 PM 2.57 36.626 0.024 6.33 1.5 13.19
1/11/2023 4:00:00 PM 2.57 36.626 0.024 6.31 1.56 13.18
1/11/2023 4:15:00 PM 2.54 36.572 0.024 6.32 1.4 13.17
1/11/2023 4:30:00 PM 2.51 36.518 0.024 6.32 1.48 13.15
1/11/2023 4:45:00 PM 2.47 36.446 0.024 6.33 1.67 13.14
1/11/2023 5:00:00 PM 2.44 36.392 0.024 6.31 1.42 13.12
1/11/2023 5:15:00 PM 2.4 36.32 0.024 6.31 1.49 13.1
1/11/2023 5:30:00 PM 2.37 36.266 0.024 6.32 1.62 13.09
1/11/2023 5:45:00 PM 2.35 36.23 0.024 6.3 1.75 13.07
1/11/2023 6:00:00 PM 2.32 36.176 0.024 6.3 1.43 13.05
1/11/2023 6:15:00 PM 2.28 36.104 0.024 6.3 2.72 13.07
1/11/2023 6:30:00 PM 2.26 36.068 0.024 6.29 2.97 13.06
1/11/2023 6:45:00 PM 2.23 36.014 0.024 6.29 2.08 13.06
1/11/2023 7:00:00 PM 2.19 35.942 0.024 6.3 1.69 13.06
1/11/2023 7:15:00 PM 2.14 35.852 0.024 6.29 1.53 13.08
1/11/2023 7:30:00 PM 2.11 35.798 0.025 6.29 1.69 13.08
1/11/2023 7:45:00 PM 2.06 35.708 0.024 6.29 1.65 13.1
1/11/2023 8:00:00 PM 2.04 35.672 0.025 6.27 1.5 13.1
1/11/2023 8:15:00 PM 2.02 35.636 0.025 6.28 1.78 13.1
1/11/2023 8:30:00 PM 1.99 35.582 0.024 6.28 1.78 13.12
1/11/2023 8:45:00 PM 1.97 35.546 0.025 6.27 1.61 13.12
1/11/2023 9:00:00 PM 1.96 35.528 0.025 6.28 1.51 13.13
1/11/2023 9:15:00 PM 1.95 35.51 0.025 6.27 1.43 13.13
1/11/2023 9:30:00 PM 1.95 35.51 0.024 6.28 1.42 13.14
1/11/2023 9:45:00 PM 1.95 35.51 0.025 6.27 1.49 13.13
1/11/2023 10:00:00 PM 1.96 35.528 0.025 6.27 1.44 13.14
1/11/2023 10:15:00 PM 1.97 35.546 0.025 6.27 1.54 13.14
1/11/2023 10:30:00 PM 1.97 35.546 0.025 6.27 1.43 13.14
1/11/2023 10:45:00 PM 1.96 35.528 0.024 6.27 1.56 13.15
1/11/2023 11:00:00 PM 1.97 35.546 0.025 6.27 1.72 13.15
1/11/2023 11:15:00 PM 1.98 35.564 0.025 6.27 1.51 13.14
1/11/2023 11:30:00 PM 1.97 35.546 0.024 6.27 1.43 13.14
1/11/2023 11:45:00 PM 1.98 35.564 0.025 6.28 1.58 13.14
1/12/2023 12:00:00 AM 1.99 35.582 0.024 6.28 1.41 13.13
1/12/2023 12:15:00 AM 2 35.6 0.024 6.27 1.54 13.13
1/12/2023 12:30:00 AM 2 35.6 0.025 6.27 1.43 13.13
1/12/2023 12:45:00 AM 2 35.6 0.024 6.27 1.49 13.14
1/12/2023 1:00:00 AM 2 35.6 0.025 6.28 1.51 13.12
1/12/2023 1:15:00 AM 2.01 35.618 0.025 6.28 1.61 13.13
1/12/2023 1:30:00 AM 2 35.6 0.024 6.27 1.48 13.12
1/12/2023 1:45:00 AM 2.01 35.618 0.024 6.28 1.45 13.12
1/12/2023 2:00:00 AM 2.01 35.618 0.024 6.28 1.49 13.12
1/12/2023 2:15:00 AM 2.02 35.636 0.025 6.28 1.47 13.11
1/12/2023 2:30:00 AM 2.02 35.636 0.025 6.28 1.43 13.1
1/12/2023 2:45:00 AM 2.01 35.618 0.024 6.27 1.57 13.11
1/12/2023 3:00:00 AM 2.01 35.618 0.025 6.28 1.46 13.11
1/12/2023 3:15:00 AM 2.01 35.618 0.024 6.27 1.52 13.11
1/12/2023 3:30:00 AM 2 35.6 0.025 6.27 1.51 13.12
1/12/2023 3:45:00 AM 2 35.6 0.024 6.28 1.42 13.12
1/12/2023 4:00:00 AM 2 35.6 0.025 6.27 1.49 13.11
1/12/2023 4:15:00 AM 1.99 35.582 0.024 6.28 1.49 13.11
1/12/2023 4:30:00 AM 1.99 35.582 0.025 6.26 1.59 13.11
1/12/2023 4:45:00 AM 1.98 35.564 0.025 6.27 1.43 13.11
1/12/2023 5:00:00 AM 1.97 35.546 0.024 6.26 1.57 13.11
1/12/2023 5:15:00 AM 1.96 35.528 0.025 6.26 1.74 13.12
1/12/2023 5:30:00 AM 1.96 35.528 0.024 6.27 1.69 13.12
1/12/2023 5:45:00 AM 1.96 35.528 0.024 6.26 1.69 13.12
1/12/2023 6:00:00 AM 1.94 35.492 0.024 6.27 1.63 13.12
1/12/2023 6:15:00 AM 1.93 35.474 0.025 6.28 1.77 13.12
1/12/2023 6:30:00 AM 1.93 35.474 0.024 6.27 1.64 13.13
1/12/2023 6:45:00 AM 1.94 35.492 0.025 6.27 1.51 13.12
1/12/2023 7:00:00 AM 1.93 35.474 0.024 6.28 1.56 13.13
1/12/2023 7:15:00 AM 1.94 35.492 0.024 6.28 1.51 13.13
1/12/2023 7:30:00 AM 1.94 35.492 0.024 6.28 1.5 13.14
1/12/2023 7:45:00 AM 1.95 35.51 0.025 6.28 1.42 13.13
1/12/2023 8:00:00 AM 1.95 35.51 0.024 6.29 1.54 13.14
1/12/2023 8:15:00 AM 1.96 35.528 0.025 6.28 1.45 13.14
1/12/2023 8:30:00 AM 1.97 35.546 0.024 6.29 1.52 13.15
1/12/2023 8:45:00 AM 1.98 35.564 0.025 6.29 1.5 13.16
1/12/2023 9:00:00 AM 2 35.6 0.024 6.28 1.52 13.16
1/12/2023 9:15:00 AM 2.01 35.618 0.025 6.29 1.55 13.17
1/12/2023 9:30:00 AM 2.04 35.672 0.025 6.29 1.44 13.18
1/12/2023 9:45:00 AM 2.06 35.708 0.025 6.29 1.45 13.2
1/12/2023 10:00:00 AM 2.09 35.762 0.025 6.3 1.43 13.21
1/12/2023 10:15:00 AM 2.11 35.798 0.024 6.3 1.51 13.22
1/12/2023 10:30:00 AM 2.14 35.852 0.025 6.3 1.5 13.21
1/12/2023 10:45:00 AM 2.15 35.87 0.024 6.3 1.53 13.21
1/12/2023 11:00:00 AM 2.18 35.924 0.025 6.31 1.44 13.21
1/12/2023 11:15:00 AM 2.21 35.978 0.025 6.3 1.46 13.2
1/12/2023 11:30:00 AM 2.24 36.032 0.025 6.31 1.41 13.2
1/12/2023 11:45:00 AM 2.27 36.086 0.025 6.31 1.5 13.2
1/12/2023 12:00:00 PM 2.31 36.158 0.024 6.31 1.55 13.2
1/12/2023 12:15:00 PM 2.35 36.23 0.025 6.32 1.5 13.18
1/12/2023 12:30:00 PM 2.4 36.32 0.024 6.32 1.51 13.18
1/12/2023 12:45:00 PM 2.44 36.392 0.025 6.32 1.45 13.17
1/12/2023 1:00:00 PM 2.48 36.464 0.025 6.33 1.45 13.16
1/12/2023 1:15:00 PM 2.51 36.518 0.024 6.32 1.39 13.14
1/12/2023 1:30:00 PM 2.54 36.572 0.025 6.33 1.51 13.12
1/12/2023 1:45:00 PM 2.57 36.626 0.024 6.33 1.49 13.11
1/12/2023 2:00:00 PM 2.59 36.662 0.024 6.33 1.52 13.09
1/12/2023 2:15:00 PM 2.62 36.716 0.025 6.32 1.41 13.08
1/12/2023 2:30:00 PM 2.65 36.77 0.025 6.32 1.52 13.06
1/12/2023 2:45:00 PM 2.68 36.824 0.025 6.33 1.75 13.04
1/12/2023 3:00:00 PM 2.7 36.86 0.024 6.33 1.47 13.03
1/12/2023 3:15:00 PM 2.72 36.896 0.024 6.33 1.43 13.01
1/12/2023 3:30:00 PM 2.74 36.932 0.024 6.33 1.59 12.99
1/12/2023 3:45:00 PM 2.75 36.95 0.024 6.32 1.44 12.95
1/12/2023 4:00:00 PM 2.76 36.968 0.024 6.33 1.49 12.93
1/12/2023 4:15:00 PM 2.78 37.004 0.024 6.32 1.65 12.91
1/12/2023 4:30:00 PM 2.79 37.022 0.026 6.32 3.05 12.88
1/12/2023 4:45:00 PM 2.82 37.076 0.029 6.34 5.9 12.84
1/12/2023 5:00:00 PM 2.83 37.094 0.028 6.34 3.81 12.81
1/12/2023 5:15:00 PM 2.84 37.112 0.027 6.33 2.44 12.79
1/12/2023 5:30:00 PM 2.85 37.13 0.026 6.32 2.55 12.78
1/12/2023 5:45:00 PM 2.87 37.166 0.025 6.32 2.28 12.76
1/12/2023 6:00:00 PM 2.89 37.202 0.025 6.31 2.88 12.75
1/12/2023 6:15:00 PM 2.91 37.238 0.026 6.32 3.11 12.73
1/12/2023 6:30:00 PM 2.94 37.292 0.027 6.32 2.79 12.71
1/12/2023 6:45:00 PM 2.96 37.328 0.027 6.32 2.72 12.7
1/12/2023 7:00:00 PM 2.99 37.382 0.027 6.32 2.8 12.68
1/12/2023 7:15:00 PM 3.01 37.418 0.027 6.32 3.22 12.67
1/12/2023 7:30:00 PM 3.03 37.454 0.027 6.32 3.35 12.66
1/12/2023 7:45:00 PM 3.05 37.49 0.026 6.33 3.22 12.66
1/12/2023 8:00:00 PM 3.08 37.544 0.026 6.32 2.87 12.64
1/12/2023 8:15:00 PM 3.1 37.58 0.026 6.32 2.49 12.63
1/12/2023 8:30:00 PM 3.12 37.616 0.026 6.32 2.62 12.63
1/12/2023 8:45:00 PM 3.15 37.67 0.026 6.34 2.23 12.62
1/12/2023 9:00:00 PM 3.17 37.706 0.026 6.33 2.31 12.6
1/12/2023 9:15:00 PM 3.19 37.742 0.026 6.34 2.49 12.6
1/12/2023 9:30:00 PM 3.21 37.778 0.025 6.34 2.48 12.59
1/12/2023 9:45:00 PM 3.23 37.814 0.026 6.34 2.44 12.58
1/12/2023 10:00:00 PM 3.25 37.85 0.026 6.33 2.33 12.57
1/12/2023 10:15:00 PM 3.27 37.886 0.026 6.34 2.62 12.56
1/12/2023 10:30:00 PM 3.3 37.94 0.025 6.34 2.76 12.55
1/12/2023 10:45:00 PM 3.32 37.976 0.026 6.33 3.11 12.53
1/12/2023 11:00:00 PM 3.35 38.03 0.026 6.33 2.72 12.53
1/12/2023 11:15:00 PM 3.37 38.066 0.025 6.33 2.74 12.52
1/12/2023 11:30:00 PM 3.39 38.102 0.025 6.34 2.74 12.5
1/12/2023 11:45:00 PM 3.41 38.138 0.025 6.34 2.51 12.5
1/13/2023 12:00:00 AM 3.43 38.174 0.025 6.32 2.62 12.49
1/13/2023 12:15:00 AM 3.45 38.21 0.025 6.33 2.67 12.48
1/13/2023 12:30:00 AM 3.46 38.228 0.025 6.33 2.88 12.47
1/13/2023 12:45:00 AM 3.47 38.246 0.025 6.34 2.88 12.46
1/13/2023 1:00:00 AM 3.48 38.264 0.025 6.33 2.78 12.45
1/13/2023 1:15:00 AM 3.49 38.282 0.025 6.33 2.89 12.45
1/13/2023 1:30:00 AM 3.51 38.318 0.025 6.33 2.66 12.44
1/13/2023 1:45:00 AM 3.52 38.336 0.025 6.33 3.02 12.44
1/13/2023 2:00:00 AM 3.53 38.354 0.025 6.33 2.92 12.43
1/13/2023 2:15:00 AM 3.54 38.372 0.025 6.33 2.87 12.42
1/13/2023 2:30:00 AM 3.55 38.39 0.025 6.32 3.04 12.42
1/13/2023 2:45:00 AM 3.56 38.408 0.024 6.32 2.97 12.41
1/13/2023 3:00:00 AM 3.57 38.426 0.025 6.32 2.94 12.4
1/13/2023 3:15:00 AM 3.59 38.462 0.025 6.32 2.84 12.4
1/13/2023 3:30:00 AM 3.61 38.498 0.025 6.32 2.99 12.39
1/13/2023 3:45:00 AM 3.62 38.516 0.024 6.32 2.79 12.39
1/13/2023 4:00:00 AM 3.63 38.534 0.024 6.32 2.83 12.38
1/13/2023 4:15:00 AM 3.64 38.552 0.024 6.32 2.9 12.37
1/13/2023 4:30:00 AM 3.65 38.57 0.024 6.32 3.22 12.37
1/13/2023 4:45:00 AM 3.67 38.606 0.025 6.32 3.15 12.37
1/13/2023 5:00:00 AM 3.68 38.624 0.024 6.32 3.59 12.37
1/13/2023 5:15:00 AM 3.7 38.66 0.025 6.32 3.36 12.36
1/13/2023 5:30:00 AM 3.71 38.678 0.025 6.32 4.4 12.35
1/13/2023 5:45:00 AM 3.72 38.696 0.025 6.32 5.09 12.36
1/13/2023 6:00:00 AM 3.73 38.714 0.025 6.32 5.64 12.35
1/13/2023 6:15:00 AM 3.74 38.732 0.025 6.33 5.76 12.35
1/13/2023 6:30:00 AM 3.75 38.75 0.025 6.33 6.07 12.35
1/13/2023 6:45:00 AM 3.76 38.768 0.025 6.32 5.95 12.35
1/13/2023 7:00:00 AM 3.77 38.786 0.024 6.32 5.82 12.35
1/13/2023 7:15:00 AM 3.77 38.786 0.025 6.32 5.22 12.35
1/13/2023 7:30:00 AM 3.77 38.786 0.024 6.32 5.55 12.35
1/13/2023 7:45:00 AM 3.76 38.768 0.024 6.32 5.31 12.35
1/13/2023 8:00:00 AM 3.75 38.75 0.024 6.32 5.6 12.36
1/13/2023 8:15:00 AM 3.73 38.714 0.024 6.31 5.14 12.37
1/13/2023 8:30:00 AM 3.7 38.66 0.024 6.31 5.05 12.38
1/13/2023 8:45:00 AM 3.66 38.588 0.024 6.3 4.3 12.4
1/13/2023 9:00:00 AM 3.61 38.498 0.024 6.31 4.14 12.41
1/13/2023 9:15:00 AM 3.55 38.39 0.024 6.31 3.94 12.44
1/13/2023 9:30:00 AM 3.51 38.318 0.024 6.31 4.37 12.47
1/13/2023 9:45:00 AM 3.5 38.3 0.024 6.3 3.97 12.5
1/13/2023 10:00:00 AM 3.49 38.282 0.023 6.3 3.88 12.54
1/13/2023 10:15:00 AM 3.49 38.282 0.024 6.31 3.85 12.57
1/13/2023 10:30:00 AM 3.47 38.246 0.023 6.3 3.5 12.59
1/13/2023 10:45:00 AM 3.44 38.192 0.023 6.31 3.76 12.6
1/13/2023 11:00:00 AM 3.43 38.174 0.023 6.3 3.79 12.62
1/13/2023 11:15:00 AM 3.42 38.156 0.023 6.29 3.44 12.63
1/13/2023 11:30:00 AM 3.4 38.12 0.023 6.28 3.54 12.65
1/13/2023 11:45:00 AM 3.38 38.084 0.023 6.29 3.26 12.66
1/13/2023 12:00:00 PM 3.37 38.066 0.023 6.29 3.5 12.68
1/13/2023 12:15:00 PM 3.37 38.066 0.023 6.29 3.35 12.68
1/13/2023 12:30:00 PM 3.35 38.03 0.023 6.28 3.25 12.69
1/13/2023 12:45:00 PM 3.33 37.994 0.023 6.28 3.05 12.7
1/13/2023 1:00:00 PM 3.31 37.958 0.023 6.29 3.1 12.71
1/13/2023 1:15:00 PM 3.29 37.922 0.023 6.28 3.02 12.71
1/13/2023 1:30:00 PM 3.26 37.868 0.023 6.28 3 12.72
1/13/2023 1:45:00 PM 3.23 37.814 0.023 6.27 3 12.72
1/13/2023 2:00:00 PM 3.19 37.742 0.023 6.27 3.07 12.73
1/13/2023 2:15:00 PM 3.14 37.652 0.022 6.27 2.93 12.73
1/13/2023 2:30:00 PM 3.11 37.598 0.022 6.27 2.9 12.73
1/13/2023 2:45:00 PM 3.07 37.526 0.022 6.26 2.89 12.73
1/13/2023 3:00:00 PM 3.03 37.454 0.022 6.25 2.61 12.74
1/13/2023 3:15:00 PM 2.99 37.382 0.022 6.25 2.82 12.74
1/13/2023 3:30:00 PM 2.95 37.31 0.022 6.24 2.65 12.75
1/13/2023 3:45:00 PM 2.92 37.256 0.022 6.24 2.85 12.75
1/13/2023 4:00:00 PM 2.89 37.202 0.022 6.23 2.75 12.76
1/13/2023 4:15:00 PM 2.85 37.13 0.022 6.23 2.67 12.77
1/13/2023 4:30:00 PM 2.82 37.076 0.022 6.22 2.7 12.77
1/13/2023 4:45:00 PM 2.78 37.004 0.022 6.22 2.72 12.77
1/13/2023 5:00:00 PM 2.75 36.95 0.022 6.22 2.73 12.78
1/13/2023 5:15:00 PM 2.71 36.878 0.022 6.22 2.65 12.78
1/13/2023 5:30:00 PM 2.68 36.824 0.022 6.2 2.78 12.79
1/13/2023 5:45:00 PM 2.64 36.752 0.022 6.21 2.66 12.81
1/13/2023 6:00:00 PM 2.6 36.68 0.022 6.21 2.5 12.82
1/13/2023 6:15:00 PM 2.56 36.608 0.022 6.21 2.66 12.83
1/13/2023 6:30:00 PM 2.54 36.572 0.022 6.21 2.63 12.84
1/13/2023 6:45:00 PM 2.51 36.518 0.022 6.2 2.55 12.85
1/13/2023 7:00:00 PM 2.48 36.464 0.022 6.2 2.37 12.87
1/13/2023 7:15:00 PM 2.44 36.392 0.022 6.2 2.54 12.87
1/13/2023 7:30:00 PM 2.4 36.32 0.022 6.19 2.5 12.89
1/13/2023 7:45:00 PM 2.35 36.23 0.022 6.2 2.41 12.91
1/13/2023 8:00:00 PM 2.32 36.176 0.021 6.2 2.45 12.92
1/13/2023 8:15:00 PM 2.28 36.104 0.022 6.2 2.48 12.93
1/13/2023 8:30:00 PM 2.25 36.05 0.022 6.19 2.31 12.95
1/13/2023 8:45:00 PM 2.21 35.978 0.022 6.19 2.44 12.96
1/13/2023 9:00:00 PM 2.18 35.924 0.022 6.19 2.32 12.98
1/13/2023 9:15:00 PM 2.15 35.87 0.022 6.18 2.52 12.99
1/13/2023 9:30:00 PM 2.11 35.798 0.022 6.18 2.19 13
1/13/2023 9:45:00 PM 2.08 35.744 0.022 6.19 2.17 13.01
1/13/2023 10:00:00 PM 2.06 35.708 0.021 6.18 2.24 13.02
1/13/2023 10:15:00 PM 2.02 35.636 0.022 6.18 2.28 13.04
1/13/2023 10:30:00 PM 1.99 35.582 0.022 6.18 2.2 13.05
1/13/2023 10:45:00 PM 1.96 35.528 0.021 6.18 2.13 13.06
1/13/2023 11:00:00 PM 1.92 35.456 0.022 6.17 2.21 13.07
1/13/2023 11:15:00 PM 1.9 35.42 0.021 6.17 2.23 13.08
1/13/2023 11:30:00 PM 1.87 35.366 0.021 6.17 2.13 13.09
1/13/2023 11:45:00 PM 1.84 35.312 0.021 6.16 2.03 13.1
1/14/2023 12:00:00 AM 1.81 35.258 0.022 6.16 2.17 13.1
1/14/2023 12:15:00 AM 1.78 35.204 0.021 6.15 2.41 13.12
1/14/2023 12:30:00 AM 1.74 35.132 0.021 6.15 2.17 13.13
1/14/2023 12:45:00 AM 1.71 35.078 0.021 6.16 2.05 13.14
1/14/2023 1:00:00 AM 1.68 35.024 0.021 6.15 2.03 13.15
1/14/2023 1:15:00 AM 1.65 34.97 0.021 6.15 2.17 13.16
1/14/2023 1:30:00 AM 1.61 34.898 0.021 6.15 2.1 13.18
1/14/2023 1:45:00 AM 1.58 34.844 0.021 6.14 2.07 13.19
1/14/2023 2:00:00 AM 1.54 34.772 0.021 6.14 2.08 13.2
1/14/2023 2:15:00 AM 1.51 34.718 0.021 6.14 2.03 13.22
1/14/2023 2:30:00 AM 1.49 34.682 0.021 6.13 1.98 13.23
1/14/2023 2:45:00 AM 1.47 34.646 0.021 6.13 1.96 13.23
1/14/2023 3:00:00 AM 1.44 34.592 0.021 6.13 2.02 13.25
1/14/2023 3:15:00 AM 1.41 34.538 0.021 6.14 2 13.26
1/14/2023 3:30:00 AM 1.39 34.502 0.021 6.12 2.02 13.28
1/14/2023 3:45:00 AM 1.37 34.466 0.022 6.13 2.01 13.28
1/14/2023 4:00:00 AM 1.35 34.43 0.021 6.13 2.12 13.28
1/14/2023 4:15:00 AM 1.32 34.376 0.021 6.13 2.35 13.31
1/14/2023 4:30:00 AM 1.3 34.34 0.021 6.13 2.11 13.31
1/14/2023 4:45:00 AM 1.27 34.286 0.021 6.13 2.07 13.33
1/14/2023 5:00:00 AM 1.24 34.232 0.021 6.13 2 13.33
1/14/2023 5:15:00 AM 1.21 34.178 0.021 6.13 2.07 13.35
1/14/2023 5:30:00 AM 1.18 34.124 0.021 6.12 2.02 13.36
1/14/2023 5:45:00 AM 1.16 34.088 0.021 6.12 2.08 13.37
1/14/2023 6:00:00 AM 1.14 34.052 0.021 6.12 2.02 13.37
1/14/2023 6:15:00 AM 1.1 33.98 0.021 6.12 1.99 13.39
1/14/2023 6:30:00 AM 1.07 33.926 0.021 6.13 2.05 13.4
1/14/2023 6:45:00 AM 1.04 33.872 0.021 6.12 1.99 13.41
1/14/2023 7:00:00 AM 1.01 33.818 0.021 6.12 1.91 13.43
1/14/2023 7:15:00 AM 0.99 33.782 0.021 6.12 2.11 13.44
1/14/2023 7:30:00 AM 0.96 33.728 0.021 6.12 1.97 13.45
1/14/2023 7:45:00 AM 0.93 33.674 0.021 6.13 2.04 13.47
1/14/2023 8:00:00 AM 0.9 33.62 0.021 6.13 2.02 13.48
1/14/2023 8:15:00 AM 0.87 33.566 0.021 6.13 2.05 13.49
1/14/2023 8:30:00 AM 0.84 33.512 0.022 6.13 2.02 13.51
1/14/2023 8:45:00 AM 0.82 33.476 0.021 6.14 2.08 13.53
1/14/2023 9:00:00 AM 0.8 33.44 0.021 6.14 1.94 13.55
1/14/2023 9:15:00 AM 0.78 33.404 0.021 6.14 2.06 13.58
1/14/2023 9:30:00 AM 0.77 33.386 0.021 6.14 2.05 13.6
1/14/2023 9:45:00 AM 0.75 33.35 0.021 6.15 2.15 13.63
1/14/2023 10:00:00 AM 0.74 33.332 0.021 6.14 2.01 13.65
1/14/2023 10:15:00 AM 0.74 33.332 0.021 6.15 1.95 13.67
1/14/2023 10:30:00 AM 0.74 33.332 0.021 6.15 1.91 13.69
1/14/2023 10:45:00 AM 0.75 33.35 0.021 6.15 2.02 13.7
1/14/2023 11:00:00 AM 0.75 33.35 0.021 6.16 1.92 13.72
1/14/2023 11:15:00 AM 0.75 33.35 0.021 6.16 1.97 13.73
1/14/2023 11:30:00 AM 0.75 33.35 0.021 6.16 1.95 13.74
1/14/2023 11:45:00 AM 0.74 33.332 0.021 6.16 1.94 13.74
1/14/2023 12:00:00 PM 0.75 33.35 0.021 6.17 2 13.75
1/14/2023 12:15:00 PM 0.75 33.35 0.021 6.17 1.89 13.76
1/14/2023 12:30:00 PM 0.75 33.35 0.021 6.18 2 13.76
1/14/2023 12:45:00 PM 0.74 33.332 0.021 6.18 1.96 13.76
1/14/2023 1:00:00 PM 0.73 33.314 0.021 6.18 1.97 13.77
1/14/2023 1:15:00 PM 0.72 33.296 0.021 6.19 1.94 13.77
1/14/2023 1:30:00 PM 0.72 33.296 0.021 6.19 1.9 13.78
1/14/2023 1:45:00 PM 0.71 33.278 0.021 6.19 1.83 13.78
1/14/2023 2:00:00 PM 0.72 33.296 0.022 6.19 1.9 13.78
1/14/2023 2:15:00 PM 0.7 33.26 0.021 6.19 1.91 13.78
1/14/2023 2:30:00 PM 0.69 33.242 0.021 6.19 2.01 13.79
1/14/2023 2:45:00 PM 0.69 33.242 0.021 6.19 1.91 13.79
1/14/2023 3:00:00 PM 0.68 33.224 0.021 6.19 1.88 13.8
1/14/2023 3:15:00 PM 0.67 33.206 0.021 6.2 1.98 13.8
1/14/2023 3:30:00 PM 0.65 33.17 0.021 6.19 1.84 13.81
1/14/2023 3:45:00 PM 0.63 33.134 0.021 6.19 1.85 13.8
1/14/2023 4:00:00 PM 0.6 33.08 0.021 6.19 1.97 13.8
1/14/2023 4:15:00 PM 0.56 33.008 0.021 6.19 1.92 13.8
1/14/2023 4:30:00 PM 0.53 32.954 0.021 6.18 1.88 13.79
1/14/2023 4:45:00 PM 0.5 32.9 0.021 6.18 1.89 13.79
1/14/2023 5:00:00 PM 0.46 32.828 0.021 6.17 1.81 13.79
1/14/2023 5:15:00 PM 0.43 32.774 0.021 6.17 1.82 13.79
1/14/2023 5:30:00 PM 0.41 32.738 0.021 6.16 2 13.78
1/14/2023 5:45:00 PM 0.36 32.648 0.021 6.17 1.91 13.78
1/14/2023 6:00:00 PM 0.34 32.612 0.021 6.17 1.87 13.79
1/14/2023 6:15:00 PM 0.31 32.558 0.021 6.17 1.84 13.79
1/14/2023 6:30:00 PM 0.3 32.54 0.021 6.16 1.95 13.8
1/14/2023 6:45:00 PM 0.28 32.504 0.022 6.16 2.06 13.81
1/14/2023 7:00:00 PM 0.25 32.45 0.022 6.15 2.05 13.81
1/14/2023 7:15:00 PM 0.22 32.396 0.022 6.15 2.01 13.83
1/14/2023 7:30:00 PM 0.2 32.36 0.022 6.16 2.15 13.84
1/14/2023 7:45:00 PM 0.16 32.288 0.021 6.15 2.04 13.84
1/14/2023 8:00:00 PM 0.14 32.252 0.021 6.16 1.97 13.86
1/14/2023 8:15:00 PM 0.12 32.216 0.022 6.15 1.93 13.87
1/14/2023 8:30:00 PM 0.1 32.18 0.021 6.15 1.93 13.88
1/14/2023 8:45:00 PM 0.09 32.162 0.022 6.14 1.91 13.88
1/14/2023 9:00:00 PM 0.07 32.126 0.022 6.14 1.83 13.88
1/14/2023 9:15:00 PM 0.05 32.09 0.022 6.15 1.86 13.9
1/14/2023 9:30:00 PM 0.04 32.072 0.021 6.15 1.95 13.9
1/14/2023 9:45:00 PM 0.02 32.036 0.022 6.15 1.84 13.91
1/14/2023 10:00:00 PM 0.01 32.018 0.022 6.15 1.77 13.91
1/14/2023 10:15:00 PM 0 32 0.022 6.14 1.84 13.93
1/14/2023 10:30:00 PM -0.01 31.982 0.022 6.15 1.86 13.92
1/14/2023 10:45:00 PM -0.02 31.964 0.022 6.14 1.91 13.93
1/14/2023 11:00:00 PM -0.02 31.964 0.022 6.15 1.84 13.94
1/14/2023 11:15:00 PM -0.02 31.964 0.022 6.15 1.89 13.95
1/14/2023 11:30:00 PM -0.02 31.964 0.022 6.15 1.8 13.95
1/14/2023 11:45:00 PM -0.01 31.982 0.022 6.15 1.87 13.96
1/15/2023 12:00:00 AM -0.01 31.982 0.022 6.16 1.81 13.96
1/15/2023 12:15:00 AM -0.01 31.982 0.022 6.16 1.9 13.96
1/15/2023 12:30:00 AM -0.01 31.982 0.022 6.17 1.9 13.96
1/15/2023 12:45:00 AM -0.02 31.964 0.022 6.17 1.77 13.96
1/15/2023 1:00:00 AM -0.01 31.982 0.022 6.17 1.81 13.97
1/15/2023 1:15:00 AM -0.01 31.982 0.022 6.16 1.88 13.97
1/15/2023 1:30:00 AM -0.01 31.982 0.022 6.16 1.9 13.97
1/15/2023 1:45:00 AM -0.01 31.982 0.022 6.16 1.9 13.98
1/15/2023 2:00:00 AM -0.01 31.982 0.022 6.17 1.92 13.98
1/15/2023 2:15:00 AM -0.01 31.982 0.022 6.17 1.88 13.99
1/15/2023 2:30:00 AM -0.02 31.964 0.022 6.17 1.86 13.98
1/15/2023 2:45:00 AM -0.02 31.964 0.022 6.17 1.81 13.98
1/15/2023 3:00:00 AM -0.01 31.982 0.022 6.17 1.73 13.98
1/15/2023 3:15:00 AM -0.02 31.964 0.022 6.18 1.83 13.98
1/15/2023 3:30:00 AM -0.01 31.982 0.022 6.17 1.84 13.99
1/15/2023 3:45:00 AM -0.01 31.982 0.022 6.17 1.77 13.99
1/15/2023 4:00:00 AM -0.01 31.982 0.022 6.17 1.72 13.99
1/15/2023 4:15:00 AM -0.01 31.982 0.023 6.17 1.83 14
1/15/2023 4:30:00 AM -0.01 31.982 0.023 6.18 1.83 13.99
1/15/2023 4:45:00 AM -0.01 31.982 0.022 6.18 1.83 13.99
1/15/2023 5:00:00 AM -0.01 31.982 0.022 6.18 1.87 13.98
1/15/2023 5:15:00 AM -0.01 31.982 0.022 6.18 1.82 13.98
1/15/2023 5:30:00 AM -0.01 31.982 0.022 6.18 1.72 14
1/15/2023 5:45:00 AM -0.01 31.982 0.022 6.17 1.82 13.99
1/15/2023 6:00:00 AM -0.01 31.982 0.022 6.18 1.76 13.99
1/15/2023 6:15:00 AM -0.01 31.982 0.022 6.18 1.75 13.99
1/15/2023 6:30:00 AM -0.02 31.964 0.022 6.18 1.78 14
1/15/2023 6:45:00 AM -0.01 31.982 0.022 6.18 1.81 13.99
1/15/2023 7:00:00 AM -0.01 31.982 0.022 6.17 1.77 13.99
1/15/2023 7:15:00 AM -0.01 31.982 0.022 6.18 1.76 13.99
1/15/2023 7:30:00 AM 0 32 0.022 6.18 1.77 13.99
1/15/2023 7:45:00 AM -0.01 31.982 0.022 6.18 1.82 14
1/15/2023 8:00:00 AM 0 32 0.022 6.18 1.73 14.01
1/15/2023 8:15:00 AM -0.01 31.982 0.022 6.19 1.69 14.01
1/15/2023 8:30:00 AM 0 32 0.023 6.19 1.7 14.03
1/15/2023 8:45:00 AM 0 32 0.022 6.19 1.76 14.05
1/15/2023 9:00:00 AM 0.01 32.018 0.023 6.18 1.79 14.07
1/15/2023 9:15:00 AM 0 32 0.022 6.19 1.79 14.09
1/15/2023 9:30:00 AM 0.02 32.036 0.022 6.2 1.71 14.1
1/15/2023 9:45:00 AM 0.02 32.036 0.022 6.19 1.73 14.11
1/15/2023 10:00:00 AM 0.03 32.054 0.022 6.2 1.75 14.12
1/15/2023 10:15:00 AM 0.04 32.072 0.023 6.21 1.8 14.12
1/15/2023 10:30:00 AM 0.05 32.09 0.022 6.21 1.84 14.14
1/15/2023 10:45:00 AM 0.07 32.126 0.022 6.21 1.72 14.12
1/15/2023 11:00:00 AM 0.09 32.162 0.023 6.21 1.82 14.13
1/15/2023 11:15:00 AM 0.11 32.198 0.023 6.21 1.83 14.13
1/15/2023 11:30:00 AM 0.14 32.252 0.022 6.21 1.82 14.13
1/15/2023 11:45:00 AM 0.18 32.324 0.022 6.21 1.74 14.11
1/15/2023 12:00:00 PM 0.18 32.324 0.022 6.22 1.84 14.11
1/15/2023 12:15:00 PM 0.2 32.36 0.022 6.21 1.94 14.09
1/15/2023 12:30:00 PM 0.26 32.468 0.022 6.2 1.85 14.06
1/15/2023 12:45:00 PM 0.41 32.738 0.022 6.21 1.81 14.02
1/15/2023 1:00:00 PM 0.56 33.008 0.022 6.22 1.8 13.99
1/15/2023 1:15:00 PM 0.67 33.206 0.022 6.23 1.76 13.97
1/15/2023 1:30:00 PM 0.76 33.368 0.022 6.23 1.74 13.95
1/15/2023 1:45:00 PM 0.82 33.476 0.022 6.23 1.78 13.93
1/15/2023 2:00:00 PM 0.84 33.512 0.023 6.23 1.72 13.91
1/15/2023 2:15:00 PM 0.84 33.512 0.022 6.24 1.75 13.9
1/15/2023 2:30:00 PM 0.83 33.494 0.022 6.23 1.66 13.89
1/15/2023 2:45:00 PM 0.82 33.476 0.022 6.23 1.73 13.89
1/15/2023 3:00:00 PM 0.79 33.422 0.022 6.23 1.77 13.89
1/15/2023 3:15:00 PM 0.72 33.296 0.022 6.23 1.68 13.89
1/15/2023 3:30:00 PM 0.65 33.17 0.022 6.23 1.78 13.9
1/15/2023 3:45:00 PM 0.58 33.044 0.022 6.22 1.73 13.92
1/15/2023 4:00:00 PM 0.53 32.954 0.022 6.21 1.75 13.92
1/15/2023 4:15:00 PM 0.47 32.846 0.022 6.22 1.86 13.93
1/15/2023 4:30:00 PM 0.42 32.756 0.022 6.22 1.7 13.93
1/15/2023 4:45:00 PM 0.38 32.684 0.022 6.22 1.68 13.92
1/15/2023 5:00:00 PM 0.34 32.612 0.023 6.22 1.82 13.93
1/15/2023 5:15:00 PM 0.3 32.54 0.022 6.22 1.76 13.92
1/15/2023 5:30:00 PM 0.27 32.486 0.023 6.21 1.74 13.92
1/15/2023 5:45:00 PM 0.24 32.432 0.023 6.22 1.64 13.92
1/15/2023 6:00:00 PM 0.21 32.378 0.024 6.21 1.81 13.9
1/15/2023 6:15:00 PM 0.18 32.324 0.024 6.21 1.86 13.91
1/15/2023 6:30:00 PM 0.16 32.288 0.024 6.21 1.89 13.92
1/15/2023 6:45:00 PM 0.14 32.252 0.023 6.2 1.75 13.91
1/15/2023 7:00:00 PM 0.11 32.198 0.023 6.21 1.92 13.92
1/15/2023 7:15:00 PM 0.08 32.144 0.023 6.21 1.95 13.94
1/15/2023 7:30:00 PM 0.06 32.108 0.023 6.2 1.92 13.94
1/15/2023 7:45:00 PM 0.05 32.09 0.023 6.2 2.04 13.95
1/15/2023 8:00:00 PM 0.02 32.036 0.022 6.2 1.85 13.95
1/15/2023 8:15:00 PM 0 32 0.023 6.2 1.7 13.95
1/15/2023 8:30:00 PM -0.01 31.982 0.023 6.2 1.84 13.97
1/15/2023 8:45:00 PM -0.01 31.982 0.023 6.2 1.87 13.96
1/15/2023 9:00:00 PM -0.03 31.946 0.023 6.2 1.78 13.97
1/15/2023 9:15:00 PM -0.04 31.928 0.023 6.2 1.75 13.98
1/15/2023 9:30:00 PM -0.03 31.946 0.023 6.2 1.72 13.98
1/15/2023 9:45:00 PM -0.03 31.946 0.023 6.2 1.86 14
1/15/2023 10:00:00 PM -0.02 31.964 0.023 6.2 1.82 13.99
1/15/2023 10:15:00 PM -0.03 31.946 0.023 6.2 1.65 14.01
1/15/2023 10:30:00 PM -0.03 31.946 0.023 6.2 1.76 14.01
1/15/2023 10:45:00 PM -0.02 31.964 0.023 6.2 1.75 14.01
1/15/2023 11:00:00 PM -0.02 31.964 0.023 6.2 1.76 14.01
1/15/2023 11:15:00 PM -0.02 31.964 0.023 6.2 1.8 14.01
1/15/2023 11:30:00 PM -0.02 31.964 0.023 6.2 1.74 14.02
1/15/2023 11:45:00 PM -0.02 31.964 0.023 6.21 1.75 14.01
1/16/2023 12:00:00 AM -0.03 31.946 0.023 6.21 1.72 14.03
1/16/2023 12:15:00 AM -0.02 31.964 0.023 6.2 1.71 14.03
1/16/2023 12:30:00 AM -0.02 31.964 0.023 6.2 1.73 14.03
1/16/2023 12:45:00 AM -0.02 31.964 0.023 6.21 1.68 14.03
1/16/2023 1:00:00 AM -0.02 31.964 0.023 6.2 1.83 14.02
1/16/2023 1:15:00 AM -0.02 31.964 0.024 6.21 1.59 14.02
1/16/2023 1:30:00 AM -0.03 31.946 0.023 6.21 1.67 14.02
1/16/2023 1:45:00 AM -0.02 31.964 0.023 6.22 1.69 14.02
1/16/2023 2:00:00 AM -0.02 31.964 0.023 6.21 1.89 14.02
1/16/2023 2:15:00 AM -0.02 31.964 0.023 6.21 1.87 14.02
1/16/2023 2:30:00 AM -0.02 31.964 0.024 6.22 1.7 14.02
1/16/2023 2:45:00 AM -0.02 31.964 0.023 6.21 1.71 14.01
1/16/2023 3:00:00 AM -0.02 31.964 0.023 6.22 1.69 14.01
1/16/2023 3:15:00 AM -0.02 31.964 0.023 6.22 1.64 14.01
1/16/2023 3:30:00 AM -0.02 31.964 0.024 6.22 1.67 14.01
1/16/2023 3:45:00 AM -0.03 31.946 0.024 6.22 1.66 14.02
1/16/2023 4:00:00 AM -0.02 31.964 0.024 6.22 1.65 14.02
1/16/2023 4:15:00 AM -0.03 31.946 0.024 6.22 1.68 14.01
1/16/2023 4:30:00 AM -0.02 31.964 0.024 6.22 1.66 14.02
1/16/2023 4:45:00 AM -0.02 31.964 0.024 6.23 1.7 14.01
1/16/2023 5:00:00 AM -0.02 31.964 0.024 6.22 1.67 14.01
1/16/2023 5:15:00 AM -0.02 31.964 0.024 6.22 1.69 14.03
1/16/2023 5:30:00 AM -0.03 31.946 0.024 6.22 1.7 14.03
1/16/2023 5:45:00 AM -0.03 31.946 0.023 6.22 1.74 14.03
1/16/2023 6:00:00 AM -0.02 31.964 0.024 6.23 1.78 14.03
1/16/2023 6:15:00 AM -0.02 31.964 0.024 6.23 1.72 14.02
1/16/2023 6:30:00 AM -0.02 31.964 0.024 6.23 1.8 14.03
1/16/2023 6:45:00 AM -0.02 31.964 0.024 6.23 1.66 14.02
1/16/2023 7:00:00 AM -0.02 31.964 0.024 6.23 1.71 14.03
1/16/2023 7:15:00 AM -0.02 31.964 0.024 6.24 1.69 14.04
1/16/2023 7:30:00 AM -0.02 31.964 0.024 6.23 1.71 14.03
1/16/2023 7:45:00 AM -0.02 31.964 0.024 6.24 1.71 14.03
1/16/2023 8:00:00 AM -0.01 31.982 0.024 6.23 1.6 14.04
1/16/2023 8:15:00 AM -0.02 31.964 0.024 6.24 1.68 14.05
1/16/2023 8:30:00 AM -0.02 31.964 0.024 6.24 1.71 14.06
1/16/2023 8:45:00 AM -0.01 31.982 0.024 6.24 1.69 14.06
1/16/2023 9:00:00 AM -0.01 31.982 0.024 6.24